Time,TemperatureF,DewpointF,PressureIn,WindDirection,WindDirectionDegrees,WindSpeedMPH,WindSpeedGustMPH,Humidity,HourlyPrecipIn,Conditions,Clouds,dailyrainin,SoftwareType,DateUTC
2013-08-10 00:00:00,78.0,51.1,0.00,South,180,17.5,23.3,39,0.00,,---,0.00,VWS V14.01,2013-08-10 05:00:00,
2013-08-10 00:02:00,78.0,51.1,0.00,South,180,14.8,17.5,39,0.00,,---,0.00,VWS V14.01,2013-08-10 05:02:00,
2013-08-10 00:03:00,77.7,51.5,0.00,SSE,158,14.3,17.5,40,0.00,,---,0.00,VWS V14.01,2013-08-10 05:03:00,
2013-08-10 00:04:00,77.7,51.5,0.00,SSE,158,14.3,17.5,40,0.00,,---,0.00,VWS V14.01,2013-08-10 05:04:00,
2013-08-10 00:05:00,77.7,51.5,0.00,SSW,202,12.8,17.5,40,0.00,,---,0.00,VWS V14.01,2013-08-10 05:05:00,
2013-08-10 00:06:00,78.6,51.6,0.00,South,180,12.5,17.5,39,0.00,,---,0.00,VWS V14.01,2013-08-10 05:06:00,
2013-08-10 00:07:00,78.6,51.6,0.00,SSW,202,10.3,17.5,39,0.00,,---,0.00,VWS V14.01,2013-08-10 05:07:00,
2013-08-10 00:08:00,78.8,51.7,0.00,SSW,202,14.8,17.5,39,0.00,,---,0.00,VWS V14.01,2013-08-10 05:08:00,
2013-08-10 00:10:00,78.9,51.2,0.00,SW,225,9.6,17.5,38,0.00,,---,0.00,VWS V14.01,2013-08-10 05:10:00,
2013-08-10 00:11:00,78.9,51.2,0.00,SSW,202,10.3,17.5,38,0.00,,---,0.00,VWS V14.01,2013-08-10 05:11:00,
2013-08-10 00:12:00,79.1,51.4,0.00,South,180,11.0,17.5,38,0.00,,---,0.00,VWS V14.01,2013-08-10 05:12:00,
2013-08-10 00:13:00,78.9,51.9,0.00,South,180,9.8,17.5,39,0.00,,---,0.00,VWS V14.01,2013-08-10 05:13:00,
2013-08-10 00:14:00,78.8,51.0,0.00,SW,225,10.1,17.5,38,0.00,,---,0.00,VWS V14.01,2013-08-10 05:14:00,
2013-08-10 00:15:00,78.8,51.7,0.00,South,180,15.2,17.5,39,0.00,,---,0.00,VWS V14.01,2013-08-10 05:15:00,
2013-08-10 00:16:00,78.4,50.7,0.00,South,180,7.8,15.2,38,0.00,,---,0.00,VWS V14.01,2013-08-10 05:16:00,
2013-08-10 00:17:00,79.3,52.9,0.00,SSW,202,9.2,15.2,40,0.00,,---,0.00,VWS V14.01,2013-08-10 05:17:00,
2013-08-10 00:19:00,79.7,53.2,0.00,SW,225,7.8,15.2,40,0.00,,---,0.00,VWS V14.01,2013-08-10 05:19:00,
2013-08-10 00:20:00,80.0,52.9,0.00,SSW,202,11.9,15.2,39,0.00,,---,0.00,VWS V14.01,2013-08-10 05:20:00,
2013-08-10 00:22:00,79.1,51.4,0.00,South,180,10.1,16.8,38,0.00,,---,0.00,VWS V14.01,2013-08-10 05:22:00,
2013-08-10 00:23:00,79.3,51.5,0.00,South,180,12.3,16.8,38,0.00,,---,0.00,VWS V14.01,2013-08-10 05:23:00,
2013-08-10 00:24:00,79.3,51.5,0.00,SW,225,11.0,16.8,38,0.00,,---,0.00,VWS V14.01,2013-08-10 05:24:00,
2013-08-10 00:25:00,79.7,51.8,0.00,SW,225,12.1,16.8,38,0.00,,---,0.00,VWS V14.01,2013-08-10 05:25:00,
2013-08-10 00:26:00,80.0,52.2,0.00,SW,225,12.3,16.8,38,0.00,,---,0.00,VWS V14.01,2013-08-10 05:26:00,
2013-08-10 00:27:00,79.7,51.8,0.00,South,180,13.0,16.8,38,0.00,,---,0.00,VWS V14.01,2013-08-10 05:27:00,
2013-08-10 00:28:00,79.7,51.8,0.00,SW,225,10.3,16.8,38,0.00,,---,0.00,VWS V14.01,2013-08-10 05:28:00,
2013-08-10 00:29:00,79.7,51.1,0.00,South,180,17.0,17.2,37,0.00,,---,0.00,VWS V14.01,2013-08-10 05:29:00,
2013-08-10 00:30:00,79.7,51.1,0.00,SSE,158,20.1,20.1,37,0.00,,---,0.00,VWS V14.01,2013-08-10 05:30:00,
2013-08-10 00:32:00,80.2,51.6,0.00,SSE,158,15.2,20.1,37,0.00,,---,0.00,VWS V14.01,2013-08-10 05:32:00,
2013-08-10 00:33:00,80.2,51.6,0.00,SSE,158,13.9,20.1,37,0.00,,---,0.00,VWS V14.01,2013-08-10 05:33:00,
2013-08-10 00:34:00,80.0,52.2,0.00,South,180,13.2,20.1,38,0.00,,---,0.00,VWS V14.01,2013-08-10 05:34:00,
2013-08-10 00:35:00,80.0,52.9,0.00,South,180,15.4,20.1,39,0.00,,---,0.00,VWS V14.01,2013-08-10 05:35:00,
2013-08-10 00:36:00,80.4,52.5,0.00,SW,225,9.8,20.1,38,0.00,,---,0.00,VWS V14.01,2013-08-10 05:36:00,
2013-08-10 00:37:00,80.6,51.9,0.00,SW,225,12.3,20.1,37,0.00,,---,0.00,VWS V14.01,2013-08-10 05:37:00,
2013-08-10 00:38:00,80.6,51.9,0.00,SW,225,12.3,20.1,37,0.00,,---,0.00,VWS V14.01,2013-08-10 05:38:00,
2013-08-10 00:39:00,80.2,52.3,0.00,SSE,158,16.6,20.1,38,0.00,,---,0.00,VWS V14.01,2013-08-10 05:39:00,
2013-08-10 00:40:00,80.0,52.2,0.00,SSW,202,10.5,20.1,38,0.00,,---,0.00,VWS V14.01,2013-08-10 05:40:00,
2013-08-10 00:41:00,80.0,52.2,0.00,South,180,10.5,20.1,38,0.00,,---,0.00,VWS V14.01,2013-08-10 05:41:00,
2013-08-10 00:42:00,80.0,52.2,0.00,SSE,158,15.9,20.1,38,0.00,,---,0.00,VWS V14.01,2013-08-10 05:42:00,
2013-08-10 00:43:00,80.2,52.3,0.00,South,180,10.3,20.1,38,0.00,,---,0.00,VWS V14.01,2013-08-10 05:43:00,
2013-08-10 00:44:00,80.0,52.2,0.00,South,180,11.4,20.1,38,0.00,,---,0.00,VWS V14.01,2013-08-10 05:44:00,
2013-08-10 00:45:00,80.0,52.2,0.00,SSW,202,12.8,20.1,38,0.00,,---,0.00,VWS V14.01,2013-08-10 05:45:00,
2013-08-10 00:46:00,80.0,52.2,0.00,SSW,202,12.1,12.8,38,0.00,,---,0.00,VWS V14.01,2013-08-10 05:46:00,
2013-08-10 00:47:00,80.2,51.6,0.00,SW,225,10.3,13.2,37,0.00,,---,0.00,VWS V14.01,2013-08-10 05:47:00,
2013-08-10 00:48:00,80.2,51.6,0.00,SW,225,10.3,13.2,37,0.00,,---,0.00,VWS V14.01,2013-08-10 05:48:00,
2013-08-10 00:49:00,80.2,51.6,0.00,South,180,10.1,13.2,37,0.00,,---,0.00,VWS V14.01,2013-08-10 05:49:00,
2013-08-10 00:50:00,79.8,52.0,0.00,SW,225,12.8,13.2,38,0.00,,---,0.00,VWS V14.01,2013-08-10 05:50:00,
2013-08-10 00:51:00,80.0,52.2,0.00,South,180,8.7,13.2,38,0.00,,---,0.00,VWS V14.01,2013-08-10 05:51:00,
2013-08-10 00:52:00,80.0,51.4,0.00,SSE,158,10.5,13.2,37,0.00,,---,0.00,VWS V14.01,2013-08-10 05:52:00,
2013-08-10 00:53:00,80.6,52.6,0.00,South,180,9.8,13.2,38,0.00,,---,0.00,VWS V14.01,2013-08-10 05:53:00,
2013-08-10 00:54:00,80.2,51.6,0.00,South,180,9.0,13.2,37,0.00,,---,0.00,VWS V14.01,2013-08-10 05:54:00,
2013-08-10 00:55:00,80.2,51.6,0.00,South,180,13.2,15.2,37,0.00,,---,0.00,VWS V14.01,2013-08-10 05:55:00,
2013-08-10 00:56:00,80.2,51.6,0.00,South,180,12.3,15.2,37,0.00,,---,0.00,VWS V14.01,2013-08-10 05:56:00,
2013-08-10 00:57:00,80.2,51.6,0.00,South,180,10.5,15.2,37,0.00,,---,0.00,VWS V14.01,2013-08-10 05:57:00,
2013-08-10 00:58:00,80.2,51.6,0.00,SE,135,17.5,17.5,37,0.00,,---,0.00,VWS V14.01,2013-08-10 05:58:00,
2013-08-10 00:59:00,80.6,51.2,0.00,South,180,19.5,19.5,36,0.00,,---,0.00,VWS V14.01,2013-08-10 05:59:00,
2013-08-10 01:00:00,80.6,51.2,0.00,South,180,19.5,19.5,36,0.00,,---,0.00,VWS V14.01,2013-08-10 06:00:00,
2013-08-10 01:01:00,80.0,51.4,0.00,South,180,15.4,19.5,37,0.00,,---,0.00,VWS V14.01,2013-08-10 06:01:00,
2013-08-10 01:03:00,79.8,51.3,0.00,South,180,16.6,19.5,37,0.00,,---,0.00,VWS V14.01,2013-08-10 06:03:00,
2013-08-10 01:04:00,80.0,50.7,0.00,South,180,11.2,19.5,36,0.00,,---,0.00,VWS V14.01,2013-08-10 06:04:00,
2013-08-10 01:05:00,80.2,50.8,0.00,South,180,12.5,19.5,36,0.00,,---,0.00,VWS V14.01,2013-08-10 06:05:00,
2013-08-10 01:06:00,80.4,51.8,0.00,South,180,16.6,19.5,37,0.00,,---,0.00,VWS V14.01,2013-08-10 06:06:00,
2013-08-10 01:07:00,80.4,51.8,0.00,SSE,158,15.2,20.1,37,0.00,,---,0.00,VWS V14.01,2013-08-10 06:07:00,
2013-08-10 01:08:00,80.0,50.7,0.00,SSW,202,13.2,20.1,36,0.00,,---,0.00,VWS V14.01,2013-08-10 06:08:00,
2013-08-10 01:09:00,80.0,50.7,0.00,SSW,202,13.2,20.1,36,0.00,,---,0.00,VWS V14.01,2013-08-10 06:09:00,
2013-08-10 01:10:00,80.0,50.7,0.00,South,180,11.0,20.1,36,0.00,,---,0.00,VWS V14.01,2013-08-10 06:10:00,
2013-08-10 01:11:00,80.9,52.2,0.00,SW,225,11.9,20.1,37,0.00,,---,0.00,VWS V14.01,2013-08-10 06:11:00,
2013-08-10 01:12:00,81.1,52.4,0.00,South,180,10.5,20.1,37,0.00,,---,0.00,VWS V14.01,2013-08-10 06:12:00,
2013-08-10 01:14:00,80.7,51.3,0.00,SSW,202,17.2,20.1,36,0.00,,---,0.00,VWS V14.01,2013-08-10 06:14:00,
2013-08-10 01:15:00,80.0,51.4,0.00,South,180,14.1,20.1,37,0.00,,---,0.00,VWS V14.01,2013-08-10 06:15:00,
2013-08-10 01:16:00,80.2,50.8,0.00,South,180,13.2,17.0,36,0.00,,---,0.00,VWS V14.01,2013-08-10 06:16:00,
2013-08-10 01:17:00,80.2,51.6,0.00,South,180,11.0,17.0,37,0.00,,---,0.00,VWS V14.01,2013-08-10 06:17:00,
2013-08-10 01:19:00,81.1,52.4,0.00,South,180,10.7,17.0,37,0.00,,---,0.00,VWS V14.01,2013-08-10 06:19:00,
2013-08-10 01:20:00,81.6,52.1,0.00,South,180,12.8,17.0,36,0.00,,---,0.00,VWS V14.01,2013-08-10 06:20:00,
2013-08-10 01:21:00,80.9,51.5,0.00,SW,225,17.0,19.2,36,0.00,,---,0.00,VWS V14.01,2013-08-10 06:21:00,
2013-08-10 01:22:00,80.4,50.2,0.00,South,180,10.7,22.2,35,0.00,,---,0.00,VWS V14.01,2013-08-10 06:22:00,
2013-08-10 01:23:00,80.4,50.2,0.00,South,180,13.2,22.2,35,0.00,,---,0.00,VWS V14.01,2013-08-10 06:23:00,
2013-08-10 01:24:00,80.4,50.2,0.00,SW,225,8.7,22.2,35,0.00,,---,0.00,VWS V14.01,2013-08-10 06:24:00,
2013-08-10 01:25:00,80.4,50.2,0.00,South,180,19.7,22.2,35,0.00,,---,0.00,VWS V14.01,2013-08-10 06:25:00,
2013-08-10 01:26:00,80.6,51.2,0.00,SW,225,7.4,22.2,36,0.00,,---,0.00,VWS V14.01,2013-08-10 06:26:00,
2013-08-10 01:27:00,81.5,52.7,0.00,SW,225,8.1,22.2,37,0.00,,---,0.00,VWS V14.01,2013-08-10 06:27:00,
2013-08-10 01:28:00,81.6,52.1,0.00,South,180,10.3,22.2,36,0.00,,---,0.00,VWS V14.01,2013-08-10 06:28:00,
2013-08-10 01:29:00,81.3,51.8,0.00,South,180,12.8,22.2,36,0.00,,---,0.00,VWS V14.01,2013-08-10 06:29:00,
2013-08-10 01:30:00,81.1,51.7,0.00,South,180,12.3,22.2,36,0.00,,---,0.00,VWS V14.01,2013-08-10 06:30:00,
2013-08-10 01:31:00,80.9,51.5,0.00,SW,225,8.7,13.0,36,0.00,,---,0.00,VWS V14.01,2013-08-10 06:31:00,
2013-08-10 01:32:00,80.9,51.5,0.00,South,180,7.8,13.0,36,0.00,,---,0.00,VWS V14.01,2013-08-10 06:32:00,
2013-08-10 01:33:00,81.3,51.8,0.00,South,180,12.8,15.4,36,0.00,,---,0.00,VWS V14.01,2013-08-10 06:33:00,
2013-08-10 01:34:00,80.9,50.7,0.00,SSW,202,13.2,16.6,35,0.00,,---,0.00,VWS V14.01,2013-08-10 06:34:00,
2013-08-10 01:35:00,80.9,50.7,0.00,South,180,12.8,16.6,35,0.00,,---,0.00,VWS V14.01,2013-08-10 06:35:00,
2013-08-10 01:36:00,80.7,50.6,0.00,SW,225,14.1,16.6,35,0.00,,---,0.00,VWS V14.01,2013-08-10 06:36:00,
2013-08-10 01:37:00,80.9,50.7,0.00,South,180,13.0,16.6,35,0.00,,---,0.00,VWS V14.01,2013-08-10 06:37:00,
2013-08-10 01:39:00,81.3,51.0,0.00,South,180,10.7,16.6,35,0.00,,---,0.00,VWS V14.01,2013-08-10 06:39:00,
2013-08-10 01:41:00,81.3,51.0,0.00,South,180,13.2,16.6,35,0.00,,---,0.00,VWS V14.01,2013-08-10 06:41:00,
2013-08-10 01:42:00,81.6,51.4,0.00,SW,225,9.8,16.6,35,0.00,,---,0.00,VWS V14.01,2013-08-10 06:42:00,
2013-08-10 01:43:00,81.3,51.0,0.00,South,180,19.7,22.2,35,0.00,,---,0.00,VWS V14.01,2013-08-10 06:43:00,
2013-08-10 01:44:00,81.3,51.0,0.00,South,180,15.4,22.2,35,0.00,,---,0.00,VWS V14.01,2013-08-10 06:44:00,
2013-08-10 01:45:00,80.7,49.8,0.00,South,180,12.3,22.2,34,0.00,,---,0.00,VWS V14.01,2013-08-10 06:45:00,
2013-08-10 01:46:00,81.1,50.9,0.00,SSE,158,13.0,15.4,35,0.00,,---,0.00,VWS V14.01,2013-08-10 06:46:00,
2013-08-10 01:47:00,81.1,50.9,0.00,South,180,12.8,15.4,35,0.00,,---,0.00,VWS V14.01,2013-08-10 06:47:00,
2013-08-10 01:48:00,81.3,51.0,0.00,South,180,10.3,15.4,35,0.00,,---,0.00,VWS V14.01,2013-08-10 06:48:00,
2013-08-10 01:49:00,81.5,51.2,0.00,South,180,9.8,15.4,35,0.00,,---,0.00,VWS V14.01,2013-08-10 06:49:00,
2013-08-10 01:50:00,81.5,51.2,0.00,South,180,12.5,15.4,35,0.00,,---,0.00,VWS V14.01,2013-08-10 06:50:00,
2013-08-10 01:51:00,81.5,51.2,0.00,South,180,15.7,15.7,35,0.00,,---,0.00,VWS V14.01,2013-08-10 06:51:00,
2013-08-10 01:52:00,81.5,51.2,0.00,SW,225,12.3,15.7,35,0.00,,---,0.00,VWS V14.01,2013-08-10 06:52:00,
2013-08-10 01:54:00,81.6,50.6,0.00,South,180,13.6,15.7,34,0.00,,---,0.00,VWS V14.01,2013-08-10 06:54:00,
2013-08-10 01:55:00,81.5,51.2,0.00,SW,225,13.9,15.7,35,0.00,,---,0.00,VWS V14.01,2013-08-10 06:55:00,
2013-08-10 01:56:00,81.6,51.4,0.00,SSW,202,13.0,15.7,35,0.00,,---,0.00,VWS V14.01,2013-08-10 06:56:00,
2013-08-10 01:57:00,81.6,51.4,0.00,South,180,10.3,15.7,35,0.00,,---,0.00,VWS V14.01,2013-08-10 06:57:00,
2013-08-10 01:58:00,81.8,51.5,0.00,SW,225,7.6,15.7,35,0.00,,---,0.00,VWS V14.01,2013-08-10 06:58:00,
2013-08-10 01:59:00,81.8,51.5,0.00,South,180,8.7,15.7,35,0.00,,---,0.00,VWS V14.01,2013-08-10 06:59:00,
2013-08-10 02:00:00,82.0,51.7,0.00,SE,135,15.7,15.7,35,0.00,,---,0.00,VWS V14.01,2013-08-10 07:00:00,
2013-08-10 02:01:00,81.6,52.1,0.00,South,180,15.2,17.2,36,0.00,,---,0.00,VWS V14.01,2013-08-10 07:01:00,
2013-08-10 02:02:00,81.6,51.4,0.00,South,180,17.5,17.5,35,0.00,,---,0.00,VWS V14.01,2013-08-10 07:02:00,
2013-08-10 02:03:00,81.8,52.3,0.00,SSE,158,11.0,17.5,36,0.00,,---,0.00,VWS V14.01,2013-08-10 07:03:00,
2013-08-10 02:04:00,81.6,51.4,0.00,SW,225,12.5,17.5,35,0.00,,---,0.00,VWS V14.01,2013-08-10 07:04:00,
2013-08-10 02:05:00,81.8,52.3,0.00,South,180,10.5,17.5,36,0.00,,---,0.00,VWS V14.01,2013-08-10 07:05:00,
2013-08-10 02:06:00,82.0,51.7,0.00,South,180,9.6,17.5,35,0.00,,---,0.00,VWS V14.01,2013-08-10 07:06:00,
2013-08-10 02:07:00,82.2,51.0,0.00,South,180,7.8,17.5,34,0.00,,---,0.00,VWS V14.01,2013-08-10 07:07:00,
2013-08-10 02:08:00,82.2,51.0,0.00,South,180,7.8,17.5,34,0.00,,---,0.00,VWS V14.01,2013-08-10 07:08:00,
2013-08-10 02:09:00,82.2,51.0,0.00,SW,225,10.7,17.5,34,0.00,,---,0.00,VWS V14.01,2013-08-10 07:09:00,
2013-08-10 02:10:00,82.4,52.0,0.00,South,180,10.1,17.5,35,0.00,,---,0.00,VWS V14.01,2013-08-10 07:10:00,
2013-08-10 02:11:00,82.2,51.8,0.00,South,180,10.7,17.5,35,0.00,,---,0.00,VWS V14.01,2013-08-10 07:11:00,
2013-08-10 02:12:00,82.7,52.3,0.00,SSE,158,12.5,17.5,35,0.00,,---,0.00,VWS V14.01,2013-08-10 07:12:00,
2013-08-10 02:13:00,82.7,53.1,0.00,South,180,12.1,17.5,36,0.00,,---,0.00,VWS V14.01,2013-08-10 07:13:00,
2013-08-10 02:14:00,82.5,52.9,0.00,South,180,10.5,19.9,36,0.00,,---,0.00,VWS V14.01,2013-08-10 07:14:00,
2013-08-10 02:16:00,82.5,52.2,0.00,South,180,11.0,19.9,35,0.00,,---,0.00,VWS V14.01,2013-08-10 07:16:00,
2013-08-10 02:17:00,82.7,52.3,0.00,South,180,10.7,19.9,35,0.00,,---,0.00,VWS V14.01,2013-08-10 07:17:00,
2013-08-10 02:18:00,82.7,52.3,0.00,South,180,10.5,19.9,35,0.00,,---,0.00,VWS V14.01,2013-08-10 07:18:00,
2013-08-10 02:19:00,82.2,51.0,0.00,SW,225,9.8,19.9,34,0.00,,---,0.00,VWS V14.01,2013-08-10 07:19:00,
2013-08-10 02:20:00,82.2,51.0,0.00,SSW,202,11.0,19.9,34,0.00,,---,0.00,VWS V14.01,2013-08-10 07:20:00,
2013-08-10 02:21:00,82.2,51.0,0.00,SSW,202,10.7,19.9,34,0.00,,---,0.00,VWS V14.01,2013-08-10 07:21:00,
2013-08-10 02:22:00,82.0,51.7,0.00,SSW,202,14.8,19.9,35,0.00,,---,0.00,VWS V14.01,2013-08-10 07:22:00,
2013-08-10 02:23:00,82.0,51.7,0.00,SSW,202,12.3,19.9,35,0.00,,---,0.00,VWS V14.01,2013-08-10 07:23:00,
2013-08-10 02:24:00,82.0,51.7,0.00,SSW,202,9.8,19.9,35,0.00,,---,0.00,VWS V14.01,2013-08-10 07:24:00,
2013-08-10 02:25:00,82.0,51.7,0.00,SW,225,11.0,19.9,35,0.00,,---,0.00,VWS V14.01,2013-08-10 07:25:00,
2013-08-10 02:26:00,82.0,51.7,0.00,SSW,202,10.5,19.9,35,0.00,,---,0.00,VWS V14.01,2013-08-10 07:26:00,
2013-08-10 02:27:00,82.5,51.4,0.00,South,180,12.3,19.9,34,0.00,,---,0.00,VWS V14.01,2013-08-10 07:27:00,
2013-08-10 02:28:00,82.4,51.2,0.00,SW,225,13.0,19.9,34,0.00,,---,0.00,VWS V14.01,2013-08-10 07:28:00,
2013-08-10 02:29:00,82.5,51.4,0.00,SSE,158,14.3,19.9,34,0.00,,---,0.00,VWS V14.01,2013-08-10 07:29:00,
2013-08-10 02:30:00,82.7,51.5,0.00,SSE,158,17.5,19.9,34,0.00,,---,0.00,VWS V14.01,2013-08-10 07:30:00,
2013-08-10 02:31:00,82.9,51.7,0.00,SSE,158,12.5,17.5,34,0.00,,---,0.00,VWS V14.01,2013-08-10 07:31:00,
2013-08-10 02:32:00,82.9,51.7,0.00,South,180,12.1,17.5,34,0.00,,---,0.00,VWS V14.01,2013-08-10 07:32:00,
2013-08-10 02:33:00,82.9,51.7,0.00,South,180,10.1,17.5,34,0.00,,---,0.00,VWS V14.01,2013-08-10 07:33:00,
2013-08-10 02:34:00,82.7,51.5,0.00,South,180,12.1,17.5,34,0.00,,---,0.00,VWS V14.01,2013-08-10 07:34:00,
2013-08-10 02:35:00,82.5,51.4,0.00,South,180,7.6,17.5,34,0.00,,---,0.00,VWS V14.01,2013-08-10 07:35:00,
2013-08-10 02:36:00,83.1,51.8,0.00,SSE,158,17.2,17.5,34,0.00,,---,0.00,VWS V14.01,2013-08-10 07:36:00,
2013-08-10 02:37:00,82.4,51.2,0.00,South,180,15.4,17.5,34,0.00,,---,0.00,VWS V14.01,2013-08-10 07:37:00,
2013-08-10 02:38:00,82.2,51.8,0.00,SSE,158,17.2,17.5,35,0.00,,---,0.00,VWS V14.01,2013-08-10 07:38:00,
2013-08-10 02:39:00,82.5,51.4,0.00,SSE,158,15.4,17.7,34,0.00,,---,0.00,VWS V14.01,2013-08-10 07:39:00,
2013-08-10 02:40:00,82.5,51.4,0.00,SSE,158,15.4,17.7,34,0.00,,---,0.00,VWS V14.01,2013-08-10 07:40:00,
2013-08-10 02:41:00,82.5,51.4,0.00,SSE,158,12.8,19.5,34,0.00,,---,0.00,VWS V14.01,2013-08-10 07:41:00,
2013-08-10 02:42:00,82.7,51.5,0.00,SSE,158,9.6,19.5,34,0.00,,---,0.00,VWS V14.01,2013-08-10 07:42:00,
2013-08-10 02:43:00,82.4,51.2,0.00,South,180,13.0,19.5,34,0.00,,---,0.00,VWS V14.01,2013-08-10 07:43:00,
2013-08-10 02:44:00,82.5,52.2,0.00,South,180,12.8,19.5,35,0.00,,---,0.00,VWS V14.01,2013-08-10 07:44:00,
2013-08-10 02:45:00,82.5,52.2,0.00,South,180,11.0,19.5,35,0.00,,---,0.00,VWS V14.01,2013-08-10 07:45:00,
2013-08-10 02:46:00,82.5,52.2,0.00,South,180,15.4,17.7,35,0.00,,---,0.00,VWS V14.01,2013-08-10 07:46:00,
2013-08-10 02:47:00,82.5,52.2,0.00,South,180,14.3,17.7,35,0.00,,---,0.00,VWS V14.01,2013-08-10 07:47:00,
2013-08-10 02:48:00,82.9,52.5,0.00,SSE,158,14.5,17.7,35,0.00,,---,0.00,VWS V14.01,2013-08-10 07:48:00,
2013-08-10 02:49:00,82.7,51.5,0.00,South,180,12.8,17.7,34,0.00,,---,0.00,VWS V14.01,2013-08-10 07:49:00,
2013-08-10 02:50:00,82.5,51.4,0.00,South,180,10.7,17.7,34,0.00,,---,0.00,VWS V14.01,2013-08-10 07:50:00,
2013-08-10 02:51:00,82.7,51.5,0.00,SSE,158,15.2,18.1,34,0.00,,---,0.00,VWS V14.01,2013-08-10 07:51:00,
2013-08-10 02:52:00,81.8,51.5,0.00,South,180,17.5,18.1,35,0.00,,---,0.00,VWS V14.01,2013-08-10 07:52:00,
2013-08-10 02:53:00,82.4,52.0,0.00,South,180,19.0,19.0,35,0.00,,---,0.00,VWS V14.01,2013-08-10 07:53:00,
2013-08-10 02:54:00,82.2,51.8,0.00,South,180,11.0,19.0,35,0.00,,---,0.00,VWS V14.01,2013-08-10 07:54:00,
2013-08-10 02:55:00,82.2,51.8,0.00,South,180,12.5,19.0,35,0.00,,---,0.00,VWS V14.01,2013-08-10 07:55:00,
2013-08-10 02:56:00,82.5,51.4,0.00,SSE,158,19.9,19.9,34,0.00,,---,0.00,VWS V14.01,2013-08-10 07:56:00,
2013-08-10 02:57:00,82.0,50.9,0.00,South,180,15.4,23.9,34,0.00,,---,0.00,VWS V14.01,2013-08-10 07:57:00,
2013-08-10 02:58:00,82.0,50.9,0.00,SSW,202,12.5,23.9,34,0.00,,---,0.00,VWS V14.01,2013-08-10 07:58:00,
2013-08-10 02:59:00,81.6,50.6,0.00,South,180,17.7,23.9,34,0.00,,---,0.00,VWS V14.01,2013-08-10 07:59:00,
2013-08-10 03:00:00,81.6,50.6,0.00,South,180,11.0,23.9,34,0.00,,---,0.00,VWS V14.01,2013-08-10 08:00:00,
2013-08-10 03:01:00,82.2,51.0,0.00,South,180,9.8,15.2,34,0.00,,---,0.00,VWS V14.01,2013-08-10 08:01:00,
2013-08-10 03:02:00,82.2,51.0,0.00,South,180,14.8,15.2,34,0.00,,---,0.00,VWS V14.01,2013-08-10 08:02:00,
2013-08-10 03:03:00,82.2,51.0,0.00,South,180,16.1,18.8,34,0.00,,---,0.00,VWS V14.01,2013-08-10 08:03:00,
2013-08-10 03:04:00,81.5,50.4,0.00,South,180,16.1,18.8,34,0.00,,---,0.00,VWS V14.01,2013-08-10 08:04:00,
2013-08-10 03:05:00,81.6,50.6,0.00,SW,225,13.4,20.1,34,0.00,,---,0.00,VWS V14.01,2013-08-10 08:05:00,
2013-08-10 03:06:00,82.2,51.0,0.00,SSE,158,17.7,20.1,34,0.00,,---,0.00,VWS V14.01,2013-08-10 08:06:00,
2013-08-10 03:07:00,82.5,51.4,0.00,South,180,12.8,20.1,34,0.00,,---,0.00,VWS V14.01,2013-08-10 08:07:00,
2013-08-10 03:08:00,82.9,52.5,0.00,SSE,158,16.8,20.1,35,0.00,,---,0.00,VWS V14.01,2013-08-10 08:08:00,
2013-08-10 03:09:00,82.7,51.5,0.00,SE,135,20.6,22.2,34,0.00,,---,0.00,VWS V14.01,2013-08-10 08:09:00,
2013-08-10 03:10:00,82.7,51.5,0.00,South,180,17.2,22.8,34,0.00,,---,0.00,VWS V14.01,2013-08-10 08:10:00,
2013-08-10 03:11:00,82.7,51.5,0.00,SSE,158,22.8,24.4,34,0.00,,---,0.00,VWS V14.01,2013-08-10 08:11:00,
2013-08-10 03:12:00,82.7,51.5,0.00,SSE,158,22.8,24.4,34,0.00,,---,0.00,VWS V14.01,2013-08-10 08:12:00,
2013-08-10 03:13:00,81.8,50.7,0.00,SE,135,21.9,24.4,34,0.00,,---,0.00,VWS V14.01,2013-08-10 08:13:00,
2013-08-10 03:14:00,81.8,50.7,0.00,South,180,21.9,24.4,34,0.00,,---,0.00,VWS V14.01,2013-08-10 08:14:00,
2013-08-10 03:15:00,81.8,50.7,0.00,SE,135,22.4,24.4,34,0.00,,---,0.00,VWS V14.01,2013-08-10 08:15:00,
2013-08-10 03:16:00,81.6,49.8,0.00,South,180,17.2,22.4,33,0.00,,---,0.00,VWS V14.01,2013-08-10 08:16:00,
2013-08-10 03:17:00,81.6,49.8,0.00,SSW,202,11.4,22.4,33,0.00,,---,0.00,VWS V14.01,2013-08-10 08:17:00,
2013-08-10 03:18:00,81.8,50.7,0.00,SW,225,10.5,22.4,34,0.00,,---,0.00,VWS V14.01,2013-08-10 08:18:00,
2013-08-10 03:19:00,81.8,50.7,0.00,South,180,17.5,22.4,34,0.00,,---,0.00,VWS V14.01,2013-08-10 08:19:00,
2013-08-10 03:20:00,81.5,51.2,0.00,SSE,158,14.8,22.4,35,0.00,,---,0.00,VWS V14.01,2013-08-10 08:20:00,
2013-08-10 03:22:00,81.3,50.3,0.00,South,180,12.5,22.4,34,0.00,,---,0.00,VWS V14.01,2013-08-10 08:22:00,
2013-08-10 03:23:00,81.6,51.4,0.00,South,180,12.1,22.4,35,0.00,,---,0.00,VWS V14.01,2013-08-10 08:23:00,
2013-08-10 03:24:00,82.0,51.7,0.00,South,180,10.7,22.4,35,0.00,,---,0.00,VWS V14.01,2013-08-10 08:24:00,
2013-08-10 03:25:00,81.6,50.6,0.00,South,180,9.6,22.4,34,0.00,,---,0.00,VWS V14.01,2013-08-10 08:25:00,
2013-08-10 03:26:00,81.6,50.6,0.00,South,180,15.4,22.4,34,0.00,,---,0.00,VWS V14.01,2013-08-10 08:26:00,
2013-08-10 03:27:00,81.5,50.4,0.00,South,180,19.2,22.4,34,0.00,,---,0.00,VWS V14.01,2013-08-10 08:27:00,
2013-08-10 03:28:00,81.1,50.1,0.00,South,180,13.0,22.4,34,0.00,,---,0.00,VWS V14.01,2013-08-10 08:28:00,
2013-08-10 03:29:00,81.1,50.1,0.00,South,180,17.7,22.4,34,0.00,,---,0.00,VWS V14.01,2013-08-10 08:29:00,
2013-08-10 03:30:00,82.2,51.0,0.00,SSE,158,15.7,22.4,34,0.00,,---,0.00,VWS V14.01,2013-08-10 08:30:00,
2013-08-10 03:31:00,82.0,50.9,0.00,South,180,12.1,17.5,34,0.00,,---,0.00,VWS V14.01,2013-08-10 08:31:00,
2013-08-10 03:33:00,81.6,50.6,0.00,SW,225,17.9,17.9,34,0.00,,---,0.00,VWS V14.01,2013-08-10 08:33:00,
2013-08-10 03:34:00,81.6,50.6,0.00,SSW,202,15.4,17.9,34,0.00,,---,0.00,VWS V14.01,2013-08-10 08:34:00,
2013-08-10 03:35:00,81.6,50.6,0.00,SSE,158,13.0,17.9,34,0.00,,---,0.00,VWS V14.01,2013-08-10 08:35:00,
2013-08-10 03:36:00,81.5,50.4,0.00,South,180,19.7,19.7,34,0.00,,---,0.00,VWS V14.01,2013-08-10 08:36:00,
2013-08-10 03:37:00,81.5,50.4,0.00,South,180,17.7,19.7,34,0.00,,---,0.00,VWS V14.01,2013-08-10 08:37:00,
2013-08-10 03:38:00,81.8,50.7,0.00,South,180,11.0,19.7,34,0.00,,---,0.00,VWS V14.01,2013-08-10 08:38:00,
2013-08-10 03:39:00,82.0,50.9,0.00,South,180,13.2,19.7,34,0.00,,---,0.00,VWS V14.01,2013-08-10 08:39:00,
2013-08-10 03:41:00,82.0,50.9,0.00,SE,135,14.1,19.7,34,0.00,,---,0.00,VWS V14.01,2013-08-10 08:41:00,
2013-08-10 03:42:00,81.8,51.5,0.00,South,180,13.0,19.7,35,0.00,,---,0.00,VWS V14.01,2013-08-10 08:42:00,
2013-08-10 03:43:00,82.0,50.9,0.00,SW,225,12.8,19.7,34,0.00,,---,0.00,VWS V14.01,2013-08-10 08:43:00,
2013-08-10 03:45:00,82.0,50.9,0.00,South,180,12.8,19.7,34,0.00,,---,0.00,VWS V14.01,2013-08-10 08:45:00,
2013-08-10 03:46:00,82.2,51.8,0.00,South,180,13.2,13.6,35,0.00,,---,0.00,VWS V14.01,2013-08-10 08:46:00,
2013-08-10 03:47:00,82.2,51.0,0.00,SSE,158,20.1,20.1,34,0.00,,---,0.00,VWS V14.01,2013-08-10 08:47:00,
2013-08-10 03:49:00,82.0,50.9,0.00,South,180,12.5,20.1,34,0.00,,---,0.00,VWS V14.01,2013-08-10 08:49:00,
2013-08-10 03:50:00,82.0,50.9,0.00,SSE,158,16.3,20.6,34,0.00,,---,0.00,VWS V14.01,2013-08-10 08:50:00,
2013-08-10 03:51:00,81.3,51.0,0.00,SSE,158,22.8,22.8,35,0.00,,---,0.00,VWS V14.01,2013-08-10 08:51:00,
2013-08-10 03:52:00,81.3,51.0,0.00,South,180,16.6,22.8,35,0.00,,---,0.00,VWS V14.01,2013-08-10 08:52:00,
2013-08-10 03:53:00,81.1,50.9,0.00,South,180,15.2,22.8,35,0.00,,---,0.00,VWS V14.01,2013-08-10 08:53:00,
2013-08-10 03:54:00,81.1,50.9,0.00,South,180,15.7,22.8,35,0.00,,---,0.00,VWS V14.01,2013-08-10 08:54:00,
2013-08-10 03:55:00,81.6,51.4,0.00,SSW,202,12.3,22.8,35,0.00,,---,0.00,VWS V14.01,2013-08-10 08:55:00,
2013-08-10 03:56:00,81.8,51.5,0.00,SE,135,17.0,22.8,35,0.00,,---,0.00,VWS V14.01,2013-08-10 08:56:00,
2013-08-10 03:57:00,82.0,50.9,0.00,South,180,15.9,22.8,34,0.00,,---,0.00,VWS V14.01,2013-08-10 08:57:00,
2013-08-10 03:58:00,81.6,50.6,0.00,South,180,15.2,22.8,34,0.00,,---,0.00,VWS V14.01,2013-08-10 08:58:00,
2013-08-10 03:59:00,81.8,50.7,0.00,SW,225,13.0,22.8,34,0.00,,---,0.00,VWS V14.01,2013-08-10 08:59:00,
2013-08-10 04:00:00,82.0,50.9,0.00,SW,225,11.0,22.8,34,0.00,,---,0.00,VWS V14.01,2013-08-10 09:00:00,
2013-08-10 04:01:00,82.0,50.9,0.00,South,180,12.8,15.9,34,0.00,,---,0.00,VWS V14.01,2013-08-10 09:01:00,
2013-08-10 04:02:00,82.0,50.9,0.00,South,180,23.0,23.0,34,0.00,,---,0.00,VWS V14.01,2013-08-10 09:02:00,
2013-08-10 04:03:00,82.0,50.9,0.00,South,180,15.7,23.0,34,0.00,,---,0.00,VWS V14.01,2013-08-10 09:03:00,
2013-08-10 04:04:00,82.0,50.9,0.00,South,180,17.5,23.0,34,0.00,,---,0.00,VWS V14.01,2013-08-10 09:04:00,
2013-08-10 04:05:00,81.6,50.6,0.00,SSE,158,18.1,23.0,34,0.00,,---,0.00,VWS V14.01,2013-08-10 09:05:00,
2013-08-10 04:06:00,82.2,51.0,0.00,SE,135,19.0,23.0,34,0.00,,---,0.00,VWS V14.01,2013-08-10 09:06:00,
2013-08-10 04:08:00,82.2,51.0,0.00,SSE,158,18.6,23.0,34,0.00,,---,0.00,VWS V14.01,2013-08-10 09:08:00,
2013-08-10 04:09:00,81.6,51.4,0.00,South,180,17.7,23.0,35,0.00,,---,0.00,VWS V14.01,2013-08-10 09:09:00,
2013-08-10 04:10:00,81.3,51.0,0.00,SE,135,13.0,23.0,35,0.00,,---,0.00,VWS V14.01,2013-08-10 09:10:00,
2013-08-10 04:11:00,80.9,50.7,0.00,SSW,202,13.6,23.0,35,0.00,,---,0.00,VWS V14.01,2013-08-10 09:11:00,
2013-08-10 04:12:00,81.1,50.9,0.00,South,180,21.9,23.0,35,0.00,,---,0.00,VWS V14.01,2013-08-10 09:12:00,
2013-08-10 04:13:00,80.9,50.0,0.00,South,180,22.4,25.3,34,0.00,,---,0.00,VWS V14.01,2013-08-10 09:13:00,
2013-08-10 04:14:00,80.6,49.6,0.00,South,180,13.6,25.3,34,0.00,,---,0.00,VWS V14.01,2013-08-10 09:14:00,
2013-08-10 04:15:00,80.6,49.6,0.00,SSE,158,17.7,25.3,34,0.00,,---,0.00,VWS V14.01,2013-08-10 09:15:00,
2013-08-10 04:16:00,80.6,50.4,0.00,SSW,202,15.7,23.5,35,0.00,,---,0.00,VWS V14.01,2013-08-10 09:16:00,
2013-08-10 04:17:00,81.1,50.9,0.00,SSW,202,15.4,23.5,35,0.00,,---,0.00,VWS V14.01,2013-08-10 09:17:00,
2013-08-10 04:18:00,81.1,50.9,0.00,South,180,13.9,23.5,35,0.00,,---,0.00,VWS V14.01,2013-08-10 09:18:00,
2013-08-10 04:19:00,81.5,51.2,0.00,South,180,15.2,23.5,35,0.00,,---,0.00,VWS V14.01,2013-08-10 09:19:00,
2013-08-10 04:20:00,81.5,51.2,0.00,South,180,15.2,23.5,35,0.00,,---,0.00,VWS V14.01,2013-08-10 09:20:00,
2013-08-10 04:21:00,81.5,51.2,0.00,South,180,13.9,23.5,35,0.00,,---,0.00,VWS V14.01,2013-08-10 09:21:00,
2013-08-10 04:22:00,81.3,51.0,0.00,South,180,17.5,23.5,35,0.00,,---,0.00,VWS V14.01,2013-08-10 09:22:00,
2013-08-10 04:23:00,80.9,50.7,0.00,South,180,15.2,23.5,35,0.00,,---,0.00,VWS V14.01,2013-08-10 09:23:00,
2013-08-10 04:25:00,81.3,51.0,0.00,South,180,9.8,23.5,35,0.00,,---,0.00,VWS V14.01,2013-08-10 09:25:00,
2013-08-10 04:26:00,81.5,50.4,0.00,South,180,17.5,24.2,34,0.00,,---,0.00,VWS V14.01,2013-08-10 09:26:00,
2013-08-10 04:27:00,81.5,50.4,0.00,South,180,14.3,24.2,34,0.00,,---,0.00,VWS V14.01,2013-08-10 09:27:00,
2013-08-10 04:28:00,81.6,50.6,0.00,SSW,202,12.1,24.2,34,0.00,,---,0.00,VWS V14.01,2013-08-10 09:28:00,
2013-08-10 04:29:00,81.8,50.7,0.00,SSW,202,10.1,24.2,34,0.00,,---,0.00,VWS V14.01,2013-08-10 09:29:00,
2013-08-10 04:30:00,81.6,51.4,0.00,SSW,202,11.0,24.2,35,0.00,,---,0.00,VWS V14.01,2013-08-10 09:30:00,
2013-08-10 04:31:00,81.6,51.4,0.00,SSE,158,23.7,23.7,35,0.00,,---,0.00,VWS V14.01,2013-08-10 09:31:00,
2013-08-10 04:33:00,79.8,49.8,0.00,SSE,158,17.2,23.7,35,0.00,,---,0.00,VWS V14.01,2013-08-10 09:33:00,
2013-08-10 04:34:00,79.5,50.2,0.00,South,180,14.8,23.7,36,0.00,,---,0.00,VWS V14.01,2013-08-10 09:34:00,
2013-08-10 04:35:00,79.5,50.2,0.00,South,180,15.4,23.7,36,0.00,,---,0.00,VWS V14.01,2013-08-10 09:35:00,
2013-08-10 04:36:00,80.2,50.1,0.00,South,180,16.3,23.7,35,0.00,,---,0.00,VWS V14.01,2013-08-10 09:36:00,
2013-08-10 04:37:00,80.4,50.2,0.00,SW,225,16.3,23.7,35,0.00,,---,0.00,VWS V14.01,2013-08-10 09:37:00,
2013-08-10 04:38:00,80.7,50.6,0.00,SSE,158,15.2,23.7,35,0.00,,---,0.00,VWS V14.01,2013-08-10 09:38:00,
2013-08-10 04:39:00,80.7,50.6,0.00,South,180,15.2,23.7,35,0.00,,---,0.00,VWS V14.01,2013-08-10 09:39:00,
2013-08-10 04:40:00,80.7,50.6,0.00,South,180,15.9,23.7,35,0.00,,---,0.00,VWS V14.01,2013-08-10 09:40:00,
2013-08-10 04:41:00,80.7,50.6,0.00,SSW,202,12.5,23.7,35,0.00,,---,0.00,VWS V14.01,2013-08-10 09:41:00,
2013-08-10 04:42:00,80.7,50.6,0.00,SSE,158,16.8,23.7,35,0.00,,---,0.00,VWS V14.01,2013-08-10 09:42:00,
2013-08-10 04:43:00,80.6,51.2,0.00,South,180,13.4,23.7,36,0.00,,---,0.00,VWS V14.01,2013-08-10 09:43:00,
2013-08-10 04:44:00,80.9,50.7,0.00,South,180,23.7,23.7,35,0.00,,---,0.00,VWS V14.01,2013-08-10 09:44:00,
2013-08-10 04:45:00,80.9,50.7,0.00,SSE,158,17.7,23.7,35,0.00,,---,0.00,VWS V14.01,2013-08-10 09:45:00,
2013-08-10 04:46:00,80.9,50.7,0.00,SSE,158,23.5,23.5,35,0.00,,---,0.00,VWS V14.01,2013-08-10 09:46:00,
2013-08-10 04:47:00,80.7,50.6,0.00,SE,135,19.7,23.5,35,0.00,,---,0.00,VWS V14.01,2013-08-10 09:47:00,
2013-08-10 04:48:00,80.7,50.6,0.00,SE,135,18.1,23.5,35,0.00,,---,0.00,VWS V14.01,2013-08-10 09:48:00,
2013-08-10 04:49:00,80.7,50.6,0.00,South,180,19.9,23.5,35,0.00,,---,0.00,VWS V14.01,2013-08-10 09:49:00,
2013-08-10 04:50:00,80.7,50.6,0.00,SE,135,17.5,23.5,35,0.00,,---,0.00,VWS V14.01,2013-08-10 09:50:00,
2013-08-10 04:51:00,80.6,49.6,0.00,South,180,16.6,23.5,34,0.00,,---,0.00,VWS V14.01,2013-08-10 09:51:00,
2013-08-10 04:52:00,81.1,50.9,0.00,South,180,18.8,23.5,35,0.00,,---,0.00,VWS V14.01,2013-08-10 09:52:00,
2013-08-10 04:53:00,81.3,51.0,0.00,South,180,15.4,23.5,35,0.00,,---,0.00,VWS V14.01,2013-08-10 09:53:00,
2013-08-10 04:54:00,80.9,50.7,0.00,SSE,158,15.4,24.6,35,0.00,,---,0.00,VWS V14.01,2013-08-10 09:54:00,
2013-08-10 04:55:00,80.9,50.7,0.00,SE,135,15.9,24.6,35,0.00,,---,0.00,VWS V14.01,2013-08-10 09:55:00,
2013-08-10 04:56:00,80.9,51.5,0.00,South,180,14.5,24.6,36,0.00,,---,0.00,VWS V14.01,2013-08-10 09:56:00,
2013-08-10 04:57:00,80.9,51.5,0.00,SSW,202,10.1,24.6,36,0.00,,---,0.00,VWS V14.01,2013-08-10 09:57:00,
2013-08-10 04:58:00,80.9,50.7,0.00,South,180,15.4,24.6,35,0.00,,---,0.00,VWS V14.01,2013-08-10 09:58:00,
2013-08-10 05:00:00,80.9,50.7,0.00,South,180,19.5,24.6,35,0.00,,---,0.00,VWS V14.01,2013-08-10 10:00:00,
2013-08-10 05:01:00,80.4,50.2,0.00,South,180,19.9,19.9,35,0.00,,---,0.00,VWS V14.01,2013-08-10 10:01:00,
2013-08-10 05:02:00,80.4,50.2,0.00,South,180,14.3,19.9,35,0.00,,---,0.00,VWS V14.01,2013-08-10 10:02:00,
2013-08-10 05:03:00,80.4,50.2,0.00,South,180,13.4,19.9,35,0.00,,---,0.00,VWS V14.01,2013-08-10 10:03:00,
2013-08-10 05:05:00,80.4,50.2,0.00,South,180,12.1,19.9,35,0.00,,---,0.00,VWS V14.01,2013-08-10 10:05:00,
2013-08-10 05:06:00,80.6,51.2,0.00,South,180,12.8,19.9,36,0.00,,---,0.00,VWS V14.01,2013-08-10 10:06:00,
2013-08-10 05:07:00,80.4,51.0,0.00,South,180,14.5,19.9,36,0.00,,---,0.00,VWS V14.01,2013-08-10 10:07:00,
2013-08-10 05:08:00,80.6,50.4,0.00,SSE,158,19.0,19.9,35,0.00,,---,0.00,VWS V14.01,2013-08-10 10:08:00,
2013-08-10 05:09:00,80.6,50.4,0.00,SE,135,15.4,19.9,35,0.00,,---,0.00,VWS V14.01,2013-08-10 10:09:00,
2013-08-10 05:10:00,80.6,50.4,0.00,SE,135,16.1,19.9,35,0.00,,---,0.00,VWS V14.01,2013-08-10 10:10:00,
2013-08-10 05:11:00,80.7,50.6,0.00,SE,135,19.7,21.9,35,0.00,,---,0.00,VWS V14.01,2013-08-10 10:11:00,
2013-08-10 05:12:00,80.7,50.6,0.00,SSE,158,12.8,21.9,35,0.00,,---,0.00,VWS V14.01,2013-08-10 10:12:00,
2013-08-10 05:13:00,80.7,50.6,0.00,South,180,13.2,21.9,35,0.00,,---,0.00,VWS V14.01,2013-08-10 10:13:00,
2013-08-10 05:14:00,80.7,50.6,0.00,South,180,13.2,21.9,35,0.00,,---,0.00,VWS V14.01,2013-08-10 10:14:00,
2013-08-10 05:16:00,80.7,50.6,0.00,South,180,11.4,21.9,35,0.00,,---,0.00,VWS V14.01,2013-08-10 10:16:00,
2013-08-10 05:17:00,80.7,50.6,0.00,South,180,15.4,21.9,35,0.00,,---,0.00,VWS V14.01,2013-08-10 10:17:00,
2013-08-10 05:18:00,80.7,50.6,0.00,South,180,18.6,21.9,35,0.00,,---,0.00,VWS V14.01,2013-08-10 10:18:00,
2013-08-10 05:19:00,80.0,50.7,0.00,South,180,12.3,21.9,36,0.00,,---,0.00,VWS V14.01,2013-08-10 10:19:00,
2013-08-10 05:20:00,80.2,50.1,0.00,South,180,16.6,21.9,35,0.00,,---,0.00,VWS V14.01,2013-08-10 10:20:00,
2013-08-10 05:21:00,80.6,51.2,0.00,SW,225,10.5,21.9,36,0.00,,---,0.00,VWS V14.01,2013-08-10 10:21:00,
2013-08-10 05:22:00,80.6,51.2,0.00,South,180,12.8,21.9,36,0.00,,---,0.00,VWS V14.01,2013-08-10 10:22:00,
2013-08-10 05:23:00,80.4,51.0,0.00,SSE,158,12.1,21.9,36,0.00,,---,0.00,VWS V14.01,2013-08-10 10:23:00,
2013-08-10 05:24:00,80.4,51.0,0.00,SSE,158,12.1,21.9,36,0.00,,---,0.00,VWS V14.01,2013-08-10 10:24:00,
2013-08-10 05:25:00,80.4,51.0,0.00,SE,135,18.1,21.9,36,0.00,,---,0.00,VWS V14.01,2013-08-10 10:25:00,
2013-08-10 05:26:00,80.4,51.0,0.00,South,180,14.5,21.9,36,0.00,,---,0.00,VWS V14.01,2013-08-10 10:26:00,
2013-08-10 05:27:00,80.4,51.0,0.00,SE,135,13.2,21.9,36,0.00,,---,0.00,VWS V14.01,2013-08-10 10:27:00,
2013-08-10 05:28:00,80.4,51.0,0.00,SSW,202,10.5,21.9,36,0.00,,---,0.00,VWS V14.01,2013-08-10 10:28:00,
2013-08-10 05:30:00,80.6,51.9,0.00,South,180,19.7,21.9,37,0.00,,---,0.00,VWS V14.01,2013-08-10 10:30:00,
2013-08-10 05:31:00,79.8,50.5,0.00,SSE,158,15.4,19.7,36,0.00,,---,0.00,VWS V14.01,2013-08-10 10:31:00,
2013-08-10 05:33:00,79.8,51.3,0.00,SSE,158,12.3,19.7,37,0.00,,---,0.00,VWS V14.01,2013-08-10 10:33:00,
2013-08-10 05:34:00,80.2,51.6,0.00,South,180,12.8,19.7,37,0.00,,---,0.00,VWS V14.01,2013-08-10 10:34:00,
2013-08-10 05:35:00,80.4,51.8,0.00,South,180,12.5,19.7,37,0.00,,---,0.00,VWS V14.01,2013-08-10 10:35:00,
2013-08-10 05:36:00,80.4,51.8,0.00,SW,225,15.2,19.7,37,0.00,,---,0.00,VWS V14.01,2013-08-10 10:36:00,
2013-08-10 05:37:00,80.2,50.8,0.00,South,180,15.2,19.7,36,0.00,,---,0.00,VWS V14.01,2013-08-10 10:37:00,
2013-08-10 05:39:00,80.0,50.7,0.00,South,180,13.9,19.7,36,0.00,,---,0.00,VWS V14.01,2013-08-10 10:39:00,
2013-08-10 05:40:00,79.7,51.1,0.00,South,180,13.0,19.7,37,0.00,,---,0.00,VWS V14.01,2013-08-10 10:40:00,
2013-08-10 05:41:00,79.7,51.1,0.00,South,180,13.6,19.7,37,0.00,,---,0.00,VWS V14.01,2013-08-10 10:41:00,
2013-08-10 05:42:00,79.7,51.8,0.00,South,180,13.0,19.7,38,0.00,,---,0.00,VWS V14.01,2013-08-10 10:42:00,
2013-08-10 05:43:00,79.8,51.3,0.00,SW,225,15.4,19.7,37,0.00,,---,0.00,VWS V14.01,2013-08-10 10:43:00,
2013-08-10 05:44:00,79.8,52.0,0.00,SW,225,13.2,19.7,38,0.00,,---,0.00,VWS V14.01,2013-08-10 10:44:00,
2013-08-10 05:45:00,79.8,52.0,0.00,South,180,16.1,19.7,38,0.00,,---,0.00,VWS V14.01,2013-08-10 10:45:00,
2013-08-10 05:46:00,79.7,51.8,0.00,SW,225,12.8,16.1,38,0.00,,---,0.00,VWS V14.01,2013-08-10 10:46:00,
2013-08-10 05:47:00,79.7,51.8,0.00,SSW,202,13.4,16.1,38,0.00,,---,0.00,VWS V14.01,2013-08-10 10:47:00,
2013-08-10 05:49:00,79.8,52.0,0.00,South,180,10.7,16.1,38,0.00,,---,0.00,VWS V14.01,2013-08-10 10:49:00,
2013-08-10 05:50:00,79.8,52.0,0.00,South,180,11.0,16.1,38,0.00,,---,0.00,VWS V14.01,2013-08-10 10:50:00,
2013-08-10 05:51:00,79.8,52.0,0.00,South,180,12.5,16.1,38,0.00,,---,0.00,VWS V14.01,2013-08-10 10:51:00,
2013-08-10 05:52:00,79.7,51.8,0.00,South,180,15.7,16.1,38,0.00,,---,0.00,VWS V14.01,2013-08-10 10:52:00,
2013-08-10 05:53:00,79.8,52.0,0.00,SE,135,16.8,17.7,38,0.00,,---,0.00,VWS V14.01,2013-08-10 10:53:00,
2013-08-10 05:54:00,79.8,52.0,0.00,SSE,158,17.7,17.7,38,0.00,,---,0.00,VWS V14.01,2013-08-10 10:54:00,
2013-08-10 05:55:00,79.8,52.0,0.00,South,180,16.8,17.7,38,0.00,,---,0.00,VWS V14.01,2013-08-10 10:55:00,
2013-08-10 05:57:00,79.1,51.4,0.00,South,180,15.4,23.0,38,0.00,,---,0.00,VWS V14.01,2013-08-10 10:57:00,
2013-08-10 05:58:00,79.1,51.4,0.00,SSE,158,17.5,23.0,38,0.00,,---,0.00,VWS V14.01,2013-08-10 10:58:00,
2013-08-10 05:59:00,79.1,51.4,0.00,South,180,19.0,23.0,38,0.00,,---,0.00,VWS V14.01,2013-08-10 10:59:00,
2013-08-10 06:00:00,78.9,51.9,0.00,South,180,17.2,23.0,39,0.00,,---,0.00,VWS V14.01,2013-08-10 11:00:00,
2013-08-10 06:01:00,78.9,51.9,0.00,South,180,22.6,22.6,39,0.00,,---,0.00,VWS V14.01,2013-08-10 11:01:00,
2013-08-10 06:02:00,78.9,51.9,0.00,South,180,13.0,22.6,39,0.00,,---,0.00,VWS V14.01,2013-08-10 11:02:00,
2013-08-10 06:03:00,78.6,51.6,0.00,SSE,158,11.0,22.6,39,0.00,,---,0.00,VWS V14.01,2013-08-10 11:03:00,
2013-08-10 06:04:00,78.6,51.6,0.00,South,180,13.0,22.6,39,0.00,,---,0.00,VWS V14.01,2013-08-10 11:04:00,
2013-08-10 06:06:00,78.6,51.6,0.00,South,180,17.0,22.6,39,0.00,,---,0.00,VWS V14.01,2013-08-10 11:06:00,
2013-08-10 06:07:00,78.6,51.6,0.00,South,180,15.4,22.6,39,0.00,,---,0.00,VWS V14.01,2013-08-10 11:07:00,
2013-08-10 06:09:00,78.8,51.7,0.00,SSW,202,9.8,22.6,39,0.00,,---,0.00,VWS V14.01,2013-08-10 11:09:00,
2013-08-10 06:10:00,79.1,52.1,0.00,South,180,12.1,22.6,39,0.00,,---,0.00,VWS V14.01,2013-08-10 11:10:00,
2013-08-10 06:11:00,79.1,52.1,0.00,South,180,10.5,22.6,39,0.00,,---,0.00,VWS V14.01,2013-08-10 11:11:00,
2013-08-10 06:12:00,78.9,51.9,0.00,SSE,158,13.0,22.6,39,0.00,,---,0.00,VWS V14.01,2013-08-10 11:12:00,
2013-08-10 06:13:00,79.1,52.1,0.00,SSE,158,13.9,22.6,39,0.00,,---,0.00,VWS V14.01,2013-08-10 11:13:00,
2013-08-10 06:14:00,79.1,52.1,0.00,SSE,158,15.4,22.6,39,0.00,,---,0.00,VWS V14.01,2013-08-10 11:14:00,
2013-08-10 06:15:00,78.9,51.9,0.00,SSE,158,17.5,22.6,39,0.00,,---,0.00,VWS V14.01,2013-08-10 11:15:00,
2013-08-10 06:16:00,78.9,51.9,0.00,South,180,15.4,17.5,39,0.00,,---,0.00,VWS V14.01,2013-08-10 11:16:00,
2013-08-10 06:17:00,78.6,51.6,0.00,South,180,19.2,22.4,39,0.00,,---,0.00,VWS V14.01,2013-08-10 11:17:00,
2013-08-10 06:18:00,78.6,51.6,0.00,South,180,16.3,22.4,39,0.00,,---,0.00,VWS V14.01,2013-08-10 11:18:00,
2013-08-10 06:19:00,78.4,51.4,0.00,South,180,15.2,22.4,39,0.00,,---,0.00,VWS V14.01,2013-08-10 11:19:00,
2013-08-10 06:20:00,78.4,51.4,0.00,South,180,17.5,22.4,39,0.00,,---,0.00,VWS V14.01,2013-08-10 11:20:00,
2013-08-10 06:21:00,78.0,51.8,0.00,South,180,10.7,22.4,40,0.00,,---,0.00,VWS V14.01,2013-08-10 11:21:00,
2013-08-10 06:22:00,78.0,51.8,0.00,South,180,17.7,22.4,40,0.00,,---,0.00,VWS V14.01,2013-08-10 11:22:00,
2013-08-10 06:23:00,78.2,52.0,0.00,SSE,158,15.2,22.4,40,0.00,,---,0.00,VWS V14.01,2013-08-10 11:23:00,
2013-08-10 06:24:00,78.2,52.0,0.00,South,180,12.3,22.4,40,0.00,,---,0.00,VWS V14.01,2013-08-10 11:24:00,
2013-08-10 06:25:00,78.2,52.0,0.00,South,180,12.8,22.4,40,0.00,,---,0.00,VWS V14.01,2013-08-10 11:25:00,
2013-08-10 06:26:00,78.2,52.0,0.00,South,180,12.3,22.4,40,0.00,,---,0.00,VWS V14.01,2013-08-10 11:26:00,
2013-08-10 06:27:00,78.4,51.4,0.00,SSW,202,10.1,22.4,39,0.00,,---,0.00,VWS V14.01,2013-08-10 11:27:00,
2013-08-10 06:28:00,78.4,51.4,0.00,SE,135,13.4,22.4,39,0.00,,---,0.00,VWS V14.01,2013-08-10 11:28:00,
2013-08-10 06:29:00,78.6,52.3,0.00,South,180,15.2,22.4,40,0.00,,---,0.00,VWS V14.01,2013-08-10 11:29:00,
2013-08-10 06:30:00,78.6,52.3,0.00,South,180,15.2,22.4,40,0.00,,---,0.00,VWS V14.01,2013-08-10 11:30:00,
2013-08-10 06:31:00,78.8,52.4,0.00,SE,135,12.8,15.2,40,0.00,,---,0.00,VWS V14.01,2013-08-10 11:31:00,
2013-08-10 06:32:00,78.8,52.4,0.00,South,180,13.2,15.2,40,0.00,,---,0.00,VWS V14.01,2013-08-10 11:32:00,
2013-08-10 06:33:00,78.4,52.1,0.00,South,180,15.2,19.5,40,0.00,,---,0.00,VWS V14.01,2013-08-10 11:33:00,
2013-08-10 06:34:00,78.4,52.1,0.00,South,180,13.2,19.5,40,0.00,,---,0.00,VWS V14.01,2013-08-10 11:34:00,
2013-08-10 06:35:00,78.4,52.1,0.00,South,180,14.3,19.5,40,0.00,,---,0.00,VWS V14.01,2013-08-10 11:35:00,
2013-08-10 06:36:00,78.2,52.6,0.00,South,180,13.0,19.5,41,0.00,,---,0.00,VWS V14.01,2013-08-10 11:36:00,
2013-08-10 06:37:00,78.4,52.1,0.00,South,180,17.2,19.5,40,0.00,,---,0.00,VWS V14.01,2013-08-10 11:37:00,
2013-08-10 06:38:00,78.2,52.6,0.00,South,180,16.6,19.5,41,0.00,,---,0.00,VWS V14.01,2013-08-10 11:38:00,
2013-08-10 06:39:00,78.2,52.6,0.00,South,180,14.5,19.5,41,0.00,,---,0.00,VWS V14.01,2013-08-10 11:39:00,
2013-08-10 06:40:00,78.0,52.5,0.00,SSE,158,15.7,19.5,41,0.00,,---,0.00,VWS V14.01,2013-08-10 11:40:00,
2013-08-10 06:41:00,78.4,52.1,0.00,SSE,158,14.1,19.5,40,0.00,,---,0.00,VWS V14.01,2013-08-10 11:41:00,
2013-08-10 06:42:00,78.2,52.6,0.00,SSE,158,16.1,19.5,41,0.00,,---,0.00,VWS V14.01,2013-08-10 11:42:00,
2013-08-10 06:43:00,78.4,52.1,0.00,SE,135,17.2,19.5,40,0.00,,---,0.00,VWS V14.01,2013-08-10 11:43:00,
2013-08-10 06:44:00,78.4,52.1,0.00,South,180,12.8,19.5,40,0.00,,---,0.00,VWS V14.01,2013-08-10 11:44:00,
2013-08-10 06:45:00,77.9,52.3,0.00,SSE,158,19.0,19.5,41,0.00,,---,0.00,VWS V14.01,2013-08-10 11:45:00,
2013-08-10 06:46:00,78.2,52.6,0.00,SE,135,13.0,19.0,41,0.00,,---,0.00,VWS V14.01,2013-08-10 11:46:00,
2013-08-10 06:47:00,78.2,52.6,0.00,SSE,158,17.0,19.0,41,0.00,,---,0.00,VWS V14.01,2013-08-10 11:47:00,
2013-08-10 06:48:00,78.0,52.5,0.00,South,180,17.0,19.0,41,0.00,,---,0.00,VWS V14.01,2013-08-10 11:48:00,
2013-08-10 06:49:00,77.9,52.3,0.00,South,180,17.7,19.0,41,0.00,,---,0.00,VWS V14.01,2013-08-10 11:49:00,
2013-08-10 06:50:00,77.7,52.1,0.00,South,180,20.8,20.8,41,0.00,,---,0.00,VWS V14.01,2013-08-10 11:50:00,
2013-08-10 06:51:00,77.7,52.1,0.00,South,180,11.9,20.8,41,0.00,,---,0.00,VWS V14.01,2013-08-10 11:51:00,
2013-08-10 06:52:00,77.3,51.8,0.00,South,180,15.2,20.8,41,0.00,,---,0.00,VWS V14.01,2013-08-10 11:52:00,
2013-08-10 06:53:00,77.3,51.8,0.00,South,180,15.2,20.8,41,0.00,,---,0.00,VWS V14.01,2013-08-10 11:53:00,
2013-08-10 06:54:00,77.3,51.8,0.00,SSE,158,12.3,20.8,41,0.00,,---,0.00,VWS V14.01,2013-08-10 11:54:00,
2013-08-10 06:55:00,77.5,52.0,0.00,SSW,202,12.5,20.8,41,0.00,,---,0.00,VWS V14.01,2013-08-10 11:55:00,
2013-08-10 06:56:00,77.5,52.0,0.00,South,180,20.4,20.8,41,0.00,,---,0.00,VWS V14.01,2013-08-10 11:56:00,
2013-08-10 06:57:00,77.5,52.0,0.00,SE,135,20.4,20.8,41,0.00,,---,0.00,VWS V14.01,2013-08-10 11:57:00,
2013-08-10 06:58:00,77.5,52.0,0.00,South,180,6.9,20.8,41,0.00,,---,0.00,VWS V14.01,2013-08-10 11:58:00,
2013-08-10 06:59:00,77.3,51.8,0.00,South,180,15.2,20.8,41,0.00,,---,0.00,VWS V14.01,2013-08-10 11:59:00,
2013-08-10 07:00:00,77.1,51.7,0.00,South,180,15.7,20.8,41,0.00,,---,0.00,VWS V14.01,2013-08-10 12:00:00,
2013-08-10 07:01:00,77.1,51.7,0.00,South,180,10.3,15.7,41,0.00,,---,0.00,VWS V14.01,2013-08-10 12:01:00,
2013-08-10 07:02:00,77.1,51.7,0.00,South,180,13.0,15.7,41,0.00,,---,0.00,VWS V14.01,2013-08-10 12:02:00,
2013-08-10 07:03:00,77.1,51.7,0.00,South,180,10.3,15.7,41,0.00,,---,0.00,VWS V14.01,2013-08-10 12:03:00,
2013-08-10 07:04:00,77.0,52.1,0.00,South,180,13.4,15.7,42,0.00,,---,0.00,VWS V14.01,2013-08-10 12:04:00,
2013-08-10 07:05:00,77.0,52.1,0.00,South,180,13.2,15.7,42,0.00,,---,0.00,VWS V14.01,2013-08-10 12:05:00,
2013-08-10 07:06:00,76.6,51.8,0.00,South,180,15.2,15.7,42,0.00,,---,0.00,VWS V14.01,2013-08-10 12:06:00,
2013-08-10 07:07:00,76.8,52.0,0.00,South,180,19.7,19.7,42,0.00,,---,0.00,VWS V14.01,2013-08-10 12:07:00,
2013-08-10 07:08:00,76.8,52.0,0.00,South,180,12.8,19.7,42,0.00,,---,0.00,VWS V14.01,2013-08-10 12:08:00,
2013-08-10 07:09:00,76.8,52.0,0.00,South,180,14.1,19.7,42,0.00,,---,0.00,VWS V14.01,2013-08-10 12:09:00,
2013-08-10 07:10:00,76.8,52.0,0.00,South,180,14.1,19.7,42,0.00,,---,0.00,VWS V14.01,2013-08-10 12:10:00,
2013-08-10 07:11:00,76.6,51.8,0.00,South,180,12.5,19.7,42,0.00,,---,0.00,VWS V14.01,2013-08-10 12:11:00,
2013-08-10 07:12:00,76.6,51.8,0.00,SE,135,13.2,19.7,42,0.00,,---,0.00,VWS V14.01,2013-08-10 12:12:00,
2013-08-10 07:13:00,76.6,51.8,0.00,South,180,12.5,19.7,42,0.00,,---,0.00,VWS V14.01,2013-08-10 12:13:00,
2013-08-10 07:14:00,76.4,51.7,0.00,South,180,10.1,19.7,42,0.00,,---,0.00,VWS V14.01,2013-08-10 12:14:00,
2013-08-10 07:15:00,76.4,52.3,0.00,South,180,10.5,19.7,43,0.00,,---,0.00,VWS V14.01,2013-08-10 12:15:00,
2013-08-10 07:17:00,76.2,52.1,0.00,South,180,11.9,12.8,43,0.00,,---,0.00,VWS V14.01,2013-08-10 12:17:00,
2013-08-10 07:18:00,76.1,52.0,0.00,South,180,15.4,15.4,43,0.00,,---,0.00,VWS V14.01,2013-08-10 12:18:00,
2013-08-10 07:19:00,76.1,52.0,0.00,South,180,12.8,15.4,43,0.00,,---,0.00,VWS V14.01,2013-08-10 12:19:00,
2013-08-10 07:20:00,75.9,51.8,0.00,SSE,158,13.0,15.4,43,0.00,,---,0.00,VWS V14.01,2013-08-10 12:20:00,
2013-08-10 07:21:00,75.9,51.8,0.00,South,180,11.0,15.4,43,0.00,,---,0.00,VWS V14.01,2013-08-10 12:21:00,
2013-08-10 07:22:00,75.9,51.8,0.00,South,180,12.5,15.4,43,0.00,,---,0.00,VWS V14.01,2013-08-10 12:22:00,
2013-08-10 07:23:00,75.9,51.8,0.00,South,180,12.1,15.4,43,0.00,,---,0.00,VWS V14.01,2013-08-10 12:23:00,
2013-08-10 07:24:00,75.9,52.4,0.00,South,180,10.1,15.4,44,0.00,,---,0.00,VWS V14.01,2013-08-10 12:24:00,
2013-08-10 07:25:00,76.1,52.6,0.00,South,180,10.1,15.4,44,0.00,,---,0.00,VWS V14.01,2013-08-10 12:25:00,
2013-08-10 07:26:00,76.1,52.6,0.00,South,180,10.1,15.4,44,0.00,,---,0.00,VWS V14.01,2013-08-10 12:26:00,
2013-08-10 07:27:00,76.2,52.8,0.00,SE,135,12.8,15.4,44,0.00,,---,0.00,VWS V14.01,2013-08-10 12:27:00,
2013-08-10 07:28:00,76.2,52.8,0.00,South,180,12.3,15.4,44,0.00,,---,0.00,VWS V14.01,2013-08-10 12:28:00,
2013-08-10 07:29:00,76.2,52.8,0.00,SE,135,13.4,15.4,44,0.00,,---,0.00,VWS V14.01,2013-08-10 12:29:00,
2013-08-10 07:30:00,75.9,52.4,0.00,South,180,10.7,15.4,44,0.00,,---,0.00,VWS V14.01,2013-08-10 12:30:00,
2013-08-10 07:31:00,75.5,52.1,0.00,South,180,13.0,13.0,44,0.00,,---,0.00,VWS V14.01,2013-08-10 12:31:00,
2013-08-10 07:32:00,75.5,52.1,0.00,South,180,14.8,14.8,44,0.00,,---,0.00,VWS V14.01,2013-08-10 12:32:00,
2013-08-10 07:33:00,75.5,52.1,0.00,South,180,15.2,15.2,44,0.00,,---,0.00,VWS V14.01,2013-08-10 12:33:00,
2013-08-10 07:34:00,75.5,52.1,0.00,South,180,16.6,16.6,44,0.00,,---,0.00,VWS V14.01,2013-08-10 12:34:00,
2013-08-10 07:35:00,75.3,52.5,0.00,South,180,15.9,17.2,45,0.00,,---,0.00,VWS V14.01,2013-08-10 12:35:00,
2013-08-10 07:36:00,75.2,52.4,0.00,SSE,158,12.5,17.2,45,0.00,,---,0.00,VWS V14.01,2013-08-10 12:36:00,
2013-08-10 07:38:00,75.2,52.4,0.00,South,180,12.3,17.2,45,0.00,,---,0.00,VWS V14.01,2013-08-10 12:38:00,
2013-08-10 07:39:00,75.2,52.4,0.00,SSE,158,16.8,17.2,45,0.00,,---,0.00,VWS V14.01,2013-08-10 12:39:00,
2013-08-10 07:40:00,75.2,52.4,0.00,South,180,14.8,17.2,45,0.00,,---,0.00,VWS V14.01,2013-08-10 12:40:00,
2013-08-10 07:41:00,75.2,52.4,0.00,South,180,13.0,17.2,45,0.00,,---,0.00,VWS V14.01,2013-08-10 12:41:00,
2013-08-10 07:42:00,75.2,52.4,0.00,South,180,12.5,17.2,45,0.00,,---,0.00,VWS V14.01,2013-08-10 12:42:00,
2013-08-10 07:44:00,75.2,52.4,0.00,South,180,10.3,17.2,45,0.00,,---,0.00,VWS V14.01,2013-08-10 12:44:00,
2013-08-10 07:45:00,75.7,52.9,0.00,SSE,158,12.8,17.2,45,0.00,,---,0.00,VWS V14.01,2013-08-10 12:45:00,
2013-08-10 07:46:00,75.7,52.9,0.00,South,180,11.2,12.8,45,0.00,,---,0.00,VWS V14.01,2013-08-10 12:46:00,
2013-08-10 07:47:00,75.9,53.0,0.00,South,180,10.7,12.8,45,0.00,,---,0.00,VWS V14.01,2013-08-10 12:47:00,
2013-08-10 07:48:00,75.9,53.0,0.00,South,180,11.2,15.2,45,0.00,,---,0.00,VWS V14.01,2013-08-10 12:48:00,
2013-08-10 07:49:00,75.9,53.0,0.00,South,180,10.7,15.2,45,0.00,,---,0.00,VWS V14.01,2013-08-10 12:49:00,
2013-08-10 07:50:00,75.9,53.0,0.00,South,180,12.5,17.0,45,0.00,,---,0.00,VWS V14.01,2013-08-10 12:50:00,
2013-08-10 07:51:00,75.9,53.0,0.00,South,180,12.5,17.0,45,0.00,,---,0.00,VWS V14.01,2013-08-10 12:51:00,
2013-08-10 07:52:00,75.9,53.6,0.00,South,180,12.3,17.0,46,0.00,,---,0.00,VWS V14.01,2013-08-10 12:52:00,
2013-08-10 07:54:00,75.7,53.5,0.00,South,180,7.6,17.0,46,0.00,,---,0.00,VWS V14.01,2013-08-10 12:54:00,
2013-08-10 07:55:00,75.7,53.5,0.00,South,180,8.5,17.0,46,0.00,,---,0.00,VWS V14.01,2013-08-10 12:55:00,
2013-08-10 07:56:00,75.7,53.5,0.00,South,180,12.8,17.0,46,0.00,,---,0.00,VWS V14.01,2013-08-10 12:56:00,
2013-08-10 07:57:00,75.7,53.5,0.00,South,180,10.1,17.0,46,0.00,,---,0.00,VWS V14.01,2013-08-10 12:57:00,
2013-08-10 07:58:00,75.7,53.5,0.00,South,180,13.0,17.0,46,0.00,,---,0.00,VWS V14.01,2013-08-10 12:58:00,
2013-08-10 07:59:00,75.7,53.5,0.00,SSW,202,10.7,17.0,46,0.00,,---,0.00,VWS V14.01,2013-08-10 12:59:00,
2013-08-10 08:00:00,75.7,54.1,0.00,SE,135,8.5,17.0,47,0.00,,---,0.00,VWS V14.01,2013-08-10 13:00:00,
2013-08-10 08:01:00,75.9,54.2,0.00,South,180,8.1,9.0,47,0.00,,---,0.00,VWS V14.01,2013-08-10 13:01:00,
2013-08-10 08:02:00,75.9,53.6,0.00,South,180,9.2,10.5,46,0.00,,---,0.00,VWS V14.01,2013-08-10 13:02:00,
2013-08-10 08:03:00,75.9,53.6,0.00,South,180,8.1,10.5,46,0.00,,---,0.00,VWS V14.01,2013-08-10 13:03:00,
2013-08-10 08:05:00,75.9,53.6,0.00,South,180,11.0,12.5,46,0.00,,---,0.00,VWS V14.01,2013-08-10 13:05:00,
2013-08-10 08:06:00,75.3,53.7,0.00,South,180,16.8,16.8,47,0.00,,---,0.00,VWS V14.01,2013-08-10 13:06:00,
2013-08-10 08:07:00,75.2,53.0,0.00,SSE,158,10.5,16.8,46,0.00,,---,0.00,VWS V14.01,2013-08-10 13:07:00,
2013-08-10 08:08:00,75.2,53.6,0.00,South,180,12.8,16.8,47,0.00,,---,0.00,VWS V14.01,2013-08-10 13:08:00,
2013-08-10 08:09:00,75.0,53.4,0.00,South,180,13.0,17.0,47,0.00,,---,0.00,VWS V14.01,2013-08-10 13:09:00,
2013-08-10 08:10:00,75.0,53.4,0.00,South,180,10.5,17.0,47,0.00,,---,0.00,VWS V14.01,2013-08-10 13:10:00,
2013-08-10 08:11:00,75.0,53.4,0.00,South,180,11.0,17.0,47,0.00,,---,0.00,VWS V14.01,2013-08-10 13:11:00,
2013-08-10 08:12:00,75.0,53.4,0.00,South,180,12.3,17.0,47,0.00,,---,0.00,VWS V14.01,2013-08-10 13:12:00,
2013-08-10 08:13:00,75.0,53.4,0.00,SSE,158,13.0,17.0,47,0.00,,---,0.00,VWS V14.01,2013-08-10 13:13:00,
2013-08-10 08:14:00,75.0,53.4,0.00,South,180,14.1,17.0,47,0.00,,---,0.00,VWS V14.01,2013-08-10 13:14:00,
2013-08-10 08:15:00,74.3,53.3,0.00,South,180,13.6,17.0,48,0.00,,---,0.00,VWS V14.01,2013-08-10 13:15:00,
2013-08-10 08:16:00,74.3,53.3,0.00,South,180,15.2,16.1,48,0.00,,---,0.00,VWS V14.01,2013-08-10 13:16:00,
2013-08-10 08:17:00,73.9,53.0,0.00,South,180,15.9,17.5,48,0.00,,---,0.00,VWS V14.01,2013-08-10 13:17:00,
2013-08-10 08:18:00,73.9,53.0,0.00,South,180,13.0,17.5,48,0.00,,---,0.00,VWS V14.01,2013-08-10 13:18:00,
2013-08-10 08:19:00,74.1,53.2,0.00,South,180,9.8,17.5,48,0.00,,---,0.00,VWS V14.01,2013-08-10 13:19:00,
2013-08-10 08:20:00,73.9,53.6,0.00,SSE,158,10.3,17.5,49,0.00,,---,0.00,VWS V14.01,2013-08-10 13:20:00,
2013-08-10 08:21:00,73.9,53.6,0.00,South,180,10.3,17.5,49,0.00,,---,0.00,VWS V14.01,2013-08-10 13:21:00,
2013-08-10 08:22:00,73.9,53.6,0.00,SSE,158,16.8,17.5,49,0.00,,---,0.00,VWS V14.01,2013-08-10 13:22:00,
2013-08-10 08:23:00,73.5,53.2,0.00,SE,135,12.8,17.7,49,0.00,,---,0.00,VWS V14.01,2013-08-10 13:23:00,
2013-08-10 08:25:00,73.5,53.2,0.00,South,180,9.0,17.7,49,0.00,,---,0.00,VWS V14.01,2013-08-10 13:25:00,
2013-08-10 08:26:00,73.5,53.2,0.00,South,180,10.7,17.7,49,0.00,,---,0.00,VWS V14.01,2013-08-10 13:26:00,
2013-08-10 08:27:00,73.0,53.3,0.00,South,180,10.5,17.7,50,0.00,,---,0.00,VWS V14.01,2013-08-10 13:27:00,
2013-08-10 08:28:00,73.0,53.3,0.00,South,180,10.5,17.7,50,0.00,,---,0.00,VWS V14.01,2013-08-10 13:28:00,
2013-08-10 08:29:00,72.8,53.7,0.00,South,180,13.0,17.7,51,0.00,,---,0.00,VWS V14.01,2013-08-10 13:29:00,
2013-08-10 08:31:00,72.8,53.7,0.00,SSE,158,12.8,17.7,51,0.00,,---,0.00,VWS V14.01,2013-08-10 13:31:00,
2013-08-10 08:32:00,72.6,53.5,0.00,South,180,12.3,17.7,51,0.00,,---,0.00,VWS V14.01,2013-08-10 13:32:00,
2013-08-10 08:33:00,72.6,53.5,0.00,South,180,10.3,17.7,51,0.00,,---,0.00,VWS V14.01,2013-08-10 13:33:00,
2013-08-10 08:34:00,72.5,53.9,0.00,South,180,8.1,17.7,52,0.00,,---,0.00,VWS V14.01,2013-08-10 13:34:00,
2013-08-10 08:35:00,72.5,53.9,0.00,South,180,10.1,17.7,52,0.00,,---,0.00,VWS V14.01,2013-08-10 13:35:00,
2013-08-10 08:36:00,72.5,53.9,0.00,South,180,9.4,17.7,52,0.00,,---,0.00,VWS V14.01,2013-08-10 13:36:00,
2013-08-10 08:37:00,72.1,53.5,0.00,SSE,158,8.7,17.7,52,0.00,,---,0.00,VWS V14.01,2013-08-10 13:37:00,
2013-08-10 08:38:00,71.7,53.7,0.00,SSE,158,6.3,17.7,53,0.00,,---,0.00,VWS V14.01,2013-08-10 13:38:00,
2013-08-10 08:39:00,71.7,53.7,0.00,South,180,10.1,17.7,53,0.00,,---,0.00,VWS V14.01,2013-08-10 13:39:00,
2013-08-10 08:40:00,71.7,53.7,0.00,South,180,10.3,17.7,53,0.00,,---,0.00,VWS V14.01,2013-08-10 13:40:00,
2013-08-10 08:41:00,71.7,53.7,0.00,SSE,158,7.8,17.7,53,0.00,,---,0.00,VWS V14.01,2013-08-10 13:41:00,
2013-08-10 08:42:00,71.4,53.9,0.00,SSE,158,8.1,17.7,54,0.00,,---,0.00,VWS V14.01,2013-08-10 13:42:00,
2013-08-10 08:43:00,71.2,53.7,0.00,South,180,6.5,17.7,54,0.00,,---,0.00,VWS V14.01,2013-08-10 13:43:00,
2013-08-10 08:44:00,71.0,54.1,0.00,South,180,6.3,17.7,55,0.00,,---,0.00,VWS V14.01,2013-08-10 13:44:00,
2013-08-10 08:45:00,70.8,54.4,0.00,South,180,7.2,17.7,56,0.00,,---,0.00,VWS V14.01,2013-08-10 13:45:00,
2013-08-10 08:46:00,70.7,54.2,0.00,SSE,158,7.4,8.7,56,0.00,,---,0.00,VWS V14.01,2013-08-10 13:46:00,
2013-08-10 08:47:00,70.7,54.2,0.00,South,180,7.4,8.7,56,0.00,,---,0.00,VWS V14.01,2013-08-10 13:47:00,
2013-08-10 08:48:00,70.5,54.5,0.00,SE,135,6.3,8.7,57,0.00,,---,0.00,VWS V14.01,2013-08-10 13:48:00,
2013-08-10 08:49:00,70.3,54.4,0.00,South,180,7.6,8.7,57,0.00,,---,0.00,VWS V14.01,2013-08-10 13:49:00,
2013-08-10 08:50:00,70.3,54.4,0.00,SE,135,6.5,8.7,57,0.00,,---,0.00,VWS V14.01,2013-08-10 13:50:00,
2013-08-10 08:51:00,70.1,54.7,0.00,South,180,5.6,8.7,58,0.00,,---,0.00,VWS V14.01,2013-08-10 13:51:00,
2013-08-10 08:52:00,70.1,54.7,0.00,South,180,7.4,8.7,58,0.00,,---,0.00,VWS V14.01,2013-08-10 13:52:00,
2013-08-10 08:53:00,69.9,54.5,0.00,SE,135,5.8,8.7,58,0.00,,---,0.00,VWS V14.01,2013-08-10 13:53:00,
2013-08-10 08:54:00,69.8,54.3,0.00,SSE,158,4.9,8.7,58,0.00,,---,0.00,VWS V14.01,2013-08-10 13:54:00,
2013-08-10 08:55:00,69.6,54.2,0.00,SE,135,4.0,8.7,58,0.00,,---,0.00,VWS V14.01,2013-08-10 13:55:00,
2013-08-10 08:56:00,69.4,54.0,0.00,SE,135,4.3,8.7,58,0.00,,---,0.00,VWS V14.01,2013-08-10 13:56:00,
2013-08-10 08:57:00,69.2,54.3,0.00,SE,135,4.3,8.7,59,0.00,,---,0.00,VWS V14.01,2013-08-10 13:57:00,
2013-08-10 08:58:00,69.2,54.3,0.00,SE,135,4.3,8.7,59,0.00,,---,0.00,VWS V14.01,2013-08-10 13:58:00,
2013-08-10 09:00:00,69.0,54.1,0.00,SE,135,5.6,8.7,59,0.00,,---,0.00,VWS V14.01,2013-08-10 14:00:00,
2013-08-10 09:01:00,68.9,54.9,0.00,SSE,158,5.8,5.8,61,0.00,,---,0.00,VWS V14.01,2013-08-10 14:01:00,
2013-08-10 09:02:00,68.7,54.7,0.00,SE,135,5.6,6.0,61,0.00,,---,0.00,VWS V14.01,2013-08-10 14:02:00,
2013-08-10 09:03:00,68.7,54.7,0.00,SE,135,4.9,6.3,61,0.00,,---,0.00,VWS V14.01,2013-08-10 14:03:00,
2013-08-10 09:04:00,68.5,54.5,0.00,SSE,158,5.8,6.3,61,0.00,,---,0.00,VWS V14.01,2013-08-10 14:04:00,
2013-08-10 09:05:00,68.5,55.0,0.00,SE,135,4.9,6.3,62,0.00,,---,0.00,VWS V14.01,2013-08-10 14:05:00,
2013-08-10 09:06:00,68.3,54.8,0.00,SE,135,5.4,6.3,62,0.00,,---,0.00,VWS V14.01,2013-08-10 14:06:00,
2013-08-10 09:07:00,68.3,54.8,0.00,SE,135,5.8,6.3,62,0.00,,---,0.00,VWS V14.01,2013-08-10 14:07:00,
2013-08-10 09:08:00,68.1,54.6,0.00,SE,135,5.6,6.3,62,0.00,,---,0.00,VWS V14.01,2013-08-10 14:08:00,
2013-08-10 09:09:00,68.0,54.9,0.00,SE,135,4.3,6.3,63,0.00,,---,0.00,VWS V14.01,2013-08-10 14:09:00,
2013-08-10 09:10:00,68.0,54.9,0.00,SE,135,4.7,6.3,63,0.00,,---,0.00,VWS V14.01,2013-08-10 14:10:00,
2013-08-10 09:11:00,68.0,54.9,0.00,SE,135,4.3,6.3,63,0.00,,---,0.00,VWS V14.01,2013-08-10 14:11:00,
2013-08-10 09:12:00,68.0,54.9,0.00,South,180,4.9,6.3,63,0.00,,---,0.00,VWS V14.01,2013-08-10 14:12:00,
2013-08-10 09:13:00,68.0,54.9,0.00,SE,135,4.9,6.3,63,0.00,,---,0.00,VWS V14.01,2013-08-10 14:13:00,
2013-08-10 09:14:00,68.0,54.9,0.00,SSE,158,4.7,6.3,63,0.00,,---,0.00,VWS V14.01,2013-08-10 14:14:00,
2013-08-10 09:15:00,67.6,55.0,0.00,SE,135,5.4,6.3,64,0.00,,---,0.00,VWS V14.01,2013-08-10 14:15:00,
2013-08-10 09:16:00,67.4,55.3,0.00,SE,135,4.5,5.4,65,0.00,,---,0.00,VWS V14.01,2013-08-10 14:16:00,
2013-08-10 09:17:00,67.4,55.3,0.00,SE,135,4.3,5.4,65,0.00,,---,0.00,VWS V14.01,2013-08-10 14:17:00,
2013-08-10 09:18:00,67.2,55.1,0.00,SE,135,4.3,5.4,65,0.00,,---,0.00,VWS V14.01,2013-08-10 14:18:00,
2013-08-10 09:19:00,67.2,55.1,0.00,SE,135,4.7,5.4,65,0.00,,---,0.00,VWS V14.01,2013-08-10 14:19:00,
2013-08-10 09:20:00,67.1,55.3,0.00,SSE,158,4.9,5.8,66,0.00,,---,0.00,VWS V14.01,2013-08-10 14:20:00,
2013-08-10 09:21:00,67.1,55.3,0.00,South,180,5.6,6.5,66,0.00,,---,0.00,VWS V14.01,2013-08-10 14:21:00,
2013-08-10 09:22:00,67.1,55.3,0.00,SSE,158,4.9,6.5,66,0.00,,---,0.00,VWS V14.01,2013-08-10 14:22:00,
2013-08-10 09:23:00,66.9,55.6,0.00,SSE,158,4.9,6.5,67,0.00,,---,0.00,VWS V14.01,2013-08-10 14:23:00,
2013-08-10 09:24:00,66.9,55.6,0.00,South,180,4.0,6.5,67,0.00,,---,0.00,VWS V14.01,2013-08-10 14:24:00,
2013-08-10 09:25:00,66.7,55.4,0.00,South,180,4.3,6.5,67,0.00,,---,0.00,VWS V14.01,2013-08-10 14:25:00,
2013-08-10 09:26:00,66.7,55.4,0.00,South,180,4.3,6.5,67,0.00,,---,0.00,VWS V14.01,2013-08-10 14:26:00,
2013-08-10 09:27:00,66.5,55.6,0.00,South,180,4.3,6.5,68,0.00,,---,0.00,VWS V14.01,2013-08-10 14:27:00,
2013-08-10 09:28:00,66.5,55.6,0.00,SSE,158,4.0,6.5,68,0.00,,---,0.00,VWS V14.01,2013-08-10 14:28:00,
2013-08-10 09:29:00,66.5,55.6,0.00,SSE,158,4.3,6.5,68,0.00,,---,0.00,VWS V14.01,2013-08-10 14:29:00,
2013-08-10 09:30:00,66.3,55.5,0.00,SSE,158,4.3,6.5,68,0.00,,---,0.00,VWS V14.01,2013-08-10 14:30:00,
2013-08-10 09:31:00,66.2,55.3,0.00,SSE,158,3.8,4.3,68,0.00,,---,0.00,VWS V14.01,2013-08-10 14:31:00,
2013-08-10 09:32:00,66.0,55.1,0.00,SE,135,3.8,4.3,68,0.00,,---,0.00,VWS V14.01,2013-08-10 14:32:00,
2013-08-10 09:33:00,65.8,55.0,0.00,SE,135,4.0,4.3,68,0.00,,---,0.00,VWS V14.01,2013-08-10 14:33:00,
2013-08-10 09:34:00,65.8,55.0,0.00,SE,135,3.8,4.3,68,0.00,,---,0.00,VWS V14.01,2013-08-10 14:34:00,
2013-08-10 09:35:00,65.6,55.2,0.00,SE,135,4.0,4.3,69,0.00,,---,0.00,VWS V14.01,2013-08-10 14:35:00,
2013-08-10 09:36:00,65.6,55.2,0.00,SE,135,4.3,4.3,69,0.00,,---,0.00,VWS V14.01,2013-08-10 14:36:00,
2013-08-10 09:37:00,65.6,55.2,0.00,SE,135,4.3,4.3,69,0.00,,---,0.00,VWS V14.01,2013-08-10 14:37:00,
2013-08-10 09:38:00,65.4,55.4,0.00,SE,135,4.0,4.3,70,0.00,,---,0.00,VWS V14.01,2013-08-10 14:38:00,
2013-08-10 09:39:00,65.4,55.4,0.00,SE,135,4.9,4.9,70,0.00,,---,0.00,VWS V14.01,2013-08-10 14:39:00,
2013-08-10 09:40:00,65.4,55.4,0.00,SE,135,4.9,4.9,70,0.00,,---,0.00,VWS V14.01,2013-08-10 14:40:00,
2013-08-10 09:41:00,65.4,55.4,0.00,SSE,158,5.4,5.4,70,0.00,,---,0.00,VWS V14.01,2013-08-10 14:41:00,
2013-08-10 09:42:00,73.0,51.6,0.00,SW,225,3.8,6.5,47,0.00,,---,0.00,VWS V14.01,2013-08-10 14:42:00,
2013-08-10 09:43:00,65.3,55.2,0.00,SSE,158,4.9,5.4,70,0.00,,---,0.00,VWS V14.01,2013-08-10 14:43:00,
2013-08-10 09:44:00,65.3,55.6,0.00,SE,135,4.7,5.4,71,0.00,,---,0.00,VWS V14.01,2013-08-10 14:44:00,
2013-08-10 09:45:00,65.3,55.6,0.00,SE,135,4.9,5.4,71,0.00,,---,0.00,VWS V14.01,2013-08-10 14:45:00,
2013-08-10 09:46:00,65.1,55.5,0.00,SE,135,4.9,5.6,71,0.00,,---,0.00,VWS V14.01,2013-08-10 14:46:00,
2013-08-10 09:47:00,65.1,55.5,0.00,SSE,158,4.3,5.6,71,0.00,,---,0.00,VWS V14.01,2013-08-10 14:47:00,
2013-08-10 09:48:00,65.1,55.8,0.00,SSE,158,4.9,5.6,72,0.00,,---,0.00,VWS V14.01,2013-08-10 14:48:00,
2013-08-10 09:49:00,64.9,55.7,0.00,SSE,158,4.9,5.6,72,0.00,,---,0.00,VWS V14.01,2013-08-10 14:49:00,
2013-08-10 09:50:00,64.9,55.7,0.00,SSE,158,5.4,5.6,72,0.00,,---,0.00,VWS V14.01,2013-08-10 14:50:00,
2013-08-10 09:51:00,64.9,55.7,0.00,SSE,158,5.6,5.6,72,0.00,,---,0.00,VWS V14.01,2013-08-10 14:51:00,
2013-08-10 09:52:00,64.9,55.7,0.00,SSE,158,4.3,5.6,72,0.00,,---,0.00,VWS V14.01,2013-08-10 14:52:00,
2013-08-10 09:53:00,64.9,55.7,0.00,South,180,4.0,5.6,72,0.00,,---,0.00,VWS V14.01,2013-08-10 14:53:00,
2013-08-10 09:54:00,64.9,55.7,0.00,SSE,158,4.5,5.6,72,0.00,,---,0.00,VWS V14.01,2013-08-10 14:54:00,
2013-08-10 09:55:00,64.7,55.9,0.00,SSE,158,4.9,5.6,73,0.00,,---,0.00,VWS V14.01,2013-08-10 14:55:00,
2013-08-10 09:56:00,64.7,55.9,0.00,SSE,158,4.3,5.6,73,0.00,,---,0.00,VWS V14.01,2013-08-10 14:56:00,
2013-08-10 09:57:00,64.7,55.9,0.00,SSE,158,4.0,5.6,73,0.00,,---,0.00,VWS V14.01,2013-08-10 14:57:00,
2013-08-10 09:59:00,64.7,55.9,0.00,SSE,158,4.3,5.6,73,0.00,,---,0.00,VWS V14.01,2013-08-10 14:59:00,
2013-08-10 10:00:00,64.7,55.9,0.00,SSE,158,4.3,5.6,73,0.00,,---,0.00,VWS V14.01,2013-08-10 15:00:00,
2013-08-10 10:01:00,64.4,55.9,0.00,SSE,158,3.6,4.3,74,0.00,,---,0.00,VWS V14.01,2013-08-10 15:01:00,
2013-08-10 10:02:00,64.4,55.9,0.00,SSE,158,3.4,4.3,74,0.00,,---,0.00,VWS V14.01,2013-08-10 15:02:00,
2013-08-10 10:03:00,64.4,55.9,0.00,SSE,158,3.4,4.3,74,0.00,,---,0.00,VWS V14.01,2013-08-10 15:03:00,
2013-08-10 10:04:00,64.4,55.9,0.00,SSE,158,3.4,4.3,74,0.00,,---,0.00,VWS V14.01,2013-08-10 15:04:00,
2013-08-10 10:06:00,64.4,55.9,0.00,SSE,158,3.1,4.3,74,0.00,,---,0.00,VWS V14.01,2013-08-10 15:06:00,
2013-08-10 10:07:00,64.2,55.7,0.00,SSE,158,3.6,4.3,74,0.00,,---,0.00,VWS V14.01,2013-08-10 15:07:00,
2013-08-10 10:08:00,64.2,55.7,0.00,SSE,158,3.4,4.3,74,0.00,,---,0.00,VWS V14.01,2013-08-10 15:08:00,
2013-08-10 10:09:00,64.2,55.7,0.00,SE,135,3.1,4.3,74,0.00,,---,0.00,VWS V14.01,2013-08-10 15:09:00,
2013-08-10 10:10:00,64.2,55.7,0.00,SE,135,3.1,4.3,74,0.00,,---,0.00,VWS V14.01,2013-08-10 15:10:00,
2013-08-10 10:11:00,64.0,55.6,0.00,SE,135,2.9,4.3,74,0.00,,---,0.00,VWS V14.01,2013-08-10 15:11:00,
2013-08-10 10:12:00,64.0,55.6,0.00,SE,135,2.9,4.3,74,0.00,,---,0.00,VWS V14.01,2013-08-10 15:12:00,
2013-08-10 10:13:00,64.0,55.6,0.00,SE,135,2.7,4.3,74,0.00,,---,0.00,VWS V14.01,2013-08-10 15:13:00,
2013-08-10 10:14:00,64.0,55.6,0.00,SE,135,2.7,4.3,74,0.00,,---,0.00,VWS V14.01,2013-08-10 15:14:00,
2013-08-10 10:15:00,64.0,55.6,0.00,SE,135,3.4,4.3,74,0.00,,---,0.00,VWS V14.01,2013-08-10 15:15:00,
2013-08-10 10:16:00,63.8,55.8,0.00,SE,135,2.9,3.4,75,0.00,,---,0.00,VWS V14.01,2013-08-10 15:16:00,
2013-08-10 10:17:00,63.8,55.8,0.00,SE,135,3.1,3.4,75,0.00,,---,0.00,VWS V14.01,2013-08-10 15:17:00,
2013-08-10 10:18:00,63.8,55.8,0.00,SE,135,2.7,3.4,75,0.00,,---,0.00,VWS V14.01,2013-08-10 15:18:00,
2013-08-10 10:19:00,63.8,55.8,0.00,SE,135,2.5,3.4,75,0.00,,---,0.00,VWS V14.01,2013-08-10 15:19:00,
2013-08-10 10:20:00,63.8,55.8,0.00,SE,135,2.7,3.4,75,0.00,,---,0.00,VWS V14.01,2013-08-10 15:20:00,
2013-08-10 10:21:00,63.8,55.8,0.00,SE,135,2.5,3.4,75,0.00,,---,0.00,VWS V14.01,2013-08-10 15:21:00,
2013-08-10 10:22:00,63.8,55.8,0.00,SE,135,2.5,3.4,75,0.00,,---,0.00,VWS V14.01,2013-08-10 15:22:00,
2013-08-10 10:23:00,63.8,55.8,0.00,SE,135,2.5,3.4,75,0.00,,---,0.00,VWS V14.01,2013-08-10 15:23:00,
2013-08-10 10:24:00,63.8,55.8,0.00,SE,135,2.5,3.4,75,0.00,,---,0.00,VWS V14.01,2013-08-10 15:24:00,
2013-08-10 10:25:00,63.8,56.1,0.00,SE,135,2.9,3.4,76,0.00,,---,0.00,VWS V14.01,2013-08-10 15:25:00,
2013-08-10 10:26:00,63.8,56.1,0.00,SE,135,3.1,3.4,76,0.00,,---,0.00,VWS V14.01,2013-08-10 15:26:00,
2013-08-10 10:27:00,63.8,56.1,0.00,SE,135,3.1,3.6,76,0.00,,---,0.00,VWS V14.01,2013-08-10 15:27:00,
2013-08-10 10:28:00,63.8,56.1,0.00,SE,135,3.6,3.6,76,0.00,,---,0.00,VWS V14.01,2013-08-10 15:28:00,
2013-08-10 10:29:00,63.8,56.1,0.00,SE,135,3.4,3.8,76,0.00,,---,0.00,VWS V14.01,2013-08-10 15:29:00,
2013-08-10 10:30:00,63.8,56.1,0.00,SE,135,3.4,3.8,76,0.00,,---,0.00,VWS V14.01,2013-08-10 15:30:00,
2013-08-10 10:31:00,63.6,55.9,0.00,SE,135,3.4,3.4,76,0.00,,---,0.00,VWS V14.01,2013-08-10 15:31:00,
2013-08-10 10:32:00,63.6,55.9,0.00,SE,135,3.4,3.6,76,0.00,,---,0.00,VWS V14.01,2013-08-10 15:32:00,
2013-08-10 10:33:00,63.6,55.9,0.00,SE,135,3.1,3.6,76,0.00,,---,0.00,VWS V14.01,2013-08-10 15:33:00,
2013-08-10 10:34:00,63.5,55.8,0.00,SE,135,2.9,3.6,76,0.00,,---,0.00,VWS V14.01,2013-08-10 15:34:00,
2013-08-10 10:35:00,63.5,55.8,0.00,SE,135,2.7,3.6,76,0.00,,---,0.00,VWS V14.01,2013-08-10 15:35:00,
2013-08-10 10:36:00,63.3,55.6,0.00,SE,135,2.2,3.6,76,0.00,,---,0.00,VWS V14.01,2013-08-10 15:36:00,
2013-08-10 10:37:00,63.3,55.6,0.00,SE,135,2.0,3.6,76,0.00,,---,0.00,VWS V14.01,2013-08-10 15:37:00,
2013-08-10 10:39:00,63.3,55.6,0.00,SSE,158,3.1,3.6,76,0.00,,---,0.00,VWS V14.01,2013-08-10 15:39:00,
2013-08-10 10:40:00,63.1,56.5,0.00,South,180,1.6,3.6,79,0.00,,---,0.00,VWS V14.01,2013-08-10 15:40:00,
2013-08-10 10:41:00,63.3,56.7,0.00,South,180,2.7,3.6,79,0.00,,---,0.00,VWS V14.01,2013-08-10 15:41:00,
2013-08-10 10:42:00,63.3,56.7,0.00,South,180,3.8,3.8,79,0.00,,---,0.00,VWS V14.01,2013-08-10 15:42:00,
2013-08-10 10:43:00,63.5,56.8,0.00,South,180,2.5,3.8,79,0.00,,---,0.00,VWS V14.01,2013-08-10 15:43:00,
2013-08-10 10:44:00,63.5,56.8,0.00,South,180,3.4,3.8,79,0.00,,---,0.00,VWS V14.01,2013-08-10 15:44:00,
2013-08-10 10:45:00,63.6,57.4,0.00,South,180,3.1,3.8,80,0.00,,---,0.00,VWS V14.01,2013-08-10 15:45:00,
2013-08-10 10:46:00,63.6,57.0,0.00,South,180,3.4,3.4,79,0.00,,---,0.00,VWS V14.01,2013-08-10 15:46:00,
2013-08-10 10:47:00,63.6,57.0,0.00,SSE,158,2.9,3.4,79,0.00,,---,0.00,VWS V14.01,2013-08-10 15:47:00,
2013-08-10 10:48:00,63.5,56.5,0.00,SE,135,1.6,3.4,78,0.00,,---,0.00,VWS V14.01,2013-08-10 15:48:00,
2013-08-10 10:49:00,63.5,56.1,0.00,SE,135,2.7,3.4,77,0.00,,---,0.00,VWS V14.01,2013-08-10 15:49:00,
2013-08-10 10:50:00,63.5,56.1,0.00,SE,135,2.0,3.4,77,0.00,,---,0.00,VWS V14.01,2013-08-10 15:50:00,
2013-08-10 10:51:00,63.3,56.0,0.00,SE,135,1.6,3.4,77,0.00,,---,0.00,VWS V14.01,2013-08-10 15:51:00,
2013-08-10 10:53:00,63.3,56.0,0.00,SE,135,2.7,3.4,77,0.00,,---,0.00,VWS V14.01,2013-08-10 15:53:00,
2013-08-10 10:54:00,63.1,55.8,0.00,SE,135,2.7,3.4,77,0.00,,---,0.00,VWS V14.01,2013-08-10 15:54:00,
2013-08-10 10:55:00,63.1,56.1,0.00,SE,135,2.7,3.4,78,0.00,,---,0.00,VWS V14.01,2013-08-10 15:55:00,
2013-08-10 10:56:00,63.1,56.1,0.00,SE,135,1.3,3.4,78,0.00,,---,0.00,VWS V14.01,2013-08-10 15:56:00,
2013-08-10 10:57:00,63.1,56.1,0.00,SSE,158,2.2,3.4,78,0.00,,---,0.00,VWS V14.01,2013-08-10 15:57:00,
2013-08-10 10:58:00,63.1,56.1,0.00,SSE,158,2.2,3.4,78,0.00,,---,0.00,VWS V14.01,2013-08-10 15:58:00,
2013-08-10 10:59:00,63.1,56.1,0.00,SSE,158,1.1,3.4,78,0.00,,---,0.00,VWS V14.01,2013-08-10 15:59:00,
2013-08-10 11:00:00,63.1,56.1,0.00,SSE,158,1.1,3.4,78,0.00,,---,0.00,VWS V14.01,2013-08-10 16:00:00,
2013-08-10 11:01:00,63.1,56.5,0.00,South,180,0.0,1.3,79,0.00,,---,0.00,VWS V14.01,2013-08-10 16:01:00,
2013-08-10 11:02:00,63.1,56.5,0.00,SSE,158,0.9,1.3,79,0.00,,---,0.00,VWS V14.01,2013-08-10 16:02:00,
2013-08-10 11:03:00,63.1,56.5,0.00,SE,135,1.6,1.6,79,0.00,,---,0.00,VWS V14.01,2013-08-10 16:03:00,
2013-08-10 11:04:00,63.1,56.5,0.00,SE,135,1.6,1.6,79,0.00,,---,0.00,VWS V14.01,2013-08-10 16:04:00,
2013-08-10 11:05:00,63.1,56.5,0.00,SE,135,1.6,1.6,79,0.00,,---,0.00,VWS V14.01,2013-08-10 16:05:00,
2013-08-10 11:06:00,62.9,56.0,0.00,SE,135,0.9,1.6,78,0.00,,---,0.00,VWS V14.01,2013-08-10 16:06:00,
2013-08-10 11:07:00,62.9,56.0,0.00,SE,135,0.0,1.6,78,0.00,,---,0.00,VWS V14.01,2013-08-10 16:07:00,
2013-08-10 11:08:00,62.9,56.0,0.00,ESE,112,0.0,1.6,78,0.00,,---,0.00,VWS V14.01,2013-08-10 16:08:00,
2013-08-10 11:10:00,62.7,55.8,0.00,SE,135,2.0,2.0,78,0.00,,---,0.00,VWS V14.01,2013-08-10 16:10:00,
2013-08-10 11:11:00,62.7,55.8,0.00,SE,135,2.5,2.5,78,0.00,,---,0.00,VWS V14.01,2013-08-10 16:11:00,
2013-08-10 11:12:00,62.7,56.1,0.00,SE,135,2.7,2.9,79,0.00,,---,0.00,VWS V14.01,2013-08-10 16:12:00,
2013-08-10 11:13:00,62.7,56.1,0.00,SE,135,3.1,3.1,79,0.00,,---,0.00,VWS V14.01,2013-08-10 16:13:00,
2013-08-10 11:14:00,62.7,56.5,0.00,SE,135,4.0,4.0,80,0.00,,---,0.00,VWS V14.01,2013-08-10 16:14:00,
2013-08-10 11:15:00,62.7,56.5,0.00,SE,135,3.8,4.0,80,0.00,,---,0.00,VWS V14.01,2013-08-10 16:15:00,
2013-08-10 11:16:00,62.7,56.5,0.00,SSE,158,4.7,4.9,80,0.00,,---,0.00,VWS V14.01,2013-08-10 16:16:00,
2013-08-10 11:18:00,62.7,56.8,0.00,South,180,4.7,5.6,81,0.00,,---,0.00,VWS V14.01,2013-08-10 16:18:00,
2013-08-10 11:19:00,62.7,56.8,0.00,SE,135,4.3,5.6,81,0.00,,---,0.00,VWS V14.01,2013-08-10 16:19:00,
2013-08-10 11:20:00,62.7,56.8,0.00,South,180,5.4,5.6,81,0.00,,---,0.00,VWS V14.01,2013-08-10 16:20:00,
2013-08-10 11:21:00,62.7,56.8,0.00,SSE,158,5.4,5.6,81,0.00,,---,0.00,VWS V14.01,2013-08-10 16:21:00,
2013-08-10 11:22:00,62.7,56.8,0.00,South,180,4.3,5.6,81,0.00,,---,0.00,VWS V14.01,2013-08-10 16:22:00,
2013-08-10 11:23:00,62.6,56.7,0.00,SE,135,3.4,8.5,81,0.00,,---,0.00,VWS V14.01,2013-08-10 16:23:00,
2013-08-10 11:24:00,62.6,56.7,0.00,South,180,4.9,8.5,81,0.00,,---,0.00,VWS V14.01,2013-08-10 16:24:00,
2013-08-10 11:25:00,62.6,56.7,0.00,SSE,158,6.3,8.5,81,0.00,,---,0.00,VWS V14.01,2013-08-10 16:25:00,
2013-08-10 11:26:00,62.4,56.8,0.00,SSE,158,5.4,8.5,82,0.00,,---,0.00,VWS V14.01,2013-08-10 16:26:00,
2013-08-10 11:27:00,62.4,56.8,0.00,South,180,5.6,8.5,82,0.00,,---,0.00,VWS V14.01,2013-08-10 16:27:00,
2013-08-10 11:28:00,62.2,56.6,0.00,South,180,4.9,8.5,82,0.00,,---,0.00,VWS V14.01,2013-08-10 16:28:00,
2013-08-10 11:29:00,62.0,56.5,0.00,SSE,158,6.3,8.5,82,0.00,,---,0.00,VWS V14.01,2013-08-10 16:29:00,
2013-08-10 11:30:00,62.0,56.8,0.00,South,180,5.4,8.5,83,0.00,,---,0.00,VWS V14.01,2013-08-10 16:30:00,
2013-08-10 11:31:00,61.8,56.6,0.00,SSE,158,6.3,6.3,83,0.00,,---,0.00,VWS V14.01,2013-08-10 16:31:00,
2013-08-10 11:32:00,61.7,56.8,0.00,South,180,6.0,6.7,84,0.00,,---,0.00,VWS V14.01,2013-08-10 16:32:00,
2013-08-10 11:33:00,61.5,56.6,0.00,South,180,5.8,6.7,84,0.00,,---,0.00,VWS V14.01,2013-08-10 16:33:00,
2013-08-10 11:34:00,61.5,56.6,0.00,SSE,158,5.4,6.7,84,0.00,,---,0.00,VWS V14.01,2013-08-10 16:34:00,
2013-08-10 11:35:00,61.5,56.6,0.00,South,180,6.3,6.7,84,0.00,,---,0.00,VWS V14.01,2013-08-10 16:35:00,
2013-08-10 11:36:00,61.5,56.6,0.00,SSE,158,5.6,6.7,84,0.00,,---,0.00,VWS V14.01,2013-08-10 16:36:00,
2013-08-10 11:37:00,61.3,56.4,0.00,South,180,5.6,6.7,84,0.00,,---,0.00,VWS V14.01,2013-08-10 16:37:00,
2013-08-10 11:38:00,61.3,56.4,0.00,SSE,158,4.9,6.7,84,0.00,,---,0.00,VWS V14.01,2013-08-10 16:38:00,
2013-08-10 11:39:00,61.3,56.8,0.00,SSE,158,6.5,6.7,85,0.00,,---,0.00,VWS V14.01,2013-08-10 16:39:00,
2013-08-10 11:40:00,61.3,57.1,0.00,South,180,8.5,8.5,86,0.00,,---,0.00,VWS V14.01,2013-08-10 16:40:00,
2013-08-10 11:42:00,61.3,57.1,0.00,SSE,158,6.9,8.5,86,0.00,,---,0.00,VWS V14.01,2013-08-10 16:42:00,
2013-08-10 11:43:00,61.3,57.1,0.00,SSE,158,5.6,8.5,86,0.00,,---,0.00,VWS V14.01,2013-08-10 16:43:00,
2013-08-10 11:44:00,61.3,57.1,0.00,SSE,158,5.4,8.5,86,0.00,,---,0.00,VWS V14.01,2013-08-10 16:44:00,
2013-08-10 11:45:00,61.3,57.1,0.00,SSE,158,6.0,8.5,86,0.00,,---,0.00,VWS V14.01,2013-08-10 16:45:00,
2013-08-10 11:46:00,61.1,56.9,0.00,SSE,158,5.4,6.0,86,0.00,,---,0.00,VWS V14.01,2013-08-10 16:46:00,
2013-08-10 11:47:00,61.1,56.9,0.00,SSE,158,4.9,6.0,86,0.00,,---,0.00,VWS V14.01,2013-08-10 16:47:00,
2013-08-10 11:48:00,60.9,56.7,0.00,SSE,158,4.9,6.0,86,0.00,,---,0.00,VWS V14.01,2013-08-10 16:48:00,
2013-08-10 11:49:00,60.9,56.7,0.00,SSE,158,4.9,6.0,86,0.00,,---,0.00,VWS V14.01,2013-08-10 16:49:00,
2013-08-10 11:50:00,60.9,56.7,0.00,SE,135,4.5,6.0,86,0.00,,---,0.00,VWS V14.01,2013-08-10 16:50:00,
2013-08-10 11:51:00,60.8,56.5,0.00,SE,135,4.7,6.0,86,0.00,,---,0.00,VWS V14.01,2013-08-10 16:51:00,
2013-08-10 11:52:00,60.8,56.5,0.00,SE,135,4.3,6.0,86,0.00,,---,0.00,VWS V14.01,2013-08-10 16:52:00,
2013-08-10 11:53:00,60.8,56.5,0.00,SE,135,6.0,6.0,86,0.00,,---,0.00,VWS V14.01,2013-08-10 16:53:00,
2013-08-10 11:54:00,60.8,56.9,0.00,SE,135,5.6,6.3,87,0.00,,---,0.00,VWS V14.01,2013-08-10 16:54:00,
2013-08-10 11:55:00,60.8,56.9,0.00,SE,135,4.9,6.3,87,0.00,,---,0.00,VWS V14.01,2013-08-10 16:55:00,
2013-08-10 11:56:00,60.8,56.9,0.00,SSE,158,4.3,6.3,87,0.00,,---,0.00,VWS V14.01,2013-08-10 16:56:00,
2013-08-10 11:57:00,60.8,56.9,0.00,SSE,158,4.3,6.3,87,0.00,,---,0.00,VWS V14.01,2013-08-10 16:57:00,
2013-08-10 11:59:00,60.8,56.9,0.00,SE,135,3.6,6.3,87,0.00,,---,0.00,VWS V14.01,2013-08-10 16:59:00,
2013-08-10 12:00:00,60.8,56.9,0.00,SE,135,3.4,6.3,87,0.00,,---,0.00,VWS V14.01,2013-08-10 17:00:00,
2013-08-10 12:01:00,60.8,56.5,0.00,SE,135,2.9,4.0,86,0.00,,---,0.00,VWS V14.01,2013-08-10 17:01:00,
2013-08-10 12:02:00,60.8,56.5,0.00,SE,135,3.4,4.0,86,0.00,,---,0.00,VWS V14.01,2013-08-10 17:02:00,
2013-08-10 12:03:00,60.8,56.5,0.00,SE,135,3.4,4.0,86,0.00,,---,0.00,VWS V14.01,2013-08-10 17:03:00,
2013-08-10 12:04:00,60.8,56.5,0.00,SE,135,3.8,4.0,86,0.00,,---,0.00,VWS V14.01,2013-08-10 17:04:00,
2013-08-10 12:05:00,60.8,56.5,0.00,SE,135,2.9,4.0,86,0.00,,---,0.00,VWS V14.01,2013-08-10 17:05:00,
2013-08-10 12:06:00,60.8,56.5,0.00,SE,135,3.4,4.0,86,0.00,,---,0.00,VWS V14.01,2013-08-10 17:06:00,
2013-08-10 12:07:00,60.8,56.5,0.00,SE,135,2.9,4.0,86,0.00,,---,0.00,VWS V14.01,2013-08-10 17:07:00,
2013-08-10 12:08:00,60.8,56.5,0.00,SE,135,3.1,4.0,86,0.00,,---,0.00,VWS V14.01,2013-08-10 17:08:00,
2013-08-10 12:09:00,60.9,56.7,0.00,SE,135,3.4,4.0,86,0.00,,---,0.00,VWS V14.01,2013-08-10 17:09:00,
2013-08-10 12:10:00,60.9,56.7,0.00,SE,135,2.7,4.0,86,0.00,,---,0.00,VWS V14.01,2013-08-10 17:10:00,
2013-08-10 12:12:00,60.9,56.7,0.00,SE,135,3.1,4.0,86,0.00,,---,0.00,VWS V14.01,2013-08-10 17:12:00,
2013-08-10 12:13:00,61.1,57.2,0.00,SE,135,2.7,4.9,87,0.00,,---,0.00,VWS V14.01,2013-08-10 17:13:00,
2013-08-10 12:14:00,61.1,57.2,0.00,SE,135,3.6,4.9,87,0.00,,---,0.00,VWS V14.01,2013-08-10 17:14:00,
2013-08-10 12:15:00,61.1,57.2,0.00,SSE,158,2.5,4.9,87,0.00,,---,0.00,VWS V14.01,2013-08-10 17:15:00,
2013-08-10 12:16:00,61.1,57.2,0.00,SE,135,4.0,4.0,87,0.00,,---,0.00,VWS V14.01,2013-08-10 17:16:00,
2013-08-10 12:17:00,61.1,57.2,0.00,SE,135,4.0,4.0,87,0.00,,---,0.00,VWS V14.01,2013-08-10 17:17:00,
2013-08-10 12:18:00,61.1,57.2,0.00,SE,135,3.4,4.0,87,0.00,,---,0.00,VWS V14.01,2013-08-10 17:18:00,
2013-08-10 12:19:00,61.1,57.2,0.00,SE,135,3.4,4.0,87,0.00,,---,0.00,VWS V14.01,2013-08-10 17:19:00,
2013-08-10 12:20:00,61.1,57.2,0.00,South,180,2.7,4.0,87,0.00,,---,0.00,VWS V14.01,2013-08-10 17:20:00,
2013-08-10 12:21:00,61.3,57.1,0.00,SE,135,2.0,4.0,86,0.00,,---,0.00,VWS V14.01,2013-08-10 17:21:00,
2013-08-10 12:22:00,61.3,57.1,0.00,South,180,3.8,4.0,86,0.00,,---,0.00,VWS V14.01,2013-08-10 17:22:00,
2013-08-10 12:23:00,61.5,57.6,0.00,South,180,2.7,4.0,87,0.00,,---,0.00,VWS V14.01,2013-08-10 17:23:00,
2013-08-10 12:25:00,61.5,57.6,0.00,SW,225,2.7,4.0,87,0.00,,---,0.00,VWS V14.01,2013-08-10 17:25:00,
2013-08-10 12:26:00,61.5,57.6,0.00,South,180,2.9,4.0,87,0.00,,---,0.00,VWS V14.01,2013-08-10 17:26:00,
2013-08-10 12:27:00,61.7,57.8,0.00,SSE,158,2.9,4.0,87,0.00,,---,0.00,VWS V14.01,2013-08-10 17:27:00,
2013-08-10 12:28:00,61.7,57.8,0.00,SSE,158,0.0,4.0,87,0.00,,---,0.00,VWS V14.01,2013-08-10 17:28:00,
2013-08-10 12:29:00,61.7,57.8,0.00,SSE,158,2.2,4.0,87,0.00,,---,0.00,VWS V14.01,2013-08-10 17:29:00,
2013-08-10 12:30:00,61.7,57.8,0.00,SSW,202,4.0,4.0,87,0.00,,---,0.00,VWS V14.01,2013-08-10 17:30:00,
2013-08-10 12:31:00,61.7,57.8,0.00,SE,135,2.7,4.0,87,0.00,,---,0.00,VWS V14.01,2013-08-10 17:31:00,
2013-08-10 12:32:00,61.7,57.4,0.00,SSE,158,1.6,4.0,86,0.00,,---,0.00,VWS V14.01,2013-08-10 17:32:00,
2013-08-10 12:33:00,61.7,57.4,0.00,SSE,158,2.5,4.0,86,0.00,,---,0.00,VWS V14.01,2013-08-10 17:33:00,
2013-08-10 12:34:00,61.7,57.4,0.00,South,180,2.5,4.0,86,0.00,,---,0.00,VWS V14.01,2013-08-10 17:34:00,
2013-08-10 12:35:00,61.7,57.4,0.00,South,180,3.6,4.0,86,0.00,,---,0.00,VWS V14.01,2013-08-10 17:35:00,
2013-08-10 12:36:00,61.7,57.4,0.00,SE,135,3.1,4.3,86,0.00,,---,0.00,VWS V14.01,2013-08-10 17:36:00,
2013-08-10 12:37:00,61.7,57.4,0.00,SE,135,3.6,4.3,86,0.00,,---,0.00,VWS V14.01,2013-08-10 17:37:00,
2013-08-10 12:38:00,61.7,57.4,0.00,SE,135,3.6,4.3,86,0.00,,---,0.00,VWS V14.01,2013-08-10 17:38:00,
2013-08-10 12:39:00,61.7,57.4,0.00,South,180,3.8,4.3,86,0.00,,---,0.00,VWS V14.01,2013-08-10 17:39:00,
2013-08-10 12:40:00,61.7,57.4,0.00,South,180,3.6,4.3,86,0.00,,---,0.00,VWS V14.01,2013-08-10 17:40:00,
2013-08-10 12:41:00,61.8,57.6,0.00,South,180,2.9,5.6,86,0.00,,---,0.00,VWS V14.01,2013-08-10 17:41:00,
2013-08-10 12:42:00,61.8,57.6,0.00,SSE,158,3.6,5.6,86,0.00,,---,0.00,VWS V14.01,2013-08-10 17:42:00,
2013-08-10 12:43:00,61.8,57.6,0.00,SSW,202,3.6,5.6,86,0.00,,---,0.00,VWS V14.01,2013-08-10 17:43:00,
2013-08-10 12:44:00,61.8,57.6,0.00,South,180,4.0,5.6,86,0.00,,---,0.00,VWS V14.01,2013-08-10 17:44:00,
2013-08-10 12:45:00,61.8,57.6,0.00,SW,225,2.2,5.6,86,0.00,,---,0.00,VWS V14.01,2013-08-10 17:45:00,
2013-08-10 12:46:00,61.8,57.6,0.00,SW,225,2.9,2.9,86,0.00,,---,0.00,VWS V14.01,2013-08-10 17:46:00,
2013-08-10 12:47:00,61.8,57.6,0.00,SW,225,2.0,2.9,86,0.00,,---,0.00,VWS V14.01,2013-08-10 17:47:00,
2013-08-10 12:48:00,61.8,57.6,0.00,SW,225,1.3,2.9,86,0.00,,---,0.00,VWS V14.01,2013-08-10 17:48:00,
2013-08-10 12:49:00,61.8,57.3,0.00,SW,225,2.9,2.9,85,0.00,,---,0.00,VWS V14.01,2013-08-10 17:49:00,
2013-08-10 12:50:00,61.8,57.6,0.00,SW,225,4.0,4.9,86,0.00,,---,0.00,VWS V14.01,2013-08-10 17:50:00,
2013-08-10 12:51:00,61.8,57.6,0.00,SSW,202,4.3,5.6,86,0.00,,---,0.00,VWS V14.01,2013-08-10 17:51:00,
2013-08-10 12:52:00,61.8,57.9,0.00,South,180,2.9,5.6,87,0.00,,---,0.00,VWS V14.01,2013-08-10 17:52:00,
2013-08-10 12:53:00,61.8,57.9,0.00,SW,225,4.3,5.6,87,0.00,,---,0.00,VWS V14.01,2013-08-10 17:53:00,
2013-08-10 12:55:00,61.8,57.9,0.00,SW,225,3.6,5.6,87,0.00,,---,0.00,VWS V14.01,2013-08-10 17:55:00,
2013-08-10 12:56:00,61.8,58.2,0.00,SSW,202,4.7,5.6,88,0.00,,---,0.00,VWS V14.01,2013-08-10 17:56:00,
2013-08-10 12:57:00,61.8,58.2,0.00,South,180,4.0,5.6,88,0.00,,---,0.00,VWS V14.01,2013-08-10 17:57:00,
2013-08-10 12:59:00,61.8,58.2,0.00,South,180,5.6,6.3,88,0.00,,---,0.00,VWS V14.01,2013-08-10 17:59:00,
2013-08-10 13:00:00,62.0,58.4,0.00,South,180,6.5,6.5,88,0.00,,---,0.00,VWS V14.01,2013-08-10 18:00:00,
2013-08-10 13:01:00,62.0,58.4,0.00,South,180,7.2,7.2,88,0.00,,---,0.00,VWS V14.01,2013-08-10 18:01:00,
2013-08-10 13:02:00,62.0,58.4,0.00,SSW,202,3.8,7.2,88,0.00,,---,0.00,VWS V14.01,2013-08-10 18:02:00,
2013-08-10 13:03:00,62.0,58.4,0.00,SSW,202,3.8,7.2,88,0.00,,---,0.00,VWS V14.01,2013-08-10 18:03:00,
2013-08-10 13:04:00,62.0,58.4,0.00,SSW,202,4.0,7.2,88,0.00,,---,0.00,VWS V14.01,2013-08-10 18:04:00,
2013-08-10 13:05:00,62.0,58.4,0.00,SSW,202,3.8,7.2,88,0.00,,---,0.00,VWS V14.01,2013-08-10 18:05:00,
2013-08-10 13:07:00,62.0,58.4,0.00,SW,225,4.3,7.2,88,0.00,,---,0.00,VWS V14.01,2013-08-10 18:07:00,
2013-08-10 13:08:00,62.0,58.4,0.00,SW,225,4.3,7.2,88,0.00,,---,0.00,VWS V14.01,2013-08-10 18:08:00,
2013-08-10 13:10:00,62.0,58.4,0.00,South,180,4.0,7.2,88,0.00,,---,0.00,VWS V14.01,2013-08-10 18:10:00,
2013-08-10 13:11:00,62.0,58.4,0.00,South,180,4.9,7.2,88,0.00,,---,0.00,VWS V14.01,2013-08-10 18:11:00,
2013-08-10 13:12:00,62.0,58.4,0.00,South,180,4.3,7.2,88,0.00,,---,0.00,VWS V14.01,2013-08-10 18:12:00,
2013-08-10 13:13:00,62.0,58.4,0.00,South,180,3.8,7.2,88,0.00,,---,0.00,VWS V14.01,2013-08-10 18:13:00,
2013-08-10 13:14:00,62.0,58.1,0.00,SW,225,4.9,7.2,87,0.00,,---,0.00,VWS V14.01,2013-08-10 18:14:00,
2013-08-10 13:15:00,62.0,58.1,0.00,South,180,4.9,7.2,87,0.00,,---,0.00,VWS V14.01,2013-08-10 18:15:00,
2013-08-10 13:16:00,62.0,58.4,0.00,South,180,4.7,4.9,88,0.00,,---,0.00,VWS V14.01,2013-08-10 18:16:00,
2013-08-10 13:17:00,62.0,58.4,0.00,South,180,7.4,7.4,88,0.00,,---,0.00,VWS V14.01,2013-08-10 18:17:00,
2013-08-10 13:18:00,62.0,58.1,0.00,South,180,7.4,7.4,87,0.00,,---,0.00,VWS V14.01,2013-08-10 18:18:00,
2013-08-10 13:19:00,62.2,58.3,0.00,South,180,8.1,10.5,87,0.00,,---,0.00,VWS V14.01,2013-08-10 18:19:00,
2013-08-10 13:20:00,62.2,58.3,0.00,SSW,202,7.6,10.5,87,0.00,,---,0.00,VWS V14.01,2013-08-10 18:20:00,
2013-08-10 13:21:00,62.2,58.3,0.00,South,180,5.6,10.5,87,0.00,,---,0.00,VWS V14.01,2013-08-10 18:21:00,
2013-08-10 13:23:00,62.2,58.3,0.00,South,180,6.5,10.5,87,0.00,,---,0.00,VWS V14.01,2013-08-10 18:23:00,
2013-08-10 13:24:00,62.2,58.3,0.00,South,180,7.4,10.5,87,0.00,,---,0.00,VWS V14.01,2013-08-10 18:24:00,
2013-08-10 13:25:00,62.2,58.0,0.00,SSW,202,6.0,10.5,86,0.00,,---,0.00,VWS V14.01,2013-08-10 18:25:00,
2013-08-10 13:26:00,62.2,58.0,0.00,SSW,202,5.4,10.5,86,0.00,,---,0.00,VWS V14.01,2013-08-10 18:26:00,
2013-08-10 13:27:00,62.2,58.0,0.00,South,180,5.6,10.5,86,0.00,,---,0.00,VWS V14.01,2013-08-10 18:27:00,
2013-08-10 13:28:00,62.2,58.0,0.00,South,180,10.5,10.5,86,0.00,,---,0.00,VWS V14.01,2013-08-10 18:28:00,
2013-08-10 13:29:00,62.2,58.0,0.00,South,180,8.1,10.5,86,0.00,,---,0.00,VWS V14.01,2013-08-10 18:29:00,
2013-08-10 13:30:00,62.2,58.0,0.00,SSE,158,4.9,6.3,86,0.00,,---,0.00,VWS V14.01,2013-08-10 18:30:00,
2013-08-10 13:31:00,62.2,58.0,0.00,SSE,158,4.9,6.3,86,0.00,,---,0.00,VWS V14.01,2013-08-10 18:31:00,
2013-08-10 13:32:00,62.2,58.0,0.00,South,180,6.7,7.8,86,0.00,,---,0.00,VWS V14.01,2013-08-10 18:32:00,
2013-08-10 13:33:00,62.2,58.0,0.00,South,180,7.8,7.8,86,0.00,,---,0.00,VWS V14.01,2013-08-10 18:33:00,
2013-08-10 13:34:00,62.4,58.1,0.00,SSW,202,5.8,8.1,86,0.00,,---,0.00,VWS V14.01,2013-08-10 18:34:00,
2013-08-10 13:35:00,62.4,58.1,0.00,SSE,158,4.3,8.1,86,0.00,,---,0.00,VWS V14.01,2013-08-10 18:35:00,
2013-08-10 13:36:00,62.4,58.1,0.00,South,180,4.0,8.1,86,0.00,,---,0.00,VWS V14.01,2013-08-10 18:36:00,
2013-08-10 13:38:00,62.2,58.0,0.00,South,180,4.3,8.1,86,0.00,,---,0.00,VWS V14.01,2013-08-10 18:38:00,
2013-08-10 13:39:00,62.2,58.3,0.00,South,180,3.1,8.1,87,0.00,,---,0.00,VWS V14.01,2013-08-10 18:39:00,
2013-08-10 13:40:00,62.2,58.3,0.00,South,180,4.9,8.1,87,0.00,,---,0.00,VWS V14.01,2013-08-10 18:40:00,
2013-08-10 13:42:00,62.0,58.1,0.00,South,180,5.4,8.1,87,0.00,,---,0.00,VWS V14.01,2013-08-10 18:42:00,
2013-08-10 13:44:00,62.0,58.1,0.00,South,180,4.7,8.1,87,0.00,,---,0.00,VWS V14.01,2013-08-10 18:44:00,
2013-08-10 13:45:00,62.0,58.1,0.00,South,180,2.7,8.1,87,0.00,,---,0.00,VWS V14.01,2013-08-10 18:45:00,
2013-08-10 13:46:00,62.0,58.1,0.00,South,180,4.7,4.7,87,0.00,,---,0.00,VWS V14.01,2013-08-10 18:46:00,
2013-08-10 13:47:00,61.8,57.9,0.00,South,180,5.4,5.4,87,0.00,,---,0.00,VWS V14.01,2013-08-10 18:47:00,
2013-08-10 13:48:00,61.8,57.9,0.00,South,180,4.7,5.4,87,0.00,,---,0.00,VWS V14.01,2013-08-10 18:48:00,
2013-08-10 13:50:00,61.8,58.2,0.00,South,180,5.4,5.4,88,0.00,,---,0.00,VWS V14.01,2013-08-10 18:50:00,
2013-08-10 13:51:00,61.7,58.1,0.00,South,180,4.3,6.5,88,0.00,,---,0.00,VWS V14.01,2013-08-10 18:51:00,
2013-08-10 13:52:00,61.7,58.1,0.00,South,180,3.8,6.5,88,0.00,,---,0.00,VWS V14.01,2013-08-10 18:52:00,
2013-08-10 13:53:00,61.7,58.1,0.00,South,180,7.2,7.2,88,0.00,,---,0.00,VWS V14.01,2013-08-10 18:53:00,
2013-08-10 13:54:00,61.7,58.1,0.00,SSE,158,6.0,7.2,88,0.00,,---,0.00,VWS V14.01,2013-08-10 18:54:00,
2013-08-10 13:55:00,61.7,58.1,0.00,SSE,158,5.8,7.2,88,0.00,,---,0.00,VWS V14.01,2013-08-10 18:55:00,
2013-08-10 13:56:00,61.7,58.1,0.00,South,180,5.8,7.8,88,0.00,,---,0.00,VWS V14.01,2013-08-10 18:56:00,
2013-08-10 13:57:00,61.7,58.1,0.00,South,180,4.3,7.8,88,0.00,,---,0.00,VWS V14.01,2013-08-10 18:57:00,
2013-08-10 13:58:00,61.7,58.1,0.00,South,180,6.7,7.8,88,0.00,,---,0.00,VWS V14.01,2013-08-10 18:58:00,
2013-08-10 13:59:00,61.7,58.1,0.00,South,180,7.4,7.8,88,0.00,,---,0.00,VWS V14.01,2013-08-10 18:59:00,
2013-08-10 14:00:00,61.7,58.1,0.00,South,180,8.5,8.5,88,0.00,,---,0.00,VWS V14.01,2013-08-10 19:00:00,
2013-08-10 14:01:00,61.7,58.1,0.00,South,180,6.9,8.5,88,0.00,,---,0.00,VWS V14.01,2013-08-10 19:01:00,
2013-08-10 14:02:00,61.7,58.1,0.00,South,180,6.3,8.5,88,0.00,,---,0.00,VWS V14.01,2013-08-10 19:02:00,
2013-08-10 14:03:00,61.7,58.4,0.00,SW,225,6.3,8.5,89,0.00,,---,0.00,VWS V14.01,2013-08-10 19:03:00,
2013-08-10 14:04:00,61.7,58.4,0.00,South,180,7.6,10.1,89,0.00,,---,0.00,VWS V14.01,2013-08-10 19:04:00,
2013-08-10 14:05:00,61.7,58.4,0.00,SW,225,6.5,10.1,89,0.00,,---,0.00,VWS V14.01,2013-08-10 19:05:00,
2013-08-10 14:06:00,61.8,58.6,0.00,South,180,5.6,10.1,89,0.00,,---,0.00,VWS V14.01,2013-08-10 19:06:00,
2013-08-10 14:08:00,61.8,58.6,0.00,SW,225,4.9,10.1,89,0.00,,---,0.00,VWS V14.01,2013-08-10 19:08:00,
2013-08-10 14:09:00,61.8,58.6,0.00,South,180,3.8,10.1,89,0.00,,---,0.00,VWS V14.01,2013-08-10 19:09:00,
2013-08-10 14:10:00,61.8,58.6,0.00,SW,225,4.7,10.1,89,0.00,,---,0.00,VWS V14.01,2013-08-10 19:10:00,
2013-08-10 14:11:00,61.8,58.6,0.00,South,180,3.6,10.1,89,0.00,,---,0.00,VWS V14.01,2013-08-10 19:11:00,
2013-08-10 14:12:00,61.8,58.6,0.00,SW,225,4.9,10.1,89,0.00,,---,0.00,VWS V14.01,2013-08-10 19:12:00,
2013-08-10 14:13:00,61.8,58.6,0.00,South,180,4.7,10.1,89,0.00,,---,0.00,VWS V14.01,2013-08-10 19:13:00,
2013-08-10 14:14:00,61.8,58.2,0.00,SSW,202,3.6,10.1,88,0.00,,---,0.00,VWS V14.01,2013-08-10 19:14:00,
2013-08-10 14:15:00,61.8,58.2,0.00,South,180,4.0,10.1,88,0.00,,---,0.00,VWS V14.01,2013-08-10 19:15:00,
2013-08-10 14:17:00,62.0,58.4,0.00,South,180,3.6,5.8,88,0.00,,---,0.00,VWS V14.01,2013-08-10 19:17:00,
2013-08-10 14:18:00,62.0,58.4,0.00,South,180,4.0,5.8,88,0.00,,---,0.00,VWS V14.01,2013-08-10 19:18:00,
2013-08-10 14:19:00,62.0,58.4,0.00,SW,225,4.3,5.8,88,0.00,,---,0.00,VWS V14.01,2013-08-10 19:19:00,
2013-08-10 14:20:00,62.0,58.4,0.00,SW,225,3.4,5.8,88,0.00,,---,0.00,VWS V14.01,2013-08-10 19:20:00,
2013-08-10 14:21:00,61.8,58.2,0.00,SW,225,3.1,5.8,88,0.00,,---,0.00,VWS V14.01,2013-08-10 19:21:00,
2013-08-10 14:22:00,61.8,58.2,0.00,SW,225,6.3,6.3,88,0.00,,---,0.00,VWS V14.01,2013-08-10 19:22:00,
2013-08-10 14:23:00,61.8,58.2,0.00,SW,225,3.8,6.3,88,0.00,,---,0.00,VWS V14.01,2013-08-10 19:23:00,
2013-08-10 14:24:00,61.8,58.2,0.00,SW,225,6.0,6.3,88,0.00,,---,0.00,VWS V14.01,2013-08-10 19:24:00,
2013-08-10 14:25:00,61.8,58.2,0.00,SW,225,4.7,6.3,88,0.00,,---,0.00,VWS V14.01,2013-08-10 19:25:00,
2013-08-10 14:26:00,62.0,58.4,0.00,SW,225,4.0,6.3,88,0.00,,---,0.00,VWS V14.01,2013-08-10 19:26:00,
2013-08-10 14:27:00,62.0,58.4,0.00,SW,225,4.0,6.3,88,0.00,,---,0.00,VWS V14.01,2013-08-10 19:27:00,
2013-08-10 14:28:00,62.0,58.4,0.00,SW,225,4.9,6.3,88,0.00,,---,0.00,VWS V14.01,2013-08-10 19:28:00,
2013-08-10 14:29:00,62.0,58.4,0.00,SW,225,4.3,6.3,88,0.00,,---,0.00,VWS V14.01,2013-08-10 19:29:00,
2013-08-10 14:30:00,62.0,58.4,0.00,SW,225,4.3,6.3,88,0.00,,---,0.00,VWS V14.01,2013-08-10 19:30:00,
2013-08-10 14:31:00,62.0,58.4,0.00,SSW,202,4.5,4.5,88,0.00,,---,0.00,VWS V14.01,2013-08-10 19:31:00,
2013-08-10 14:32:00,62.0,58.4,0.00,SSW,202,4.9,4.9,88,0.00,,---,0.00,VWS V14.01,2013-08-10 19:32:00,
2013-08-10 14:33:00,62.0,58.4,0.00,South,180,4.0,6.0,88,0.00,,---,0.00,VWS V14.01,2013-08-10 19:33:00,
2013-08-10 14:34:00,62.0,58.4,0.00,SSW,202,7.4,7.4,88,0.00,,---,0.00,VWS V14.01,2013-08-10 19:34:00,
2013-08-10 14:35:00,62.0,58.4,0.00,SW,225,6.0,7.6,88,0.00,,---,0.00,VWS V14.01,2013-08-10 19:35:00,
2013-08-10 14:36:00,62.0,58.4,0.00,SSW,202,5.4,7.6,88,0.00,,---,0.00,VWS V14.01,2013-08-10 19:36:00,
2013-08-10 14:37:00,62.0,58.4,0.00,SW,225,6.3,7.6,88,0.00,,---,0.00,VWS V14.01,2013-08-10 19:37:00,
2013-08-10 14:38:00,61.8,58.2,0.00,South,180,6.0,7.6,88,0.00,,---,0.00,VWS V14.01,2013-08-10 19:38:00,
2013-08-10 14:40:00,62.0,58.4,0.00,SW,225,4.9,7.6,88,0.00,,---,0.00,VWS V14.01,2013-08-10 19:40:00,
2013-08-10 14:41:00,61.8,58.6,0.00,SW,225,5.6,7.6,89,0.00,,---,0.00,VWS V14.01,2013-08-10 19:41:00,
2013-08-10 14:42:00,61.8,58.6,0.00,West,270,4.0,7.6,89,0.00,,---,0.00,VWS V14.01,2013-08-10 19:42:00,
2013-08-10 14:43:00,61.8,58.6,0.00,SW,225,6.0,7.6,89,0.00,,---,0.00,VWS V14.01,2013-08-10 19:43:00,
2013-08-10 14:44:00,61.8,58.6,0.00,SW,225,4.9,7.6,89,0.00,,---,0.00,VWS V14.01,2013-08-10 19:44:00,
2013-08-10 14:45:00,61.8,58.6,0.00,SW,225,4.3,7.6,89,0.00,,---,0.00,VWS V14.01,2013-08-10 19:45:00,
2013-08-10 14:46:00,61.8,58.6,0.00,SW,225,4.9,6.0,89,0.00,,---,0.00,VWS V14.01,2013-08-10 19:46:00,
2013-08-10 14:47:00,61.8,58.6,0.00,SW,225,4.3,6.0,89,0.00,,---,0.00,VWS V14.01,2013-08-10 19:47:00,
2013-08-10 14:48:00,61.8,58.6,0.00,SW,225,3.6,6.0,89,0.00,,---,0.00,VWS V14.01,2013-08-10 19:48:00,
2013-08-10 14:49:00,61.8,58.6,0.00,SW,225,4.0,6.0,89,0.00,,---,0.00,VWS V14.01,2013-08-10 19:49:00,
2013-08-10 14:51:00,61.8,58.6,0.00,SW,225,3.6,6.0,89,0.00,,---,0.00,VWS V14.01,2013-08-10 19:51:00,
2013-08-10 14:52:00,61.8,58.6,0.00,SSW,202,3.8,6.0,89,0.00,,---,0.00,VWS V14.01,2013-08-10 19:52:00,
2013-08-10 14:53:00,61.8,58.6,0.00,SSW,202,4.3,6.0,89,0.00,,---,0.00,VWS V14.01,2013-08-10 19:53:00,
2013-08-10 14:54:00,61.8,58.6,0.00,SW,225,3.8,6.0,89,0.00,,---,0.00,VWS V14.01,2013-08-10 19:54:00,
2013-08-10 14:55:00,61.8,58.6,0.00,SSW,202,5.6,6.0,89,0.00,,---,0.00,VWS V14.01,2013-08-10 19:55:00,
2013-08-10 14:57:00,61.8,58.6,0.00,SW,225,4.3,6.0,89,0.00,,---,0.00,VWS V14.01,2013-08-10 19:57:00,
2013-08-10 14:58:00,61.7,58.4,0.00,SW,225,4.0,6.0,89,0.00,,---,0.00,VWS V14.01,2013-08-10 19:58:00,
2013-08-10 14:59:00,61.7,58.4,0.00,SW,225,3.6,6.0,89,0.00,,---,0.00,VWS V14.01,2013-08-10 19:59:00,
2013-08-10 15:00:00,61.7,58.4,0.00,SW,225,4.9,6.5,89,0.00,,---,0.00,VWS V14.01,2013-08-10 20:00:00,
2013-08-10 15:01:00,61.7,58.4,0.00,SW,225,4.9,5.6,89,0.00,,---,0.00,VWS V14.01,2013-08-10 20:01:00,
2013-08-10 15:02:00,61.7,58.4,0.00,SW,225,4.7,5.6,89,0.00,,---,0.00,VWS V14.01,2013-08-10 20:02:00,
2013-08-10 15:03:00,61.7,58.4,0.00,SSW,202,6.0,6.0,89,0.00,,---,0.00,VWS V14.01,2013-08-10 20:03:00,
2013-08-10 15:04:00,61.7,58.4,0.00,SW,225,6.0,6.0,89,0.00,,---,0.00,VWS V14.01,2013-08-10 20:04:00,
2013-08-10 15:05:00,61.7,58.4,0.00,SW,225,6.0,6.3,89,0.00,,---,0.00,VWS V14.01,2013-08-10 20:05:00,
2013-08-10 15:06:00,61.7,58.4,0.00,SSW,202,5.6,6.7,89,0.00,,---,0.00,VWS V14.01,2013-08-10 20:06:00,
2013-08-10 15:07:00,61.7,58.4,0.00,SW,225,4.3,6.7,89,0.00,,---,0.00,VWS V14.01,2013-08-10 20:07:00,
2013-08-10 15:09:00,61.7,58.4,0.00,SW,225,5.8,6.7,89,0.00,,---,0.00,VWS V14.01,2013-08-10 20:09:00,
2013-08-10 15:10:00,61.7,58.4,0.00,SW,225,6.3,6.7,89,0.00,,---,0.00,VWS V14.01,2013-08-10 20:10:00,
2013-08-10 15:11:00,61.7,58.4,0.00,SW,225,6.3,8.5,89,0.00,,---,0.00,VWS V14.01,2013-08-10 20:11:00,
2013-08-10 15:13:00,61.7,58.4,0.00,SW,225,7.4,8.5,89,0.00,,---,0.00,VWS V14.01,2013-08-10 20:13:00,
2013-08-10 15:14:00,61.7,58.4,0.00,SW,225,4.3,8.5,89,0.00,,---,0.00,VWS V14.01,2013-08-10 20:14:00,
2013-08-10 15:15:00,61.7,58.4,0.00,SSW,202,4.9,8.5,89,0.00,,---,0.00,VWS V14.01,2013-08-10 20:15:00,
2013-08-10 15:16:00,61.7,58.4,0.00,SW,225,5.6,5.8,89,0.00,,---,0.00,VWS V14.01,2013-08-10 20:16:00,
2013-08-10 15:17:00,61.7,58.4,0.00,SW,225,3.8,5.8,89,0.00,,---,0.00,VWS V14.01,2013-08-10 20:17:00,
2013-08-10 15:18:00,61.7,58.7,0.00,WSW,248,6.3,6.7,90,0.00,,---,0.00,VWS V14.01,2013-08-10 20:18:00,
2013-08-10 15:19:00,61.7,58.7,0.00,SW,225,4.0,6.7,90,0.00,,---,0.00,VWS V14.01,2013-08-10 20:19:00,
2013-08-10 15:20:00,61.7,58.7,0.00,SW,225,4.3,6.7,90,0.00,,---,0.00,VWS V14.01,2013-08-10 20:20:00,
2013-08-10 15:21:00,61.7,58.7,0.00,SSW,202,3.8,6.7,90,0.00,,---,0.00,VWS V14.01,2013-08-10 20:21:00,
2013-08-10 15:22:00,61.7,58.7,0.00,SW,225,5.8,6.7,90,0.00,,---,0.00,VWS V14.01,2013-08-10 20:22:00,
2013-08-10 15:23:00,61.7,58.7,0.00,SW,225,3.8,6.7,90,0.00,,---,0.00,VWS V14.01,2013-08-10 20:23:00,
2013-08-10 15:24:00,61.7,58.7,0.00,SW,225,5.6,6.7,90,0.00,,---,0.00,VWS V14.01,2013-08-10 20:24:00,
2013-08-10 15:25:00,61.7,58.7,0.00,SSW,202,5.4,6.7,90,0.00,,---,0.00,VWS V14.01,2013-08-10 20:25:00,
2013-08-10 15:26:00,61.7,58.4,0.00,SW,225,4.0,6.7,89,0.00,,---,0.00,VWS V14.01,2013-08-10 20:26:00,
2013-08-10 15:27:00,61.7,58.7,0.00,South,180,4.3,6.7,90,0.00,,---,0.00,VWS V14.01,2013-08-10 20:27:00,
2013-08-10 15:28:00,61.7,58.7,0.00,South,180,4.3,6.7,90,0.00,,---,0.00,VWS V14.01,2013-08-10 20:28:00,
2013-08-10 15:29:00,61.7,58.7,0.00,South,180,3.8,6.7,90,0.00,,---,0.00,VWS V14.01,2013-08-10 20:29:00,
2013-08-10 15:30:00,61.7,58.4,0.00,SW,225,4.7,6.7,89,0.00,,---,0.00,VWS V14.01,2013-08-10 20:30:00,
2013-08-10 15:31:00,61.7,58.4,0.00,SW,225,4.0,4.7,89,0.00,,---,0.00,VWS V14.01,2013-08-10 20:31:00,
2013-08-10 15:32:00,61.5,58.2,0.00,South,180,5.6,5.6,89,0.00,,---,0.00,VWS V14.01,2013-08-10 20:32:00,
2013-08-10 15:33:00,61.5,58.5,0.00,South,180,4.3,5.6,90,0.00,,---,0.00,VWS V14.01,2013-08-10 20:33:00,
2013-08-10 15:34:00,61.5,58.5,0.00,South,180,4.3,5.6,90,0.00,,---,0.00,VWS V14.01,2013-08-10 20:34:00,
2013-08-10 15:35:00,61.5,58.5,0.00,SW,225,4.3,5.6,90,0.00,,---,0.00,VWS V14.01,2013-08-10 20:35:00,
2013-08-10 15:36:00,61.5,58.5,0.00,South,180,4.3,5.6,90,0.00,,---,0.00,VWS V14.01,2013-08-10 20:36:00,
2013-08-10 15:37:00,61.5,58.5,0.00,SW,225,4.9,6.3,90,0.00,,---,0.00,VWS V14.01,2013-08-10 20:37:00,
2013-08-10 15:39:00,61.5,58.5,0.00,SW,225,4.0,6.3,90,0.00,,---,0.00,VWS V14.01,2013-08-10 20:39:00,
2013-08-10 15:40:00,61.5,58.5,0.00,SW,225,4.5,6.3,90,0.00,,---,0.00,VWS V14.01,2013-08-10 20:40:00,
2013-08-10 15:41:00,61.5,58.5,0.00,SW,225,4.0,6.3,90,0.00,,---,0.00,VWS V14.01,2013-08-10 20:41:00,
2013-08-10 15:42:00,61.5,58.5,0.00,SW,225,3.1,6.3,90,0.00,,---,0.00,VWS V14.01,2013-08-10 20:42:00,
2013-08-10 15:43:00,61.5,58.5,0.00,SW,225,4.3,6.3,90,0.00,,---,0.00,VWS V14.01,2013-08-10 20:43:00,
2013-08-10 15:44:00,61.5,58.5,0.00,South,180,4.7,6.3,90,0.00,,---,0.00,VWS V14.01,2013-08-10 20:44:00,
2013-08-10 15:45:00,61.5,58.5,0.00,South,180,4.7,6.3,90,0.00,,---,0.00,VWS V14.01,2013-08-10 20:45:00,
2013-08-10 15:46:00,61.3,58.3,0.00,SSW,202,3.1,4.7,90,0.00,,---,0.00,VWS V14.01,2013-08-10 20:46:00,
2013-08-10 15:47:00,61.3,58.3,0.00,SW,225,3.6,4.7,90,0.00,,---,0.00,VWS V14.01,2013-08-10 20:47:00,
2013-08-10 15:48:00,61.3,58.3,0.00,SW,225,4.3,4.9,90,0.00,,---,0.00,VWS V14.01,2013-08-10 20:48:00,
2013-08-10 15:49:00,61.1,58.2,0.00,South,180,4.0,6.0,90,0.00,,---,0.00,VWS V14.01,2013-08-10 20:49:00,
2013-08-10 15:50:00,61.1,58.2,0.00,SSW,202,4.0,6.0,90,0.00,,---,0.00,VWS V14.01,2013-08-10 20:50:00,
2013-08-10 15:51:00,61.1,58.2,0.00,SSW,202,3.8,6.0,90,0.00,,---,0.00,VWS V14.01,2013-08-10 20:51:00,
2013-08-10 15:52:00,61.1,58.2,0.00,South,180,4.0,6.0,90,0.00,,---,0.00,VWS V14.01,2013-08-10 20:52:00,
2013-08-10 15:53:00,61.1,58.2,0.00,South,180,3.4,6.0,90,0.00,,---,0.00,VWS V14.01,2013-08-10 20:53:00,
2013-08-10 15:54:00,61.1,58.2,0.00,South,180,3.1,6.0,90,0.00,,---,0.00,VWS V14.01,2013-08-10 20:54:00,
2013-08-10 15:55:00,61.1,58.2,0.00,South,180,2.5,6.0,90,0.00,,---,0.00,VWS V14.01,2013-08-10 20:55:00,
2013-08-10 15:56:00,61.1,58.2,0.00,SSW,202,2.7,6.0,90,0.00,,---,0.00,VWS V14.01,2013-08-10 20:56:00,
2013-08-10 15:57:00,61.1,58.2,0.00,South,180,4.0,6.0,90,0.00,,---,0.00,VWS V14.01,2013-08-10 20:57:00,
2013-08-10 15:58:00,61.1,58.2,0.00,SSW,202,3.4,6.0,90,0.00,,---,0.00,VWS V14.01,2013-08-10 20:58:00,
2013-08-10 15:59:00,61.1,58.2,0.00,SSW,202,3.8,6.0,90,0.00,,---,0.00,VWS V14.01,2013-08-10 20:59:00,
2013-08-10 16:00:00,61.3,58.3,0.00,South,180,4.0,4.0,90,0.00,,---,0.00,VWS V14.01,2013-08-10 21:00:00,
2013-08-10 16:01:00,61.3,58.3,0.00,SSW,202,3.4,4.0,90,0.00,,---,0.00,VWS V14.01,2013-08-10 21:01:00,
2013-08-10 16:02:00,61.3,58.3,0.00,SSW,202,3.1,4.0,90,0.00,,---,0.00,VWS V14.01,2013-08-10 21:02:00,
2013-08-10 16:03:00,61.3,58.3,0.00,SW,225,3.4,4.0,90,0.00,,---,0.00,VWS V14.01,2013-08-10 21:03:00,
2013-08-10 16:04:00,61.3,58.3,0.00,SW,225,2.9,4.0,90,0.00,,---,0.00,VWS V14.01,2013-08-10 21:04:00,
2013-08-10 16:05:00,61.1,58.2,0.00,SW,225,2.9,4.0,90,0.00,,---,0.00,VWS V14.01,2013-08-10 21:05:00,
2013-08-10 16:06:00,61.1,58.2,0.00,SW,225,3.1,4.0,90,0.00,,---,0.00,VWS V14.01,2013-08-10 21:06:00,
2013-08-10 16:07:00,61.1,58.2,0.00,SW,225,3.4,4.0,90,0.00,,---,0.00,VWS V14.01,2013-08-10 21:07:00,
2013-08-10 16:08:00,82.2,51.0,0.00,SSE,158,18.6,23.0,34,0.00,,---,0.00,VWS V14.01,2013-08-10 21:08:00,
2013-08-10 16:09:00,61.1,58.2,0.00,SW,225,2.7,4.0,90,0.00,,---,0.00,VWS V14.01,2013-08-10 21:09:00,
2013-08-10 16:10:00,61.1,58.2,0.00,SW,225,2.9,4.0,90,0.00,,---,0.00,VWS V14.01,2013-08-10 21:10:00,
2013-08-10 16:11:00,61.1,58.2,0.00,SW,225,3.1,4.0,90,0.00,,---,0.00,VWS V14.01,2013-08-10 21:11:00,
2013-08-10 16:12:00,61.1,58.2,0.00,SW,225,1.3,4.0,90,0.00,,---,0.00,VWS V14.01,2013-08-10 21:12:00,
2013-08-10 16:13:00,61.1,58.2,0.00,SW,225,2.5,4.0,90,0.00,,---,0.00,VWS V14.01,2013-08-10 21:13:00,
2013-08-10 16:14:00,61.1,58.2,0.00,SW,225,2.7,4.0,90,0.00,,---,0.00,VWS V14.01,2013-08-10 21:14:00,
2013-08-10 16:16:00,61.1,58.2,0.00,SW,225,2.0,4.0,90,0.00,,---,0.00,VWS V14.01,2013-08-10 21:16:00,
2013-08-10 16:17:00,60.9,58.0,0.00,SW,225,1.1,4.0,90,0.00,,---,0.00,VWS V14.01,2013-08-10 21:17:00,
2013-08-10 16:18:00,60.9,58.0,0.00,SW,225,2.5,4.0,90,0.00,,---,0.00,VWS V14.01,2013-08-10 21:18:00,
2013-08-10 16:19:00,60.9,58.0,0.00,SW,225,3.6,4.0,90,0.00,,---,0.00,VWS V14.01,2013-08-10 21:19:00,
2013-08-10 16:20:00,61.1,58.2,0.00,SW,225,2.0,4.0,90,0.00,,---,0.00,VWS V14.01,2013-08-10 21:20:00,
2013-08-10 16:21:00,61.1,58.2,0.00,SW,225,1.6,4.0,90,0.00,,---,0.00,VWS V14.01,2013-08-10 21:21:00,
2013-08-10 16:22:00,61.1,58.2,0.00,South,180,2.9,4.0,90,0.00,,---,0.00,VWS V14.01,2013-08-10 21:22:00,
2013-08-10 16:23:00,61.1,58.2,0.00,South,180,2.9,4.0,90,0.00,,---,0.00,VWS V14.01,2013-08-10 21:23:00,
2013-08-10 16:24:00,60.9,58.0,0.00,South,180,2.0,4.0,90,0.00,,---,0.00,VWS V14.01,2013-08-10 21:24:00,
2013-08-10 16:25:00,60.9,58.3,0.00,South,180,2.5,4.0,91,0.00,,---,0.00,VWS V14.01,2013-08-10 21:25:00,
2013-08-10 16:26:00,60.9,58.3,0.00,South,180,1.3,4.0,91,0.00,,---,0.00,VWS V14.01,2013-08-10 21:26:00,
2013-08-10 16:27:00,60.9,58.3,0.00,SSW,202,1.3,4.0,91,0.00,,---,0.00,VWS V14.01,2013-08-10 21:27:00,
2013-08-10 16:28:00,60.9,58.3,0.00,SSW,202,1.6,4.0,91,0.00,,---,0.00,VWS V14.01,2013-08-10 21:28:00,
2013-08-10 16:29:00,60.8,58.1,0.00,South,180,2.0,4.0,91,0.00,,---,0.00,VWS V14.01,2013-08-10 21:29:00,
2013-08-10 16:30:00,60.8,58.1,0.00,South,180,2.0,4.0,91,0.00,,---,0.00,VWS V14.01,2013-08-10 21:30:00,
2013-08-10 16:31:00,60.8,58.1,0.00,SSE,158,2.2,2.2,91,0.00,,---,0.00,VWS V14.01,2013-08-10 21:31:00,
2013-08-10 16:32:00,60.8,58.1,0.00,SE,135,2.2,2.5,91,0.00,,---,0.00,VWS V14.01,2013-08-10 21:32:00,
2013-08-10 16:33:00,60.8,58.1,0.00,SE,135,2.2,2.5,91,0.00,,---,0.00,VWS V14.01,2013-08-10 21:33:00,
2013-08-10 16:34:00,60.8,58.1,0.00,SSE,158,2.0,2.5,91,0.00,,---,0.00,VWS V14.01,2013-08-10 21:34:00,
2013-08-10 16:35:00,60.6,57.6,0.00,SE,135,2.5,2.9,90,0.00,,---,0.00,VWS V14.01,2013-08-10 21:35:00,
2013-08-10 16:36:00,60.4,57.5,0.00,SSE,158,2.5,2.9,90,0.00,,---,0.00,VWS V14.01,2013-08-10 21:36:00,
2013-08-10 16:37:00,60.4,57.5,0.00,SE,135,1.3,2.9,90,0.00,,---,0.00,VWS V14.01,2013-08-10 21:37:00,
2013-08-10 16:38:00,60.4,57.5,0.00,SSE,158,1.6,2.9,90,0.00,,---,0.00,VWS V14.01,2013-08-10 21:38:00,
2013-08-10 16:39:00,60.4,57.5,0.00,South,180,1.3,2.9,90,0.00,,---,0.00,VWS V14.01,2013-08-10 21:39:00,
2013-08-10 16:40:00,60.4,57.5,0.00,South,180,0.0,2.9,90,0.00,,---,0.00,VWS V14.01,2013-08-10 21:40:00,
2013-08-10 16:42:00,60.4,57.8,0.00,South,180,1.3,2.9,91,0.00,,---,0.00,VWS V14.01,2013-08-10 21:42:00,
2013-08-10 16:43:00,60.4,57.5,0.00,SSE,158,1.3,2.9,90,0.00,,---,0.00,VWS V14.01,2013-08-10 21:43:00,
2013-08-10 16:44:00,60.4,57.5,0.00,SSE,158,0.0,2.9,90,0.00,,---,0.00,VWS V14.01,2013-08-10 21:44:00,
2013-08-10 16:45:00,60.4,57.8,0.00,SSE,158,0.0,2.9,91,0.00,,---,0.00,VWS V14.01,2013-08-10 21:45:00,
2013-08-10 16:46:00,60.2,57.3,0.00,SW,225,1.3,1.3,90,0.00,,---,0.00,VWS V14.01,2013-08-10 21:46:00,
2013-08-10 16:47:00,60.2,57.3,0.00,SW,225,0.0,1.3,90,0.00,,---,0.00,VWS V14.01,2013-08-10 21:47:00,
2013-08-10 16:48:00,60.2,57.3,0.00,SW,225,0.9,2.0,90,0.00,,---,0.00,VWS V14.01,2013-08-10 21:48:00,
2013-08-10 16:49:00,60.2,57.3,0.00,SW,225,0.9,2.0,90,0.00,,---,0.00,VWS V14.01,2013-08-10 21:49:00,
2013-08-10 16:50:00,60.2,57.3,0.00,NW,315,0.0,2.0,90,0.00,,---,0.00,VWS V14.01,2013-08-10 21:50:00,
2013-08-10 16:51:00,60.2,57.3,0.00,NW,315,1.6,2.0,90,0.00,,---,0.00,VWS V14.01,2013-08-10 21:51:00,
2013-08-10 16:52:00,60.4,57.5,0.00,NW,315,0.0,2.0,90,0.00,,---,0.00,VWS V14.01,2013-08-10 21:52:00,
2013-08-10 16:53:00,60.2,57.3,0.00,NW,315,2.2,2.2,90,0.00,,---,0.00,VWS V14.01,2013-08-10 21:53:00,
2013-08-10 16:54:00,60.2,57.3,0.00,NW,315,3.6,3.6,90,0.00,,---,0.00,VWS V14.01,2013-08-10 21:54:00,
2013-08-10 16:55:00,60.2,57.6,0.00,NNW,338,4.0,4.0,91,0.00,,---,0.00,VWS V14.01,2013-08-10 21:55:00,
2013-08-10 16:56:00,60.2,57.6,0.00,NNW,338,3.4,4.0,91,0.00,,---,0.00,VWS V14.01,2013-08-10 21:56:00,
2013-08-10 16:57:00,60.0,57.4,0.00,North,0,3.4,4.0,91,0.00,,---,0.00,VWS V14.01,2013-08-10 21:57:00,
2013-08-10 16:58:00,59.9,57.2,0.00,NNW,338,2.0,4.0,91,0.00,,---,0.00,VWS V14.01,2013-08-10 21:58:00,
2013-08-10 16:59:00,59.9,57.2,0.00,North,0,2.2,4.0,91,0.00,,---,0.00,VWS V14.01,2013-08-10 21:59:00,
2013-08-10 17:00:00,59.9,57.2,0.00,NNW,338,1.6,4.0,91,0.00,,---,0.00,VWS V14.01,2013-08-10 22:00:00,
2013-08-10 17:01:00,59.9,57.2,0.00,NW,315,2.2,2.9,91,0.00,,---,0.00,VWS V14.01,2013-08-10 22:01:00,
2013-08-10 17:02:00,59.9,57.2,0.00,NW,315,0.9,2.9,91,0.00,,---,0.00,VWS V14.01,2013-08-10 22:02:00,
2013-08-10 17:03:00,59.7,57.0,0.00,North,0,2.9,2.9,91,0.00,,---,0.00,VWS V14.01,2013-08-10 22:03:00,
2013-08-10 17:04:00,59.5,56.9,0.00,North,0,1.1,2.9,91,0.00,,---,0.00,VWS V14.01,2013-08-10 22:04:00,
2013-08-10 17:05:00,59.5,56.9,0.00,North,0,1.1,2.9,91,0.00,,---,0.00,VWS V14.01,2013-08-10 22:05:00,
2013-08-10 17:06:00,59.5,56.9,0.00,North,0,0.0,2.9,91,0.00,,---,0.00,VWS V14.01,2013-08-10 22:06:00,
2013-08-10 17:07:00,59.3,56.7,0.00,North,0,0.0,2.9,91,0.00,,---,0.00,VWS V14.01,2013-08-10 22:07:00,
2013-08-10 17:08:00,59.1,56.5,0.00,North,0,0.9,2.9,91,0.00,,---,0.00,VWS V14.01,2013-08-10 22:08:00,
2013-08-10 17:09:00,59.1,56.5,0.00,North,0,0.0,2.9,91,0.00,,---,0.00,VWS V14.01,2013-08-10 22:09:00,
2013-08-10 17:11:00,59.0,56.3,0.00,North,0,0.0,2.9,91,0.00,,---,0.00,VWS V14.01,2013-08-10 22:11:00,
2013-08-10 17:13:00,59.0,56.3,0.00,North,0,0.0,2.9,91,0.00,,---,0.00,VWS V14.01,2013-08-10 22:13:00,
2013-08-10 17:14:00,59.0,56.3,0.00,North,0,0.0,2.9,91,0.00,,---,0.00,VWS V14.01,2013-08-10 22:14:00,
2013-08-10 17:15:00,59.0,56.3,0.00,North,0,0.0,2.9,91,0.00,,---,0.00,VWS V14.01,2013-08-10 22:15:00,
2013-08-10 17:16:00,59.0,56.3,0.00,North,0,0.0,0.0,91,0.00,,---,0.00,VWS V14.01,2013-08-10 22:16:00,
2013-08-10 17:17:00,59.0,56.3,0.00,North,0,0.0,0.0,91,0.00,,---,0.00,VWS V14.01,2013-08-10 22:17:00,
2013-08-10 17:18:00,59.0,56.3,0.00,North,0,0.0,0.0,91,0.00,,---,0.00,VWS V14.01,2013-08-10 22:18:00,
2013-08-10 17:19:00,59.0,56.3,0.00,North,0,0.0,0.0,91,0.00,,---,0.00,VWS V14.01,2013-08-10 22:19:00,
2013-08-10 17:20:00,58.8,56.2,0.00,North,0,0.0,0.0,91,0.00,,---,0.00,VWS V14.01,2013-08-10 22:20:00,
2013-08-10 17:21:00,58.8,56.2,0.00,North,0,0.0,0.0,91,0.00,,---,0.00,VWS V14.01,2013-08-10 22:21:00,
2013-08-10 17:23:00,58.8,56.2,0.00,North,0,0.0,0.0,91,0.00,,---,0.00,VWS V14.01,2013-08-10 22:23:00,
2013-08-10 17:24:00,58.8,56.2,0.00,North,0,0.0,0.0,91,0.00,,---,0.00,VWS V14.01,2013-08-10 22:24:00,
2013-08-10 17:25:00,58.6,56.0,0.00,North,0,0.0,0.0,91,0.00,,---,0.00,VWS V14.01,2013-08-10 22:25:00,
2013-08-10 17:26:00,58.6,56.0,0.00,North,0,0.0,0.0,91,0.00,,---,0.00,VWS V14.01,2013-08-10 22:26:00,
2013-08-10 17:27:00,58.6,56.0,0.00,North,0,0.0,0.0,91,0.00,,---,0.00,VWS V14.01,2013-08-10 22:27:00,
2013-08-10 17:28:00,58.6,56.3,0.00,North,0,0.0,0.0,92,0.00,,---,0.00,VWS V14.01,2013-08-10 22:28:00,
2013-08-10 17:29:00,58.6,56.3,0.00,North,0,0.0,0.0,92,0.00,,---,0.00,VWS V14.01,2013-08-10 22:29:00,
2013-08-10 17:30:00,58.6,56.3,0.00,North,0,0.0,0.0,92,0.00,,---,0.00,VWS V14.01,2013-08-10 22:30:00,
2013-08-10 17:31:00,58.6,56.3,0.00,North,0,0.0,0.0,92,0.00,,---,0.00,VWS V14.01,2013-08-10 22:31:00,
2013-08-10 17:32:00,58.4,56.1,0.00,North,0,0.0,0.0,92,0.00,,---,0.00,VWS V14.01,2013-08-10 22:32:00,
2013-08-10 17:34:00,58.4,56.1,0.00,North,0,0.0,0.0,92,0.00,,---,0.00,VWS V14.01,2013-08-10 22:34:00,
2013-08-10 17:35:00,58.2,55.6,0.00,North,0,0.0,0.0,91,0.00,,---,0.00,VWS V14.01,2013-08-10 22:35:00,
2013-08-10 17:36:00,58.2,55.6,0.00,North,0,0.0,0.0,91,0.00,,---,0.00,VWS V14.01,2013-08-10 22:36:00,
2013-08-10 17:38:00,58.2,55.9,0.00,North,0,0.0,0.0,92,0.00,,---,0.00,VWS V14.01,2013-08-10 22:38:00,
2013-08-10 17:39:00,58.2,55.9,0.00,North,0,0.0,0.0,92,0.00,,---,0.00,VWS V14.01,2013-08-10 22:39:00,
2013-08-10 17:40:00,58.2,56.2,0.00,North,0,0.0,0.0,93,0.00,,---,0.00,VWS V14.01,2013-08-10 22:40:00,
2013-08-10 17:41:00,58.2,56.2,0.00,North,0,0.0,0.0,93,0.00,,---,0.00,VWS V14.01,2013-08-10 22:41:00,
2013-08-10 17:42:00,57.9,55.6,0.00,North,0,0.0,0.0,92,0.00,,---,0.00,VWS V14.01,2013-08-10 22:42:00,
2013-08-10 17:43:00,57.9,55.6,0.00,North,0,0.0,0.0,92,0.00,,---,0.00,VWS V14.01,2013-08-10 22:43:00,
2013-08-10 17:44:00,57.9,55.6,0.00,North,0,0.0,0.0,92,0.00,,---,0.00,VWS V14.01,2013-08-10 22:44:00,
2013-08-10 17:46:00,57.9,55.6,0.00,North,0,1.1,1.1,92,0.00,,---,0.00,VWS V14.01,2013-08-10 22:46:00,
2013-08-10 17:47:00,57.7,55.4,0.00,North,0,0.0,1.1,92,0.00,,---,0.00,VWS V14.01,2013-08-10 22:47:00,
2013-08-10 17:48:00,57.7,55.4,0.00,North,0,0.0,1.1,92,0.00,,---,0.00,VWS V14.01,2013-08-10 22:48:00,
2013-08-10 17:49:00,57.7,55.4,0.00,North,0,0.0,1.1,92,0.00,,---,0.00,VWS V14.01,2013-08-10 22:49:00,
2013-08-10 17:50:00,57.7,55.4,0.00,North,0,0.0,1.1,92,0.00,,---,0.00,VWS V14.01,2013-08-10 22:50:00,
2013-08-10 17:51:00,57.7,55.4,0.00,North,0,0.0,1.1,92,0.00,,---,0.00,VWS V14.01,2013-08-10 22:51:00,
2013-08-10 17:52:00,57.7,55.4,0.00,North,0,0.9,1.1,92,0.00,,---,0.00,VWS V14.01,2013-08-10 22:52:00,
2013-08-10 17:54:00,57.7,55.4,0.00,North,0,0.0,1.1,92,0.00,,---,0.00,VWS V14.01,2013-08-10 22:54:00,
2013-08-10 17:55:00,57.7,55.4,0.00,SE,135,1.1,2.2,92,0.00,,---,0.00,VWS V14.01,2013-08-10 22:55:00,
2013-08-10 17:56:00,57.7,55.4,0.00,SE,135,2.9,2.9,92,0.00,,---,0.00,VWS V14.01,2013-08-10 22:56:00,
2013-08-10 17:57:00,57.9,55.6,0.00,SE,135,2.5,3.4,92,0.00,,---,0.00,VWS V14.01,2013-08-10 22:57:00,
2013-08-10 17:58:00,57.9,55.6,0.00,SE,135,2.5,3.4,92,0.00,,---,0.00,VWS V14.01,2013-08-10 22:58:00,
2013-08-10 17:59:00,57.9,55.6,0.00,SE,135,2.5,3.4,92,0.00,,---,0.00,VWS V14.01,2013-08-10 22:59:00,
2013-08-10 18:00:00,57.9,55.6,0.00,SE,135,1.3,1.6,92,0.00,,---,0.00,VWS V14.01,2013-08-10 23:00:00,
2013-08-10 18:01:00,57.9,55.6,0.00,SE,135,1.3,1.6,92,0.00,,---,0.00,VWS V14.01,2013-08-10 23:01:00,
2013-08-10 18:02:00,57.9,55.6,0.00,ESE,112,2.0,2.5,92,0.00,,---,0.00,VWS V14.01,2013-08-10 23:02:00,
2013-08-10 18:03:00,57.9,55.6,0.00,SE,135,1.6,2.5,92,0.00,,---,0.00,VWS V14.01,2013-08-10 23:03:00,
2013-08-10 18:05:00,57.9,55.6,0.00,SE,135,0.9,2.5,92,0.00,,---,0.00,VWS V14.01,2013-08-10 23:05:00,
2013-08-10 18:06:00,57.9,55.6,0.00,SE,135,1.6,2.5,92,0.00,,---,0.00,VWS V14.01,2013-08-10 23:06:00,
2013-08-10 18:07:00,57.9,55.6,0.00,SE,135,2.0,2.5,92,0.00,,---,0.00,VWS V14.01,2013-08-10 23:07:00,
2013-08-10 18:08:00,57.9,55.6,0.00,SE,135,2.5,2.5,92,0.00,,---,0.00,VWS V14.01,2013-08-10 23:08:00,
2013-08-10 18:09:00,57.9,55.6,0.00,South,180,3.4,3.4,92,0.00,,---,0.00,VWS V14.01,2013-08-10 23:09:00,
2013-08-10 18:10:00,57.9,55.6,0.00,South,180,4.0,4.0,92,0.00,,---,0.00,VWS V14.01,2013-08-10 23:10:00,
2013-08-10 18:11:00,57.9,55.6,0.00,SSE,158,3.8,4.0,92,0.00,,---,0.00,VWS V14.01,2013-08-10 23:11:00,
2013-08-10 18:12:00,57.9,55.6,0.00,South,180,4.0,4.7,92,0.00,,---,0.00,VWS V14.01,2013-08-10 23:12:00,
2013-08-10 18:13:00,57.5,55.2,0.00,South,180,3.6,4.7,92,0.00,,---,0.00,VWS V14.01,2013-08-10 23:13:00,
2013-08-10 18:15:00,57.5,55.2,0.00,SSE,158,3.1,4.7,92,0.00,,---,0.00,VWS V14.01,2013-08-10 23:15:00,
2013-08-10 18:16:00,57.3,55.0,0.00,SE,135,3.6,3.6,92,0.00,,---,0.00,VWS V14.01,2013-08-10 23:16:00,
2013-08-10 18:17:00,57.3,55.0,0.00,SE,135,3.6,3.6,92,0.00,,---,0.00,VWS V14.01,2013-08-10 23:17:00,
2013-08-10 18:18:00,57.3,55.0,0.00,SE,135,3.8,4.0,92,0.00,,---,0.00,VWS V14.01,2013-08-10 23:18:00,
2013-08-10 18:19:00,57.3,55.0,0.00,SE,135,3.8,4.0,92,0.00,,---,0.00,VWS V14.01,2013-08-10 23:19:00,
2013-08-10 18:20:00,57.3,55.0,0.00,SE,135,3.4,4.0,92,0.00,,---,0.00,VWS V14.01,2013-08-10 23:20:00,
2013-08-10 18:21:00,57.3,55.0,0.00,SE,135,3.6,4.0,92,0.00,,---,0.00,VWS V14.01,2013-08-10 23:21:00,
2013-08-10 18:22:00,57.3,55.0,0.00,SE,135,3.8,4.0,92,0.00,,---,0.00,VWS V14.01,2013-08-10 23:22:00,
2013-08-10 18:23:00,57.5,55.2,0.00,SE,135,3.4,4.0,92,0.00,,---,0.00,VWS V14.01,2013-08-10 23:23:00,
2013-08-10 18:24:00,57.5,55.2,0.00,SE,135,4.0,4.0,92,0.00,,---,0.00,VWS V14.01,2013-08-10 23:24:00,
2013-08-10 18:25:00,57.7,55.4,0.00,SE,135,4.0,4.0,92,0.00,,---,0.00,VWS V14.01,2013-08-10 23:25:00,
2013-08-10 18:26:00,57.7,55.4,0.00,SE,135,4.3,4.3,92,0.00,,---,0.00,VWS V14.01,2013-08-10 23:26:00,
2013-08-10 18:27:00,57.7,55.4,0.00,SE,135,4.3,4.3,92,0.00,,---,0.00,VWS V14.01,2013-08-10 23:27:00,
2013-08-10 18:28:00,57.7,55.4,0.00,SE,135,3.4,4.3,92,0.00,,---,0.00,VWS V14.01,2013-08-10 23:28:00,
2013-08-10 18:29:00,57.7,55.4,0.00,SE,135,3.8,4.7,92,0.00,,---,0.00,VWS V14.01,2013-08-10 23:29:00,
2013-08-10 18:30:00,57.7,55.4,0.00,SE,135,4.3,4.7,92,0.00,,---,0.00,VWS V14.01,2013-08-10 23:30:00,
2013-08-10 18:31:00,57.7,55.4,0.00,SE,135,5.4,5.4,92,0.00,,---,0.00,VWS V14.01,2013-08-10 23:31:00,
2013-08-10 18:32:00,57.7,55.4,0.00,SSE,158,5.8,5.8,92,0.00,,---,0.00,VWS V14.01,2013-08-10 23:32:00,
2013-08-10 18:33:00,57.7,55.4,0.00,South,180,4.9,5.8,92,0.00,,---,0.00,VWS V14.01,2013-08-10 23:33:00,
2013-08-10 18:34:00,57.7,55.4,0.00,South,180,5.6,6.0,92,0.00,,---,0.00,VWS V14.01,2013-08-10 23:34:00,
2013-08-10 18:35:00,57.7,55.4,0.00,SSE,158,5.8,6.0,92,0.00,,---,0.00,VWS V14.01,2013-08-10 23:35:00,
2013-08-10 18:36:00,57.7,55.4,0.00,South,180,4.3,6.0,92,0.00,,---,0.00,VWS V14.01,2013-08-10 23:36:00,
2013-08-10 18:38:00,57.7,55.4,0.00,South,180,6.0,6.5,92,0.00,,---,0.00,VWS V14.01,2013-08-10 23:38:00,
2013-08-10 18:39:00,57.7,55.4,0.00,South,180,6.0,6.5,92,0.00,,---,0.00,VWS V14.01,2013-08-10 23:39:00,
2013-08-10 18:40:00,57.7,55.4,0.00,SSE,158,7.6,7.6,92,0.00,,---,0.00,VWS V14.01,2013-08-10 23:40:00,
2013-08-10 18:41:00,57.7,55.4,0.00,SE,135,6.3,7.6,92,0.00,,---,0.00,VWS V14.01,2013-08-10 23:41:00,
2013-08-10 18:42:00,57.5,55.2,0.00,SE,135,6.5,7.6,92,0.00,,---,0.00,VWS V14.01,2013-08-10 23:42:00,
2013-08-10 18:43:00,57.5,55.2,0.00,South,180,5.6,7.6,92,0.00,,---,0.00,VWS V14.01,2013-08-10 23:43:00,
2013-08-10 18:44:00,57.5,55.2,0.00,SSE,158,5.8,7.6,92,0.00,,---,0.00,VWS V14.01,2013-08-10 23:44:00,
2013-08-10 18:45:00,57.3,55.0,0.00,SE,135,5.4,5.6,92,0.00,,---,0.00,VWS V14.01,2013-08-10 23:45:00,
2013-08-10 18:46:00,57.3,55.0,0.00,SE,135,5.4,5.6,92,0.00,,---,0.00,VWS V14.01,2013-08-10 23:46:00,
2013-08-10 18:47:00,57.3,55.0,0.00,SE,135,3.8,5.6,92,0.00,,---,0.00,VWS V14.01,2013-08-10 23:47:00,
2013-08-10 18:48:00,57.3,55.0,0.00,SE,135,4.9,5.6,92,0.00,,---,0.00,VWS V14.01,2013-08-10 23:48:00,
2013-08-10 18:49:00,57.3,55.0,0.00,SE,135,4.3,5.6,92,0.00,,---,0.00,VWS V14.01,2013-08-10 23:49:00,
2013-08-10 18:50:00,57.3,55.0,0.00,SE,135,4.0,5.6,92,0.00,,---,0.00,VWS V14.01,2013-08-10 23:50:00,
2013-08-10 18:51:00,57.3,55.0,0.00,SE,135,4.0,5.6,92,0.00,,---,0.00,VWS V14.01,2013-08-10 23:51:00,
2013-08-10 18:52:00,57.3,55.0,0.00,SE,135,3.1,5.6,92,0.00,,---,0.00,VWS V14.01,2013-08-10 23:52:00,
2013-08-10 18:54:00,57.3,55.0,0.00,SE,135,4.3,5.6,92,0.00,,---,0.00,VWS V14.01,2013-08-10 23:54:00,
2013-08-10 18:55:00,57.3,54.7,0.00,SSE,158,4.9,5.6,91,0.00,,---,0.00,VWS V14.01,2013-08-10 23:55:00,
2013-08-10 18:56:00,57.3,54.7,0.00,SSE,158,4.9,5.6,91,0.00,,---,0.00,VWS V14.01,2013-08-10 23:56:00,
2013-08-10 18:57:00,57.3,54.7,0.00,SSE,158,5.8,5.8,91,0.00,,---,0.00,VWS V14.01,2013-08-10 23:57:00,
2013-08-10 18:58:00,57.3,54.7,0.00,SSE,158,5.8,5.8,91,0.00,,---,0.00,VWS V14.01,2013-08-10 23:58:00,
2013-08-10 18:59:00,57.3,54.7,0.00,SSE,158,6.3,6.5,91,0.00,,---,0.00,VWS V14.01,2013-08-10 23:59:00,
2013-08-10 19:00:00,57.3,54.7,0.00,SSE,158,7.2,7.8,91,0.00,,---,0.00,VWS V14.01,2013-08-11 00:00:00,
2013-08-10 19:01:00,57.3,54.7,0.00,South,180,7.8,7.8,91,0.00,,---,0.00,VWS V14.01,2013-08-11 00:01:00,
2013-08-10 19:02:00,57.3,54.7,0.00,SE,135,6.5,7.8,91,0.00,,---,0.00,VWS V14.01,2013-08-11 00:02:00,
2013-08-10 19:03:00,57.3,54.7,0.00,South,180,5.6,7.8,91,0.00,,---,0.00,VWS V14.01,2013-08-11 00:03:00,
2013-08-10 19:04:00,57.3,54.7,0.00,South,180,6.3,7.8,91,0.00,,---,0.00,VWS V14.01,2013-08-11 00:04:00,
2013-08-10 19:05:00,57.3,54.7,0.00,South,180,6.0,7.8,91,0.00,,---,0.00,VWS V14.01,2013-08-11 00:05:00,
2013-08-10 19:06:00,57.2,54.6,0.00,South,180,5.4,7.8,91,0.00,,---,0.00,VWS V14.01,2013-08-11 00:06:00,
2013-08-10 19:07:00,57.2,54.6,0.00,SSE,158,5.4,7.8,91,0.00,,---,0.00,VWS V14.01,2013-08-11 00:07:00,
2013-08-10 19:09:00,57.2,54.6,0.00,SSE,158,4.3,7.8,91,0.00,,---,0.00,VWS V14.01,2013-08-11 00:09:00,
2013-08-10 19:10:00,57.3,54.7,0.00,SE,135,4.3,7.8,91,0.00,,---,0.00,VWS V14.01,2013-08-11 00:10:00,
2013-08-10 19:11:00,57.3,54.7,0.00,SSE,158,5.8,7.8,91,0.00,,---,0.00,VWS V14.01,2013-08-11 00:11:00,
2013-08-10 19:13:00,57.3,54.7,0.00,South,180,4.7,7.8,91,0.00,,---,0.00,VWS V14.01,2013-08-11 00:13:00,
2013-08-10 19:14:00,57.3,54.7,0.00,SSE,158,4.3,7.8,91,0.00,,---,0.00,VWS V14.01,2013-08-11 00:14:00,
2013-08-10 19:15:00,57.3,54.7,0.00,SSE,158,4.3,7.8,91,0.00,,---,0.00,VWS V14.01,2013-08-11 00:15:00,
2013-08-10 19:16:00,57.3,54.7,0.00,SE,135,4.9,4.9,91,0.00,,---,0.00,VWS V14.01,2013-08-11 00:16:00,
2013-08-10 19:17:00,57.3,54.7,0.00,SE,135,4.5,4.9,91,0.00,,---,0.00,VWS V14.01,2013-08-11 00:17:00,
2013-08-10 19:18:00,57.3,54.7,0.00,South,180,4.9,4.9,91,0.00,,---,0.00,VWS V14.01,2013-08-11 00:18:00,
2013-08-10 19:19:00,57.3,54.7,0.00,South,180,4.9,4.9,91,0.00,,---,0.00,VWS V14.01,2013-08-11 00:19:00,
2013-08-10 19:20:00,57.3,54.7,0.00,SSE,158,5.6,5.6,91,0.00,,---,0.00,VWS V14.01,2013-08-11 00:20:00,
2013-08-10 19:21:00,57.5,54.9,0.00,SSE,158,4.0,5.6,91,0.00,,---,0.00,VWS V14.01,2013-08-11 00:21:00,
2013-08-10 19:22:00,57.7,55.1,0.00,SSE,158,5.6,5.6,91,0.00,,---,0.00,VWS V14.01,2013-08-11 00:22:00,
2013-08-10 19:23:00,57.7,55.1,0.00,South,180,4.3,5.6,91,0.00,,---,0.00,VWS V14.01,2013-08-11 00:23:00,
2013-08-10 19:24:00,57.7,55.1,0.00,South,180,4.9,5.6,91,0.00,,---,0.00,VWS V14.01,2013-08-11 00:24:00,
2013-08-10 19:25:00,57.7,55.1,0.00,South,180,4.7,5.6,91,0.00,,---,0.00,VWS V14.01,2013-08-11 00:25:00,
2013-08-10 19:26:00,57.9,55.3,0.00,South,180,4.9,5.6,91,0.00,,---,0.00,VWS V14.01,2013-08-11 00:26:00,
2013-08-10 19:27:00,57.9,55.3,0.00,South,180,5.4,5.6,91,0.00,,---,0.00,VWS V14.01,2013-08-11 00:27:00,
2013-08-10 19:28:00,57.9,55.3,0.00,South,180,5.6,5.6,91,0.00,,---,0.00,VWS V14.01,2013-08-11 00:28:00,
2013-08-10 19:29:00,58.2,55.3,0.00,South,180,6.0,6.5,90,0.00,,---,0.00,VWS V14.01,2013-08-11 00:29:00,
2013-08-10 19:30:00,58.4,55.5,0.00,South,180,6.3,7.4,90,0.00,,---,0.00,VWS V14.01,2013-08-11 00:30:00,
2013-08-10 19:31:00,58.4,55.5,0.00,South,180,6.0,6.5,90,0.00,,---,0.00,VWS V14.01,2013-08-11 00:31:00,
2013-08-10 19:32:00,58.6,55.7,0.00,South,180,5.8,6.5,90,0.00,,---,0.00,VWS V14.01,2013-08-11 00:32:00,
2013-08-10 19:33:00,58.6,55.7,0.00,South,180,6.3,6.5,90,0.00,,---,0.00,VWS V14.01,2013-08-11 00:33:00,
2013-08-10 19:34:00,58.6,55.7,0.00,South,180,6.3,6.5,90,0.00,,---,0.00,VWS V14.01,2013-08-11 00:34:00,
2013-08-10 19:35:00,58.8,55.9,0.00,SSW,202,5.4,6.5,90,0.00,,---,0.00,VWS V14.01,2013-08-11 00:35:00,
2013-08-10 19:36:00,59.0,56.3,0.00,South,180,5.8,6.5,91,0.00,,---,0.00,VWS V14.01,2013-08-11 00:36:00,
2013-08-10 19:37:00,59.0,56.3,0.00,South,180,5.4,6.5,91,0.00,,---,0.00,VWS V14.01,2013-08-11 00:37:00,
2013-08-10 19:38:00,59.1,56.5,0.00,SSW,202,3.8,6.5,91,0.00,,---,0.00,VWS V14.01,2013-08-11 00:38:00,
2013-08-10 19:39:00,59.1,56.5,0.00,SSW,202,5.4,6.5,91,0.00,,---,0.00,VWS V14.01,2013-08-11 00:39:00,
2013-08-10 19:40:00,59.1,56.5,0.00,SSW,202,4.0,6.5,91,0.00,,---,0.00,VWS V14.01,2013-08-11 00:40:00,
2013-08-10 19:42:00,59.3,56.7,0.00,South,180,6.0,6.5,91,0.00,,---,0.00,VWS V14.01,2013-08-11 00:42:00,
2013-08-10 19:43:00,59.5,56.9,0.00,SSW,202,5.8,6.5,91,0.00,,---,0.00,VWS V14.01,2013-08-11 00:43:00,
2013-08-10 19:44:00,59.5,57.2,0.00,South,180,6.0,7.6,92,0.00,,---,0.00,VWS V14.01,2013-08-11 00:44:00,
2013-08-10 19:45:00,59.9,57.5,0.00,SSW,202,4.3,7.6,92,0.00,,---,0.00,VWS V14.01,2013-08-11 00:45:00,
2013-08-10 19:46:00,59.9,57.5,0.00,SW,225,6.0,6.0,92,0.00,,---,0.00,VWS V14.01,2013-08-11 00:46:00,
2013-08-10 19:47:00,60.0,57.7,0.00,South,180,6.5,6.5,92,0.00,,---,0.00,VWS V14.01,2013-08-11 00:47:00,
2013-08-10 19:48:00,60.2,57.9,0.00,SW,225,4.0,7.2,92,0.00,,---,0.00,VWS V14.01,2013-08-11 00:48:00,
2013-08-10 19:49:00,60.4,58.1,0.00,SSW,202,4.9,7.2,92,0.00,,---,0.00,VWS V14.01,2013-08-11 00:49:00,
2013-08-10 19:50:00,60.9,58.6,0.00,South,180,4.9,7.2,92,0.00,,---,0.00,VWS V14.01,2013-08-11 00:50:00,
2013-08-10 19:52:00,61.7,59.3,0.00,SW,225,6.3,7.2,92,0.00,,---,0.00,VWS V14.01,2013-08-11 00:52:00,
2013-08-10 19:53:00,61.7,59.3,0.00,SW,225,6.3,7.2,92,0.00,,---,0.00,VWS V14.01,2013-08-11 00:53:00,
2013-08-10 19:54:00,61.8,59.5,0.00,SW,225,4.0,7.2,92,0.00,,---,0.00,VWS V14.01,2013-08-11 00:54:00,
2013-08-10 19:56:00,62.2,59.5,0.00,SW,225,4.9,7.2,91,0.00,,---,0.00,VWS V14.01,2013-08-11 00:56:00,
2013-08-10 19:57:00,62.6,59.9,0.00,SW,225,5.6,7.2,91,0.00,,---,0.00,VWS V14.01,2013-08-11 00:57:00,
2013-08-10 19:58:00,62.9,60.0,0.00,South,180,3.1,7.2,90,0.00,,---,0.00,VWS V14.01,2013-08-11 00:58:00,
2013-08-10 19:59:00,63.3,60.0,0.00,SSW,202,2.7,7.2,89,0.00,,---,0.00,VWS V14.01,2013-08-11 00:59:00,
2013-08-10 20:00:00,63.3,60.0,0.00,SSE,158,3.8,7.2,89,0.00,,---,0.00,VWS V14.01,2013-08-11 01:00:00,
2013-08-10 20:01:00,63.6,60.0,0.00,South,180,3.4,5.4,88,0.00,,---,0.00,VWS V14.01,2013-08-11 01:01:00,
2013-08-10 20:02:00,63.6,60.0,0.00,SSW,202,5.4,5.4,88,0.00,,---,0.00,VWS V14.01,2013-08-11 01:02:00,
2013-08-10 20:03:00,63.6,60.0,0.00,South,180,6.0,6.0,88,0.00,,---,0.00,VWS V14.01,2013-08-11 01:03:00,
2013-08-10 20:04:00,64.2,59.6,0.00,SW,225,5.6,6.5,85,0.00,,---,0.00,VWS V14.01,2013-08-11 01:04:00,
2013-08-10 20:05:00,64.4,59.8,0.00,South,180,5.4,6.5,85,0.00,,---,0.00,VWS V14.01,2013-08-11 01:05:00,
2013-08-10 20:06:00,64.5,59.9,0.00,SW,225,4.3,6.5,85,0.00,,---,0.00,VWS V14.01,2013-08-11 01:06:00,
2013-08-10 20:07:00,64.7,59.4,0.00,SW,225,7.2,7.4,83,0.00,,---,0.00,VWS V14.01,2013-08-11 01:07:00,
2013-08-10 20:08:00,64.7,59.1,0.00,SSW,202,5.4,9.0,82,0.00,,---,0.00,VWS V14.01,2013-08-11 01:08:00,
2013-08-10 20:09:00,64.9,59.3,0.00,SW,225,5.4,9.0,82,0.00,,---,0.00,VWS V14.01,2013-08-11 01:09:00,
2013-08-10 20:10:00,65.1,59.5,0.00,SSW,202,6.0,9.0,82,0.00,,---,0.00,VWS V14.01,2013-08-11 01:10:00,
2013-08-10 20:11:00,65.1,59.5,0.00,South,180,6.5,9.0,82,0.00,,---,0.00,VWS V14.01,2013-08-11 01:11:00,
2013-08-10 20:13:00,65.1,59.5,0.00,South,180,4.7,9.0,82,0.00,,---,0.00,VWS V14.01,2013-08-11 01:13:00,
2013-08-10 20:15:00,65.4,59.5,0.00,South,180,5.6,9.0,81,0.00,,---,0.00,VWS V14.01,2013-08-11 01:15:00,
2013-08-10 20:16:00,65.8,59.8,0.00,SW,225,3.8,5.6,81,0.00,,---,0.00,VWS V14.01,2013-08-11 01:16:00,
2013-08-10 20:17:00,66.0,59.6,0.00,South,180,4.0,5.8,80,0.00,,---,0.00,VWS V14.01,2013-08-11 01:17:00,
2013-08-10 20:18:00,66.2,59.8,0.00,SSW,202,4.3,5.8,80,0.00,,---,0.00,VWS V14.01,2013-08-11 01:18:00,
2013-08-10 20:20:00,66.5,59.5,0.00,SW,225,8.5,8.5,78,0.00,,---,0.00,VWS V14.01,2013-08-11 01:20:00,
2013-08-10 20:21:00,66.5,59.5,0.00,SSE,158,8.1,8.5,78,0.00,,---,0.00,VWS V14.01,2013-08-11 01:21:00,
2013-08-10 20:22:00,66.5,59.8,0.00,South,180,5.4,11.9,79,0.00,,---,0.00,VWS V14.01,2013-08-11 01:22:00,
2013-08-10 20:23:00,66.7,60.0,0.00,South,180,5.6,11.9,79,0.00,,---,0.00,VWS V14.01,2013-08-11 01:23:00,
2013-08-10 20:24:00,66.7,60.0,0.00,South,180,5.4,11.9,79,0.00,,---,0.00,VWS V14.01,2013-08-11 01:24:00,
2013-08-10 20:25:00,66.7,59.3,0.00,South,180,8.1,11.9,77,0.00,,---,0.00,VWS V14.01,2013-08-11 01:25:00,
2013-08-10 20:26:00,66.7,59.3,0.00,South,180,11.0,11.9,77,0.00,,---,0.00,VWS V14.01,2013-08-11 01:26:00,
2013-08-10 20:27:00,66.7,59.3,0.00,South,180,9.0,11.9,77,0.00,,---,0.00,VWS V14.01,2013-08-11 01:27:00,
2013-08-10 20:28:00,66.7,59.3,0.00,South,180,8.5,11.9,77,0.00,,---,0.00,VWS V14.01,2013-08-11 01:28:00,
2013-08-10 20:29:00,66.9,59.4,0.00,South,180,8.5,11.9,77,0.00,,---,0.00,VWS V14.01,2013-08-11 01:29:00,
2013-08-10 20:30:00,66.7,58.9,0.00,SSW,202,8.5,8.5,76,0.00,,---,0.00,VWS V14.01,2013-08-11 01:30:00,
2013-08-10 20:31:00,66.7,58.9,0.00,SW,225,7.8,10.5,76,0.00,,---,0.00,VWS V14.01,2013-08-11 01:31:00,
2013-08-10 20:32:00,66.7,58.9,0.00,SSW,202,7.4,10.5,76,0.00,,---,0.00,VWS V14.01,2013-08-11 01:32:00,
2013-08-10 20:33:00,66.7,58.9,0.00,SSW,202,7.8,10.5,76,0.00,,---,0.00,VWS V14.01,2013-08-11 01:33:00,
2013-08-10 20:34:00,66.7,58.9,0.00,South,180,7.8,10.5,76,0.00,,---,0.00,VWS V14.01,2013-08-11 01:34:00,
2013-08-10 20:35:00,66.7,58.9,0.00,South,180,8.7,11.0,76,0.00,,---,0.00,VWS V14.01,2013-08-11 01:35:00,
2013-08-10 20:36:00,66.7,58.9,0.00,South,180,8.5,11.0,76,0.00,,---,0.00,VWS V14.01,2013-08-11 01:36:00,
2013-08-10 20:37:00,66.5,58.7,0.00,South,180,5.8,11.0,76,0.00,,---,0.00,VWS V14.01,2013-08-11 01:37:00,
2013-08-10 20:38:00,66.5,59.1,0.00,South,180,7.2,11.0,77,0.00,,---,0.00,VWS V14.01,2013-08-11 01:38:00,
2013-08-10 20:40:00,66.5,59.1,0.00,South,180,8.1,11.0,77,0.00,,---,0.00,VWS V14.01,2013-08-11 01:40:00,
2013-08-10 20:41:00,66.7,58.9,0.00,South,180,9.4,13.6,76,0.00,,---,0.00,VWS V14.01,2013-08-11 01:41:00,
2013-08-10 20:42:00,66.7,58.9,0.00,South,180,7.6,13.6,76,0.00,,---,0.00,VWS V14.01,2013-08-11 01:42:00,
2013-08-10 20:43:00,66.7,58.9,0.00,SSW,202,8.1,13.6,76,0.00,,---,0.00,VWS V14.01,2013-08-11 01:43:00,
2013-08-10 20:44:00,66.7,58.9,0.00,South,180,10.1,13.6,76,0.00,,---,0.00,VWS V14.01,2013-08-11 01:44:00,
2013-08-10 20:45:00,66.7,58.9,0.00,South,180,10.1,13.6,76,0.00,,---,0.00,VWS V14.01,2013-08-11 01:45:00,
2013-08-10 20:46:00,66.7,59.3,0.00,SSW,202,6.0,10.1,77,0.00,,---,0.00,VWS V14.01,2013-08-11 01:46:00,
2013-08-10 20:47:00,66.9,59.4,0.00,SSW,202,5.6,10.1,77,0.00,,---,0.00,VWS V14.01,2013-08-11 01:47:00,
2013-08-10 20:48:00,67.2,59.8,0.00,South,180,9.8,10.1,77,0.00,,---,0.00,VWS V14.01,2013-08-11 01:48:00,
2013-08-10 20:49:00,67.2,59.8,0.00,South,180,8.1,10.1,77,0.00,,---,0.00,VWS V14.01,2013-08-11 01:49:00,
2013-08-10 20:50:00,67.2,59.8,0.00,South,180,10.3,10.3,77,0.00,,---,0.00,VWS V14.01,2013-08-11 01:50:00,
2013-08-10 20:52:00,67.6,59.0,0.00,SW,225,8.5,10.3,74,0.00,,---,0.00,VWS V14.01,2013-08-11 01:52:00,
2013-08-10 20:54:00,67.6,59.0,0.00,SW,225,8.5,10.3,74,0.00,,---,0.00,VWS V14.01,2013-08-11 01:54:00,
2013-08-10 20:55:00,68.0,59.0,0.00,South,180,8.5,10.3,73,0.00,,---,0.00,VWS V14.01,2013-08-11 01:55:00,
2013-08-10 20:56:00,68.0,59.0,0.00,SW,225,7.6,10.3,73,0.00,,---,0.00,VWS V14.01,2013-08-11 01:56:00,
2013-08-10 20:57:00,68.3,59.3,0.00,SSW,202,7.8,10.3,73,0.00,,---,0.00,VWS V14.01,2013-08-11 01:57:00,
2013-08-10 20:58:00,68.5,59.1,0.00,South,180,10.7,12.8,72,0.00,,---,0.00,VWS V14.01,2013-08-11 01:58:00,
2013-08-10 20:59:00,68.3,59.0,0.00,SW,225,10.1,12.8,72,0.00,,---,0.00,VWS V14.01,2013-08-11 01:59:00,
2013-08-10 21:00:00,68.5,59.1,0.00,South,180,10.1,12.8,72,0.00,,---,0.00,VWS V14.01,2013-08-11 02:00:00,
2013-08-10 21:01:00,68.5,59.1,0.00,South,180,8.7,12.1,72,0.00,,---,0.00,VWS V14.01,2013-08-11 02:01:00,
2013-08-10 21:02:00,68.5,59.1,0.00,SW,225,8.7,12.1,72,0.00,,---,0.00,VWS V14.01,2013-08-11 02:02:00,
2013-08-10 21:04:00,68.9,59.1,0.00,South,180,10.1,12.1,71,0.00,,---,0.00,VWS V14.01,2013-08-11 02:04:00,
2013-08-10 21:05:00,68.7,59.3,0.00,South,180,13.9,13.9,72,0.00,,---,0.00,VWS V14.01,2013-08-11 02:05:00,
2013-08-10 21:06:00,68.5,59.1,0.00,South,180,11.0,13.9,72,0.00,,---,0.00,VWS V14.01,2013-08-11 02:06:00,
2013-08-10 21:07:00,68.5,58.7,0.00,South,180,11.0,15.2,71,0.00,,---,0.00,VWS V14.01,2013-08-11 02:07:00,
2013-08-10 21:08:00,68.5,58.7,0.00,South,180,11.0,15.2,71,0.00,,---,0.00,VWS V14.01,2013-08-11 02:08:00,
2013-08-10 21:09:00,68.5,58.7,0.00,South,180,10.3,15.2,71,0.00,,---,0.00,VWS V14.01,2013-08-11 02:09:00,
2013-08-10 21:10:00,68.5,58.7,0.00,South,180,12.1,15.2,71,0.00,,---,0.00,VWS V14.01,2013-08-11 02:10:00,
2013-08-10 21:11:00,68.5,58.7,0.00,South,180,12.1,15.2,71,0.00,,---,0.00,VWS V14.01,2013-08-11 02:11:00,
2013-08-10 21:12:00,68.5,59.1,0.00,SW,225,8.7,15.2,72,0.00,,---,0.00,VWS V14.01,2013-08-11 02:12:00,
2013-08-10 21:13:00,68.5,59.1,0.00,South,180,14.5,15.2,72,0.00,,---,0.00,VWS V14.01,2013-08-11 02:13:00,
2013-08-10 21:14:00,68.9,59.1,0.00,WSW,248,8.1,15.2,71,0.00,,---,0.00,VWS V14.01,2013-08-11 02:14:00,
2013-08-10 21:15:00,69.0,58.9,0.00,SW,225,10.1,15.2,70,0.00,,---,0.00,VWS V14.01,2013-08-11 02:15:00,
2013-08-10 21:16:00,69.0,58.9,0.00,SW,225,9.8,10.7,70,0.00,,---,0.00,VWS V14.01,2013-08-11 02:16:00,
2013-08-10 21:17:00,69.0,58.9,0.00,SW,225,9.8,10.7,70,0.00,,---,0.00,VWS V14.01,2013-08-11 02:17:00,
2013-08-10 21:19:00,69.0,58.9,0.00,SW,225,5.4,12.3,70,0.00,,---,0.00,VWS V14.01,2013-08-11 02:19:00,
2013-08-10 21:20:00,68.7,58.9,0.00,South,180,8.7,12.3,71,0.00,,---,0.00,VWS V14.01,2013-08-11 02:20:00,
2013-08-10 21:21:00,68.7,58.9,0.00,South,180,8.7,12.3,71,0.00,,---,0.00,VWS V14.01,2013-08-11 02:21:00,
2013-08-10 21:22:00,68.7,58.9,0.00,SW,225,6.0,12.3,71,0.00,,---,0.00,VWS V14.01,2013-08-11 02:22:00,
2013-08-10 21:23:00,68.9,59.1,0.00,SW,225,6.5,12.3,71,0.00,,---,0.00,VWS V14.01,2013-08-11 02:23:00,
2013-08-10 21:25:00,69.0,59.2,0.00,SW,225,6.3,12.3,71,0.00,,---,0.00,VWS V14.01,2013-08-11 02:25:00,
2013-08-10 21:26:00,69.0,59.2,0.00,South,180,6.0,12.3,71,0.00,,---,0.00,VWS V14.01,2013-08-11 02:26:00,
2013-08-10 21:27:00,69.0,59.2,0.00,SSW,202,7.6,12.3,71,0.00,,---,0.00,VWS V14.01,2013-08-11 02:27:00,
2013-08-10 21:28:00,69.0,59.2,0.00,NW,315,3.1,12.3,71,0.00,,---,0.00,VWS V14.01,2013-08-11 02:28:00,
2013-08-10 21:29:00,69.0,59.2,0.00,NW,315,3.8,12.3,71,0.00,,---,0.00,VWS V14.01,2013-08-11 02:29:00,
2013-08-10 21:30:00,69.9,60.1,0.00,SW,225,3.1,12.3,71,0.00,,---,0.00,VWS V14.01,2013-08-11 02:30:00,
2013-08-10 21:32:00,69.9,60.1,0.00,SW,225,7.6,8.5,71,0.00,,---,0.00,VWS V14.01,2013-08-11 02:32:00,
2013-08-10 21:33:00,70.1,59.5,0.00,SW,225,7.4,8.5,69,0.00,,---,0.00,VWS V14.01,2013-08-11 02:33:00,
2013-08-10 21:34:00,70.1,59.5,0.00,South,180,5.8,8.5,69,0.00,,---,0.00,VWS V14.01,2013-08-11 02:34:00,
2013-08-10 21:35:00,70.5,59.8,0.00,South,180,5.8,8.5,69,0.00,,---,0.00,VWS V14.01,2013-08-11 02:35:00,
2013-08-10 21:37:00,71.2,59.7,0.00,West,270,4.0,8.5,67,0.00,,---,0.00,VWS V14.01,2013-08-11 02:37:00,
2013-08-10 21:38:00,71.2,59.7,0.00,SW,225,4.0,8.5,67,0.00,,---,0.00,VWS V14.01,2013-08-11 02:38:00,
2013-08-10 21:39:00,71.4,59.4,0.00,SW,225,4.0,8.5,66,0.00,,---,0.00,VWS V14.01,2013-08-11 02:39:00,
2013-08-10 21:40:00,71.6,59.6,0.00,SE,135,7.2,8.5,66,0.00,,---,0.00,VWS V14.01,2013-08-11 02:40:00,
2013-08-10 21:41:00,71.6,59.6,0.00,West,270,3.4,8.5,66,0.00,,---,0.00,VWS V14.01,2013-08-11 02:41:00,
2013-08-10 21:42:00,71.9,60.0,0.00,North,0,5.8,8.5,66,0.00,,---,0.00,VWS V14.01,2013-08-11 02:42:00,
2013-08-10 21:44:00,71.9,59.5,0.00,SW,225,5.6,8.5,65,0.00,,---,0.00,VWS V14.01,2013-08-11 02:44:00,
2013-08-10 21:45:00,71.7,59.4,0.00,SW,225,4.9,8.5,65,0.00,,---,0.00,VWS V14.01,2013-08-11 02:45:00,
2013-08-10 21:46:00,71.6,59.2,0.00,South,180,4.5,6.0,65,0.00,,---,0.00,VWS V14.01,2013-08-11 02:46:00,
2013-08-10 21:47:00,71.4,59.4,0.00,WSW,248,4.3,6.0,66,0.00,,---,0.00,VWS V14.01,2013-08-11 02:47:00,
2013-08-10 21:48:00,71.9,60.0,0.00,SW,225,4.3,6.0,66,0.00,,---,0.00,VWS V14.01,2013-08-11 02:48:00,
2013-08-10 21:49:00,72.3,60.3,0.00,SW,225,3.4,6.0,66,0.00,,---,0.00,VWS V14.01,2013-08-11 02:49:00,
2013-08-10 21:50:00,72.8,60.4,0.00,SSW,202,5.6,6.0,65,0.00,,---,0.00,VWS V14.01,2013-08-11 02:50:00,
2013-08-10 21:51:00,72.8,60.4,0.00,SW,225,6.9,6.9,65,0.00,,---,0.00,VWS V14.01,2013-08-11 02:51:00,
2013-08-10 21:52:00,73.2,60.3,0.00,SSW,202,3.6,6.9,64,0.00,,---,0.00,VWS V14.01,2013-08-11 02:52:00,
2013-08-10 21:53:00,73.4,60.5,0.00,SW,225,6.0,6.9,64,0.00,,---,0.00,VWS V14.01,2013-08-11 02:53:00,
2013-08-10 21:54:00,73.5,60.2,0.00,West,270,4.3,7.4,63,0.00,,---,0.00,VWS V14.01,2013-08-11 02:54:00,
2013-08-10 21:55:00,73.7,59.9,0.00,NW,315,3.4,7.4,62,0.00,,---,0.00,VWS V14.01,2013-08-11 02:55:00,
2013-08-10 21:56:00,73.9,60.1,0.00,SW,225,2.9,7.4,62,0.00,,---,0.00,VWS V14.01,2013-08-11 02:56:00,
2013-08-10 21:57:00,74.3,60.0,0.00,SW,225,2.9,7.4,61,0.00,,---,0.00,VWS V14.01,2013-08-11 02:57:00,
2013-08-10 21:58:00,74.3,60.0,0.00,SW,225,4.5,7.4,61,0.00,,---,0.00,VWS V14.01,2013-08-11 02:58:00,
2013-08-10 21:59:00,75.2,60.3,0.00,West,270,3.6,7.4,60,0.00,,---,0.00,VWS V14.01,2013-08-11 02:59:00,
2013-08-10 22:00:00,75.2,59.9,0.00,SSW,202,5.4,7.4,59,0.00,,---,0.00,VWS V14.01,2013-08-11 03:00:00,
2013-08-10 22:01:00,75.2,59.9,0.00,SW,225,1.1,5.4,59,0.00,,---,0.00,VWS V14.01,2013-08-11 03:01:00,
2013-08-10 22:02:00,75.5,60.7,0.00,SW,225,2.0,5.4,60,0.00,,---,0.00,VWS V14.01,2013-08-11 03:02:00,
2013-08-10 22:04:00,75.5,60.7,0.00,WSW,248,5.8,5.8,60,0.00,,---,0.00,VWS V14.01,2013-08-11 03:04:00,
2013-08-10 22:05:00,75.5,59.7,0.00,SW,225,5.6,6.3,58,0.00,,---,0.00,VWS V14.01,2013-08-11 03:05:00,
2013-08-10 22:06:00,75.7,58.9,0.00,WNW,292,4.3,6.3,56,0.00,,---,0.00,VWS V14.01,2013-08-11 03:06:00,
2013-08-10 22:07:00,75.7,58.4,0.00,NW,315,4.3,8.1,55,0.00,,---,0.00,VWS V14.01,2013-08-11 03:07:00,
2013-08-10 22:08:00,75.9,59.6,0.00,SSW,202,2.7,8.1,57,0.00,,---,0.00,VWS V14.01,2013-08-11 03:08:00,
2013-08-10 22:09:00,75.9,59.6,0.00,SSW,202,3.6,8.1,57,0.00,,---,0.00,VWS V14.01,2013-08-11 03:09:00,
2013-08-10 22:10:00,75.9,59.6,0.00,SW,225,5.6,8.1,57,0.00,,---,0.00,VWS V14.01,2013-08-11 03:10:00,
2013-08-10 22:11:00,75.9,59.6,0.00,SW,225,6.5,8.1,57,0.00,,---,0.00,VWS V14.01,2013-08-11 03:11:00,
2013-08-10 22:12:00,75.9,59.1,0.00,SW,225,4.9,8.7,56,0.00,,---,0.00,VWS V14.01,2013-08-11 03:12:00,
2013-08-10 22:13:00,75.7,58.9,0.00,SW,225,5.8,8.7,56,0.00,,---,0.00,VWS V14.01,2013-08-11 03:13:00,
2013-08-10 22:14:00,75.7,58.9,0.00,SSW,202,4.7,8.7,56,0.00,,---,0.00,VWS V14.01,2013-08-11 03:14:00,
2013-08-10 22:15:00,75.5,59.2,0.00,SW,225,6.9,8.7,57,0.00,,---,0.00,VWS V14.01,2013-08-11 03:15:00,
2013-08-10 22:16:00,75.5,59.2,0.00,SW,225,4.3,7.8,57,0.00,,---,0.00,VWS V14.01,2013-08-11 03:16:00,
2013-08-10 22:17:00,75.9,59.1,0.00,West,270,5.4,7.8,56,0.00,,---,0.00,VWS V14.01,2013-08-11 03:17:00,
2013-08-10 22:18:00,76.1,59.2,0.00,NW,315,2.9,7.8,56,0.00,,---,0.00,VWS V14.01,2013-08-11 03:18:00,
2013-08-10 22:19:00,76.4,59.1,0.00,SW,225,5.4,7.8,55,0.00,,---,0.00,VWS V14.01,2013-08-11 03:19:00,
2013-08-10 22:20:00,76.4,59.1,0.00,SW,225,5.4,7.8,55,0.00,,---,0.00,VWS V14.01,2013-08-11 03:20:00,
2013-08-10 22:21:00,76.6,58.7,0.00,SW,225,3.8,7.8,54,0.00,,---,0.00,VWS V14.01,2013-08-11 03:21:00,
2013-08-10 22:22:00,76.6,59.2,0.00,SW,225,4.7,7.8,55,0.00,,---,0.00,VWS V14.01,2013-08-11 03:22:00,
2013-08-10 22:23:00,76.6,58.7,0.00,SW,225,6.5,7.8,54,0.00,,---,0.00,VWS V14.01,2013-08-11 03:23:00,
2013-08-10 22:24:00,76.6,58.7,0.00,SW,225,3.6,7.8,54,0.00,,---,0.00,VWS V14.01,2013-08-11 03:24:00,
2013-08-10 22:25:00,76.6,59.8,0.00,SW,225,3.8,7.8,56,0.00,,---,0.00,VWS V14.01,2013-08-11 03:25:00,
2013-08-10 22:26:00,76.8,59.4,0.00,WSW,248,5.4,7.8,55,0.00,,---,0.00,VWS V14.01,2013-08-11 03:26:00,
2013-08-10 22:27:00,76.8,58.9,0.00,South,180,5.8,7.8,54,0.00,,---,0.00,VWS V14.01,2013-08-11 03:27:00,
2013-08-10 22:30:00,76.8,58.9,0.00,SSW,202,3.6,7.8,54,0.00,,---,0.00,VWS V14.01,2013-08-11 03:30:00,
2013-08-10 22:31:00,77.3,59.9,0.00,NW,315,0.0,4.0,55,0.00,,---,0.00,VWS V14.01,2013-08-11 03:31:00,
2013-08-10 22:32:00,77.3,59.9,0.00,SE,135,1.1,4.0,55,0.00,,---,0.00,VWS V14.01,2013-08-11 03:32:00,
2013-08-10 22:33:00,77.3,59.9,0.00,NW,315,4.7,4.7,55,0.00,,---,0.00,VWS V14.01,2013-08-11 03:33:00,
2013-08-10 22:35:00,77.9,58.8,0.00,South,180,4.0,4.7,52,0.00,,---,0.00,VWS V14.01,2013-08-11 03:35:00,
2013-08-10 22:36:00,78.4,59.9,0.00,South,180,1.6,4.7,53,0.00,,---,0.00,VWS V14.01,2013-08-11 03:36:00,
2013-08-10 22:37:00,79.3,60.7,0.00,West,270,0.0,4.7,53,0.00,,---,0.00,VWS V14.01,2013-08-11 03:37:00,
2013-08-10 22:38:00,79.8,61.2,0.00,West,270,0.0,4.7,53,0.00,,---,0.00,VWS V14.01,2013-08-11 03:38:00,
2013-08-10 22:39:00,80.2,61.5,0.00,South,180,0.0,4.7,53,0.00,,---,0.00,VWS V14.01,2013-08-11 03:39:00,
2013-08-10 22:41:00,80.4,60.6,0.00,SW,225,2.9,4.7,51,0.00,,---,0.00,VWS V14.01,2013-08-11 03:41:00,
2013-08-10 22:42:00,80.2,59.9,0.00,South,180,2.9,4.7,50,0.00,,---,0.00,VWS V14.01,2013-08-11 03:42:00,
2013-08-10 22:43:00,80.2,59.9,0.00,South,180,4.0,4.7,50,0.00,,---,0.00,VWS V14.01,2013-08-11 03:43:00,
2013-08-10 22:44:00,80.2,59.9,0.00,South,180,4.9,4.9,50,0.00,,---,0.00,VWS V14.01,2013-08-11 03:44:00,
2013-08-10 22:45:00,80.2,59.9,0.00,SW,225,3.4,4.9,50,0.00,,---,0.00,VWS V14.01,2013-08-11 03:45:00,
2013-08-10 22:46:00,80.0,59.7,0.00,South,180,3.1,3.6,50,0.00,,---,0.00,VWS V14.01,2013-08-11 03:46:00,
2013-08-10 22:47:00,80.2,59.3,0.00,South,180,3.1,4.3,49,0.00,,---,0.00,VWS V14.01,2013-08-11 03:47:00,
2013-08-10 22:48:00,80.4,59.5,0.00,NW,315,2.5,4.3,49,0.00,,---,0.00,VWS V14.01,2013-08-11 03:48:00,
2013-08-10 22:49:00,80.6,59.1,0.00,West,270,4.3,4.3,48,0.00,,---,0.00,VWS V14.01,2013-08-11 03:49:00,
2013-08-10 22:50:00,80.6,59.1,0.00,SW,225,2.7,5.4,48,0.00,,---,0.00,VWS V14.01,2013-08-11 03:50:00,
2013-08-10 22:51:00,80.7,58.7,0.00,NW,315,2.7,5.4,47,0.00,,---,0.00,VWS V14.01,2013-08-11 03:51:00,
2013-08-10 22:52:00,80.9,59.4,0.00,NW,315,0.9,5.4,48,0.00,,---,0.00,VWS V14.01,2013-08-11 03:52:00,
2013-08-10 22:53:00,80.9,59.4,0.00,West,270,4.3,5.4,48,0.00,,---,0.00,VWS V14.01,2013-08-11 03:53:00,
2013-08-10 22:54:00,80.9,59.4,0.00,SSE,158,2.9,5.4,48,0.00,,---,0.00,VWS V14.01,2013-08-11 03:54:00,
2013-08-10 22:55:00,80.9,59.4,0.00,SSE,158,4.0,5.4,48,0.00,,---,0.00,VWS V14.01,2013-08-11 03:55:00,
2013-08-10 22:56:00,80.9,59.4,0.00,South,180,1.6,5.4,48,0.00,,---,0.00,VWS V14.01,2013-08-11 03:56:00,
2013-08-10 22:57:00,81.6,60.1,0.00,SW,225,2.0,5.4,48,0.00,,---,0.00,VWS V14.01,2013-08-11 03:57:00,
2013-08-10 22:58:00,81.8,59.6,0.00,SW,225,2.7,5.4,47,0.00,,---,0.00,VWS V14.01,2013-08-11 03:58:00,
2013-08-10 22:59:00,81.8,59.6,0.00,WNW,292,0.0,5.4,47,0.00,,---,0.00,VWS V14.01,2013-08-11 03:59:00,
2013-08-10 23:00:00,82.0,59.2,0.00,NW,315,0.0,5.4,46,0.00,,---,0.00,VWS V14.01,2013-08-11 04:00:00,
2013-08-10 23:01:00,82.5,60.3,0.00,SE,135,1.3,1.3,47,0.00,,---,0.00,VWS V14.01,2013-08-11 04:01:00,
2013-08-10 23:02:00,83.3,61.0,0.00,SE,135,3.1,3.4,47,0.00,,---,0.00,VWS V14.01,2013-08-11 04:02:00,
2013-08-10 23:03:00,83.4,60.5,0.00,SE,135,3.8,4.7,46,0.00,,---,0.00,VWS V14.01,2013-08-11 04:03:00,
2013-08-10 23:04:00,83.6,60.7,0.00,SW,225,3.1,4.7,46,0.00,,---,0.00,VWS V14.01,2013-08-11 04:04:00,
2013-08-10 23:05:00,83.6,60.7,0.00,SE,135,6.0,6.0,46,0.00,,---,0.00,VWS V14.01,2013-08-11 04:05:00,
2013-08-10 23:06:00,83.4,59.9,0.00,SE,135,5.4,6.0,45,0.00,,---,0.00,VWS V14.01,2013-08-11 04:06:00,
2013-08-10 23:07:00,83.3,59.7,0.00,ESE,112,5.8,6.0,45,0.00,,---,0.00,VWS V14.01,2013-08-11 04:07:00,
2013-08-10 23:08:00,82.9,59.4,0.00,East,90,4.7,6.5,45,0.00,,---,0.00,VWS V14.01,2013-08-11 04:08:00,
2013-08-10 23:09:00,82.9,59.4,0.00,South,180,7.8,7.8,45,0.00,,---,0.00,VWS V14.01,2013-08-11 04:09:00,
2013-08-10 23:10:00,80.9,58.2,0.00,South,180,11.0,11.0,46,0.00,,---,0.00,VWS V14.01,2013-08-11 04:10:00,
2013-08-10 23:11:00,81.1,58.4,0.00,South,180,4.0,11.0,46,0.00,,---,0.00,VWS V14.01,2013-08-11 04:11:00,
2013-08-10 23:12:00,81.3,58.5,0.00,SE,135,1.1,11.0,46,0.00,,---,0.00,VWS V14.01,2013-08-11 04:12:00,
2013-08-10 23:13:00,81.8,59.0,0.00,SE,135,1.6,11.0,46,0.00,,---,0.00,VWS V14.01,2013-08-11 04:13:00,
2013-08-10 23:14:00,82.2,59.4,0.00,South,180,7.2,11.0,46,0.00,,---,0.00,VWS V14.01,2013-08-11 04:14:00,
2013-08-10 23:15:00,82.2,59.4,0.00,South,180,3.1,3.1,46,0.00,,---,0.00,VWS V14.01,2013-08-11 04:15:00,
2013-08-10 23:16:00,82.2,59.4,0.00,SE,135,3.6,5.6,46,0.00,,---,0.00,VWS V14.01,2013-08-11 04:16:00,
2013-08-10 23:17:00,82.2,59.4,0.00,South,180,3.6,5.6,46,0.00,,---,0.00,VWS V14.01,2013-08-11 04:17:00,
2013-08-10 23:18:00,82.2,59.4,0.00,South,180,8.7,8.7,46,0.00,,---,0.00,VWS V14.01,2013-08-11 04:18:00,
2013-08-10 23:19:00,81.3,59.2,0.00,South,180,3.8,8.7,47,0.00,,---,0.00,VWS V14.01,2013-08-11 04:19:00,
2013-08-10 23:20:00,81.3,59.2,0.00,South,180,8.7,8.7,47,0.00,,---,0.00,VWS V14.01,2013-08-11 04:20:00,
2013-08-10 23:21:00,80.9,58.8,0.00,South,180,6.3,8.7,47,0.00,,---,0.00,VWS V14.01,2013-08-11 04:21:00,
2013-08-10 23:22:00,80.7,59.2,0.00,South,180,10.7,10.7,48,0.00,,---,0.00,VWS V14.01,2013-08-11 04:22:00,
2013-08-10 23:23:00,80.7,59.2,0.00,SSW,202,5.8,13.0,48,0.00,,---,0.00,VWS V14.01,2013-08-11 04:23:00,
2013-08-10 23:24:00,79.8,58.4,0.00,South,180,5.6,13.0,48,0.00,,---,0.00,VWS V14.01,2013-08-11 04:24:00,
2013-08-10 23:25:00,80.2,58.2,0.00,SW,225,2.7,13.0,47,0.00,,---,0.00,VWS V14.01,2013-08-11 04:25:00,
2013-08-10 23:26:00,80.7,58.7,0.00,South,180,4.3,13.0,47,0.00,,---,0.00,VWS V14.01,2013-08-11 04:26:00,
2013-08-10 23:27:00,80.7,58.7,0.00,SW,225,3.4,13.0,47,0.00,,---,0.00,VWS V14.01,2013-08-11 04:27:00,
2013-08-10 23:28:00,80.7,58.7,0.00,SW,225,3.4,13.0,47,0.00,,---,0.00,VWS V14.01,2013-08-11 04:28:00,
2013-08-10 23:29:00,81.3,59.2,0.00,SW,225,3.8,13.0,47,0.00,,---,0.00,VWS V14.01,2013-08-11 04:29:00,
2013-08-10 23:30:00,81.3,59.2,0.00,SW,225,4.9,13.0,47,0.00,,---,0.00,VWS V14.01,2013-08-11 04:30:00,
2013-08-10 23:31:00,81.3,59.2,0.00,SE,135,7.8,7.8,47,0.00,,---,0.00,VWS V14.01,2013-08-11 04:31:00,
2013-08-10 23:32:00,82.0,59.2,0.00,SE,135,3.4,7.8,46,0.00,,---,0.00,VWS V14.01,2013-08-11 04:32:00,
2013-08-10 23:33:00,82.5,60.3,0.00,West,270,3.4,7.8,47,0.00,,---,0.00,VWS V14.01,2013-08-11 04:33:00,
2013-08-10 23:34:00,82.7,59.8,0.00,West,270,4.9,7.8,46,0.00,,---,0.00,VWS V14.01,2013-08-11 04:34:00,
2013-08-10 23:35:00,82.7,59.8,0.00,SW,225,6.3,7.8,46,0.00,,---,0.00,VWS V14.01,2013-08-11 04:35:00,
2013-08-10 23:36:00,82.5,59.1,0.00,South,180,6.3,9.0,45,0.00,,---,0.00,VWS V14.01,2013-08-11 04:36:00,
2013-08-10 23:37:00,82.2,59.4,0.00,SSW,202,4.7,9.0,46,0.00,,---,0.00,VWS V14.01,2013-08-11 04:37:00,
2013-08-10 23:38:00,82.2,59.4,0.00,West,270,7.8,9.0,46,0.00,,---,0.00,VWS V14.01,2013-08-11 04:38:00,
2013-08-10 23:39:00,82.2,59.4,0.00,South,180,5.4,9.0,46,0.00,,---,0.00,VWS V14.01,2013-08-11 04:39:00,
2013-08-10 23:40:00,82.0,59.2,0.00,SW,225,3.1,9.0,46,0.00,,---,0.00,VWS V14.01,2013-08-11 04:40:00,
2013-08-10 23:41:00,82.2,59.4,0.00,South,180,5.4,9.0,46,0.00,,---,0.00,VWS V14.01,2013-08-11 04:41:00,
2013-08-10 23:42:00,82.2,59.4,0.00,South,180,1.6,9.0,46,0.00,,---,0.00,VWS V14.01,2013-08-11 04:42:00,
2013-08-10 23:43:00,82.2,59.4,0.00,South,180,1.6,9.0,46,0.00,,---,0.00,VWS V14.01,2013-08-11 04:43:00,
2013-08-10 23:44:00,82.2,59.4,0.00,West,270,4.3,9.0,46,0.00,,---,0.00,VWS V14.01,2013-08-11 04:44:00,
2013-08-10 23:45:00,82.2,59.4,0.00,West,270,4.7,9.0,46,0.00,,---,0.00,VWS V14.01,2013-08-11 04:45:00,
2013-08-10 23:46:00,82.7,59.2,0.00,West,270,6.3,6.3,45,0.00,,---,0.00,VWS V14.01,2013-08-11 04:46:00,
2013-08-10 23:48:00,82.7,59.2,0.00,NW,315,3.8,6.3,45,0.00,,---,0.00,VWS V14.01,2013-08-11 04:48:00,
2013-08-10 23:49:00,82.7,59.2,0.00,West,270,3.4,6.3,45,0.00,,---,0.00,VWS V14.01,2013-08-11 04:49:00,
2013-08-10 23:50:00,83.1,59.6,0.00,WNW,292,3.4,6.3,45,0.00,,---,0.00,VWS V14.01,2013-08-11 04:50:00,
2013-08-10 23:51:00,83.1,59.6,0.00,West,270,3.6,6.3,45,0.00,,---,0.00,VWS V14.01,2013-08-11 04:51:00,
2013-08-10 23:52:00,83.3,59.7,0.00,West,270,5.6,6.3,45,0.00,,---,0.00,VWS V14.01,2013-08-11 04:52:00,
2013-08-10 23:53:00,83.4,59.9,0.00,South,180,3.8,6.3,45,0.00,,---,0.00,VWS V14.01,2013-08-11 04:53:00,
2013-08-10 23:54:00,83.8,59.6,0.00,NW,315,3.4,6.3,44,0.00,,---,0.00,VWS V14.01,2013-08-11 04:54:00,
2013-08-10 23:55:00,83.8,59.6,0.00,West,270,4.9,6.3,44,0.00,,---,0.00,VWS V14.01,2013-08-11 04:55:00,
2013-08-10 23:56:00,84.0,59.8,0.00,SW,225,3.4,6.5,44,0.00,,---,0.00,VWS V14.01,2013-08-11 04:56:00,
2013-08-10 23:57:00,84.0,59.8,0.00,South,180,2.5,6.5,44,0.00,,---,0.00,VWS V14.01,2013-08-11 04:57:00,
2013-08-10 23:58:00,84.0,59.8,0.00,NE,45,0.9,6.5,44,0.00,,---,0.00,VWS V14.01,2013-08-11 04:58:00,
2013-08-10 23:59:00,86.1,62.3,0.00,North,0,3.4,6.5,45,0.00,,---,0.00,VWS V14.01,2013-08-11 04:59:00,